<?xml version="1.0" encoding="UTF-8" standalone="no" ?>
<gpx xmlns="http://www.topografix.com/GPX/1/1" xmlns:xsi="http://www.w3.org/2001/XMLSchema-instance" xsi:schemaLocation="http://www.topografix.com/GPX/1/1 http://www.topografix.com/GPX/1/1/gpx.xsd" version="1.1" creator="VisuGPX - https://www.visugpx.com">
  <metadata>
    <name>La Motte Valavoire St Geniez Chateaufort Nibles</name>
    <desc><![CDATA[Ce très beau circuit dans le secret des Hautes Terres de Provence fait monter à Valavoire par petite route puis à Saint Geniez par piste suivie de Route on monte directement au passage de l'échelle ,  (cela évite le passage par les Rayes un peu fastidieux mais prive du superbe panorama aux Rayes). 
On descend à Chateaufort par piste un peu caillouteuse dans un superbe vallon sauvage empreint de spiritualité :Maison Notre Dame de La Pène , prieuré des s?urs de Saint Jean , monastère des frères de Saint Jean qui se succèdent , ont trouvés dans cette vallée secrète le calme et la sérénité dans cette nature intacte. On revient au point de départ en passant par Nibles (Piste balisér GR a droite immédiatement apres le pont sur le Sasse
Le dénivelé est de 925 m]]></desc>
  </metadata>
  <trk>
    <name><![CDATA[18/09/2020 10:56:30]]></name>
    <extensions>
      <line xmlns="http://www.topografix.com/GPX/gpx_style/0/2">
        <color>0000FF</color>
        <width>4</width>
      </line>
    </extensions>
    <trkseg>
      <trkpt lat="44.30342" lon="6.03427">
        <ele>625.8</ele>
        <time>2020-09-18T08:56:30Z</time>
      </trkpt>
      <trkpt lat="44.30342" lon="6.03425">
        <ele>625.9</ele>
        <time>2020-09-18T08:56:31Z</time>
      </trkpt>
      <trkpt lat="44.3035" lon="6.03406">
        <ele>628.5</ele>
        <time>2020-09-18T08:56:33Z</time>
      </trkpt>
      <trkpt lat="44.30361" lon="6.03387">
        <ele>632.4</ele>
        <time>2020-09-18T08:56:35Z</time>
      </trkpt>
      <trkpt lat="44.30371" lon="6.03364">
        <ele>636.6</ele>
        <time>2020-09-18T08:56:50Z</time>
      </trkpt>
      <trkpt lat="44.30371" lon="6.03361">
        <ele>637</ele>
        <time>2020-09-18T08:57:15Z</time>
      </trkpt>
      <trkpt lat="44.30382" lon="6.03357">
        <ele>637.5</ele>
        <time>2020-09-18T09:01:10Z</time>
      </trkpt>
      <trkpt lat="44.30383" lon="6.03357">
        <ele>637.5</ele>
        <time>2020-09-18T09:01:11Z</time>
      </trkpt>
      <trkpt lat="44.30403" lon="6.03367">
        <ele>635.4</ele>
        <time>2020-09-18T09:01:24Z</time>
      </trkpt>
      <trkpt lat="44.30424" lon="6.03378">
        <ele>633.4</ele>
        <time>2020-09-18T09:01:34Z</time>
      </trkpt>
      <trkpt lat="44.30423" lon="6.03379">
        <ele>633.2</ele>
        <time>2020-09-18T09:01:37Z</time>
      </trkpt>
      <trkpt lat="44.30422" lon="6.0338">
        <ele>633</ele>
        <time>2020-09-18T09:01:41Z</time>
      </trkpt>
      <trkpt lat="44.30426" lon="6.03386">
        <ele>632.2</ele>
        <time>2020-09-18T09:02:05Z</time>
      </trkpt>
      <trkpt lat="44.30429" lon="6.03386">
        <ele>632.1</ele>
        <time>2020-09-18T09:02:06Z</time>
      </trkpt>
      <trkpt lat="44.30432" lon="6.03387">
        <ele>631.9</ele>
        <time>2020-09-18T09:02:07Z</time>
      </trkpt>
      <trkpt lat="44.30435" lon="6.03388">
        <ele>631.6</ele>
        <time>2020-09-18T09:02:08Z</time>
      </trkpt>
      <trkpt lat="44.30439" lon="6.03388">
        <ele>631.5</ele>
        <time>2020-09-18T09:02:09Z</time>
      </trkpt>
      <trkpt lat="44.30443" lon="6.03389">
        <ele>631.3</ele>
        <time>2020-09-18T09:02:10Z</time>
      </trkpt>
      <trkpt lat="44.30495" lon="6.03401">
        <ele>628.6</ele>
        <time>2020-09-18T09:02:25Z</time>
      </trkpt>
      <trkpt lat="44.30544" lon="6.0342">
        <ele>635.3</ele>
        <time>2020-09-18T09:02:41Z</time>
      </trkpt>
      <trkpt lat="44.30586" lon="6.03446">
        <ele>639.5</ele>
        <time>2020-09-18T09:02:56Z</time>
      </trkpt>
      <trkpt lat="44.30645" lon="6.03493">
        <ele>642</ele>
        <time>2020-09-18T09:03:18Z</time>
      </trkpt>
      <trkpt lat="44.3069" lon="6.03512">
        <ele>642.7</ele>
        <time>2020-09-18T09:03:33Z</time>
      </trkpt>
      <trkpt lat="44.30722" lon="6.03521">
        <ele>643.1</ele>
        <time>2020-09-18T09:03:44Z</time>
      </trkpt>
      <trkpt lat="44.30764" lon="6.03526">
        <ele>642.8</ele>
        <time>2020-09-18T09:03:58Z</time>
      </trkpt>
      <trkpt lat="44.30808" lon="6.0353">
        <ele>639.2</ele>
        <time>2020-09-18T09:04:12Z</time>
      </trkpt>
      <trkpt lat="44.30858" lon="6.0353">
        <ele>638.3</ele>
        <time>2020-09-18T09:04:28Z</time>
      </trkpt>
      <trkpt lat="44.30907" lon="6.03528">
        <ele>639.7</ele>
        <time>2020-09-18T09:04:44Z</time>
      </trkpt>
      <trkpt lat="44.30962" lon="6.03523">
        <ele>641.6</ele>
        <time>2020-09-18T09:05:02Z</time>
      </trkpt>
      <trkpt lat="44.30994" lon="6.03542">
        <ele>640.8</ele>
        <time>2020-09-18T09:05:15Z</time>
      </trkpt>
      <trkpt lat="44.30994" lon="6.03615">
        <ele>636.6</ele>
        <time>2020-09-18T09:05:33Z</time>
      </trkpt>
      <trkpt lat="44.30997" lon="6.03683">
        <ele>634.8</ele>
        <time>2020-09-18T09:05:51Z</time>
      </trkpt>
      <trkpt lat="44.31001" lon="6.03765">
        <ele>634</ele>
        <time>2020-09-18T09:06:07Z</time>
      </trkpt>
      <trkpt lat="44.31014" lon="6.0386">
        <ele>634.8</ele>
        <time>2020-09-18T09:06:26Z</time>
      </trkpt>
      <trkpt lat="44.31026" lon="6.03928">
        <ele>637.4</ele>
        <time>2020-09-18T09:06:45Z</time>
      </trkpt>
      <trkpt lat="44.31036" lon="6.03991">
        <ele>643.6</ele>
        <time>2020-09-18T09:07:07Z</time>
      </trkpt>
      <trkpt lat="44.31045" lon="6.04045">
        <ele>648.9</ele>
        <time>2020-09-18T09:07:26Z</time>
      </trkpt>
      <trkpt lat="44.31048" lon="6.04087">
        <ele>652.1</ele>
        <time>2020-09-18T09:07:41Z</time>
      </trkpt>
      <trkpt lat="44.31052" lon="6.0415">
        <ele>654.2</ele>
        <time>2020-09-18T09:08:03Z</time>
      </trkpt>
      <trkpt lat="44.31055" lon="6.04219">
        <ele>655</ele>
        <time>2020-09-18T09:08:28Z</time>
      </trkpt>
      <trkpt lat="44.31058" lon="6.04293">
        <ele>654.8</ele>
        <time>2020-09-18T09:08:47Z</time>
      </trkpt>
      <trkpt lat="44.31053" lon="6.04394">
        <ele>653.2</ele>
        <time>2020-09-18T09:09:05Z</time>
      </trkpt>
      <trkpt lat="44.31043" lon="6.04487">
        <ele>652.2</ele>
        <time>2020-09-18T09:09:18Z</time>
      </trkpt>
      <trkpt lat="44.31025" lon="6.04564">
        <ele>650.7</ele>
        <time>2020-09-18T09:09:28Z</time>
      </trkpt>
      <trkpt lat="44.31022" lon="6.0458">
        <ele>650.6</ele>
        <time>2020-09-18T09:09:30Z</time>
      </trkpt>
      <trkpt lat="44.31021" lon="6.04605">
        <ele>649.8</ele>
        <time>2020-09-18T09:09:33Z</time>
      </trkpt>
      <trkpt lat="44.31022" lon="6.04613">
        <ele>649.5</ele>
        <time>2020-09-18T09:09:34Z</time>
      </trkpt>
      <trkpt lat="44.31023" lon="6.0462">
        <ele>649.4</ele>
        <time>2020-09-18T09:09:35Z</time>
      </trkpt>
      <trkpt lat="44.31024" lon="6.04627">
        <ele>649.3</ele>
        <time>2020-09-18T09:09:36Z</time>
      </trkpt>
      <trkpt lat="44.31026" lon="6.04633">
        <ele>649.2</ele>
        <time>2020-09-18T09:09:37Z</time>
      </trkpt>
      <trkpt lat="44.31029" lon="6.04639">
        <ele>649.2</ele>
        <time>2020-09-18T09:09:38Z</time>
      </trkpt>
      <trkpt lat="44.31031" lon="6.04645">
        <ele>649.1</ele>
        <time>2020-09-18T09:09:39Z</time>
      </trkpt>
      <trkpt lat="44.31069" lon="6.04723">
        <ele>648.1</ele>
        <time>2020-09-18T09:09:55Z</time>
      </trkpt>
      <trkpt lat="44.31111" lon="6.04798">
        <ele>649.6</ele>
        <time>2020-09-18T09:10:14Z</time>
      </trkpt>
      <trkpt lat="44.31143" lon="6.04853">
        <ele>650</ele>
        <time>2020-09-18T09:10:31Z</time>
      </trkpt>
      <trkpt lat="44.31185" lon="6.04937">
        <ele>650</ele>
        <time>2020-09-18T09:10:57Z</time>
      </trkpt>
      <trkpt lat="44.31222" lon="6.0501">
        <ele>652.6</ele>
        <time>2020-09-18T09:11:20Z</time>
      </trkpt>
      <trkpt lat="44.31255" lon="6.05068">
        <ele>653.1</ele>
        <time>2020-09-18T09:11:40Z</time>
      </trkpt>
      <trkpt lat="44.31268" lon="6.05086">
        <ele>653.3</ele>
        <time>2020-09-18T09:11:52Z</time>
      </trkpt>
      <trkpt lat="44.3127" lon="6.05093">
        <ele>653.3</ele>
        <time>2020-09-18T09:12:20Z</time>
      </trkpt>
      <trkpt lat="44.31271" lon="6.05096">
        <ele>653.4</ele>
        <time>2020-09-18T09:12:21Z</time>
      </trkpt>
      <trkpt lat="44.31302" lon="6.05161">
        <ele>653.4</ele>
        <time>2020-09-18T09:12:37Z</time>
      </trkpt>
      <trkpt lat="44.31327" lon="6.05237">
        <ele>654</ele>
        <time>2020-09-18T09:12:55Z</time>
      </trkpt>
      <trkpt lat="44.31356" lon="6.05318">
        <ele>655.9</ele>
        <time>2020-09-18T09:13:15Z</time>
      </trkpt>
      <trkpt lat="44.31366" lon="6.05361">
        <ele>656.4</ele>
        <time>2020-09-18T09:13:26Z</time>
      </trkpt>
      <trkpt lat="44.31364" lon="6.05364">
        <ele>656.4</ele>
        <time>2020-09-18T09:13:27Z</time>
      </trkpt>
      <trkpt lat="44.31361" lon="6.05367">
        <ele>656.4</ele>
        <time>2020-09-18T09:13:28Z</time>
      </trkpt>
      <trkpt lat="44.31359" lon="6.05369">
        <ele>656.4</ele>
        <time>2020-09-18T09:13:29Z</time>
      </trkpt>
      <trkpt lat="44.31357" lon="6.05371">
        <ele>656.4</ele>
        <time>2020-09-18T09:13:30Z</time>
      </trkpt>
      <trkpt lat="44.31305" lon="6.05425">
        <ele>656.3</ele>
        <time>2020-09-18T09:13:51Z</time>
      </trkpt>
      <trkpt lat="44.31275" lon="6.05456">
        <ele>655.3</ele>
        <time>2020-09-18T09:13:58Z</time>
      </trkpt>
      <trkpt lat="44.31271" lon="6.05461">
        <ele>655.1</ele>
        <time>2020-09-18T09:13:59Z</time>
      </trkpt>
      <trkpt lat="44.31267" lon="6.05468">
        <ele>654.9</ele>
        <time>2020-09-18T09:14:00Z</time>
      </trkpt>
      <trkpt lat="44.31257" lon="6.05486">
        <ele>654.4</ele>
        <time>2020-09-18T09:14:03Z</time>
      </trkpt>
      <trkpt lat="44.31254" lon="6.05492">
        <ele>654.2</ele>
        <time>2020-09-18T09:14:04Z</time>
      </trkpt>
      <trkpt lat="44.31205" lon="6.05555">
        <ele>655.1</ele>
        <time>2020-09-18T09:14:16Z</time>
      </trkpt>
      <trkpt lat="44.31203" lon="6.05561">
        <ele>655.3</ele>
        <time>2020-09-18T09:14:17Z</time>
      </trkpt>
      <trkpt lat="44.31177" lon="6.05638">
        <ele>659.3</ele>
        <time>2020-09-18T09:14:32Z</time>
      </trkpt>
      <trkpt lat="44.31185" lon="6.05695">
        <ele>662.4</ele>
        <time>2020-09-18T09:14:45Z</time>
      </trkpt>
      <trkpt lat="44.31185" lon="6.05703">
        <ele>663</ele>
        <time>2020-09-18T09:14:47Z</time>
      </trkpt>
      <trkpt lat="44.31174" lon="6.05747">
        <ele>667.8</ele>
        <time>2020-09-18T09:15:00Z</time>
      </trkpt>
      <trkpt lat="44.31175" lon="6.05785">
        <ele>671.3</ele>
        <time>2020-09-18T09:15:12Z</time>
      </trkpt>
      <trkpt lat="44.31194" lon="6.05815">
        <ele>671.4</ele>
        <time>2020-09-18T09:15:24Z</time>
      </trkpt>
      <trkpt lat="44.31219" lon="6.05841">
        <ele>670.3</ele>
        <time>2020-09-18T09:15:38Z</time>
      </trkpt>
      <trkpt lat="44.31236" lon="6.05873">
        <ele>671.4</ele>
        <time>2020-09-18T09:15:52Z</time>
      </trkpt>
      <trkpt lat="44.31245" lon="6.05915">
        <ele>674.6</ele>
        <time>2020-09-18T09:16:05Z</time>
      </trkpt>
      <trkpt lat="44.31248" lon="6.05964">
        <ele>677.1</ele>
        <time>2020-09-18T09:16:19Z</time>
      </trkpt>
      <trkpt lat="44.3125" lon="6.06">
        <ele>679</ele>
        <time>2020-09-18T09:16:31Z</time>
      </trkpt>
      <trkpt lat="44.31237" lon="6.06031">
        <ele>682</ele>
        <time>2020-09-18T09:16:44Z</time>
      </trkpt>
      <trkpt lat="44.31214" lon="6.06025">
        <ele>686.1</ele>
        <time>2020-09-18T09:16:55Z</time>
      </trkpt>
      <trkpt lat="44.31178" lon="6.06018">
        <ele>692.4</ele>
        <time>2020-09-18T09:17:13Z</time>
      </trkpt>
      <trkpt lat="44.31157" lon="6.06035">
        <ele>696</ele>
        <time>2020-09-18T09:17:25Z</time>
      </trkpt>
      <trkpt lat="44.31125" lon="6.06038">
        <ele>701.6</ele>
        <time>2020-09-18T09:17:41Z</time>
      </trkpt>
      <trkpt lat="44.31117" lon="6.06033">
        <ele>702.9</ele>
        <time>2020-09-18T09:17:49Z</time>
      </trkpt>
      <trkpt lat="44.31113" lon="6.06024">
        <ele>703.5</ele>
        <time>2020-09-18T09:23:20Z</time>
      </trkpt>
      <trkpt lat="44.31112" lon="6.06021">
        <ele>703.5</ele>
        <time>2020-09-18T09:23:21Z</time>
      </trkpt>
      <trkpt lat="44.31112" lon="6.06018">
        <ele>703.4</ele>
        <time>2020-09-18T09:23:22Z</time>
      </trkpt>
      <trkpt lat="44.31103" lon="6.0596">
        <ele>701.5</ele>
        <time>2020-09-18T09:23:39Z</time>
      </trkpt>
      <trkpt lat="44.31078" lon="6.0595">
        <ele>704.8</ele>
        <time>2020-09-18T09:23:51Z</time>
      </trkpt>
      <trkpt lat="44.31042" lon="6.05947">
        <ele>710.8</ele>
        <time>2020-09-18T09:24:07Z</time>
      </trkpt>
      <trkpt lat="44.31004" lon="6.05919">
        <ele>714.6</ele>
        <time>2020-09-18T09:24:26Z</time>
      </trkpt>
      <trkpt lat="44.30988" lon="6.05896">
        <ele>715.1</ele>
        <time>2020-09-18T09:24:37Z</time>
      </trkpt>
      <trkpt lat="44.30951" lon="6.05872">
        <ele>717</ele>
        <time>2020-09-18T09:24:54Z</time>
      </trkpt>
      <trkpt lat="44.30911" lon="6.05855">
        <ele>719.5</ele>
        <time>2020-09-18T09:25:10Z</time>
      </trkpt>
      <trkpt lat="44.30878" lon="6.05822">
        <ele>722.4</ele>
        <time>2020-09-18T09:25:25Z</time>
      </trkpt>
      <trkpt lat="44.3085" lon="6.05786">
        <ele>722.7</ele>
        <time>2020-09-18T09:25:39Z</time>
      </trkpt>
      <trkpt lat="44.30812" lon="6.05745">
        <ele>724.5</ele>
        <time>2020-09-18T09:25:57Z</time>
      </trkpt>
      <trkpt lat="44.3079" lon="6.0571">
        <ele>725.3</ele>
        <time>2020-09-18T09:26:11Z</time>
      </trkpt>
      <trkpt lat="44.30757" lon="6.05676">
        <ele>726.4</ele>
        <time>2020-09-18T09:26:27Z</time>
      </trkpt>
      <trkpt lat="44.30708" lon="6.0564">
        <ele>727.3</ele>
        <time>2020-09-18T09:26:47Z</time>
      </trkpt>
      <trkpt lat="44.30672" lon="6.05621">
        <ele>728.4</ele>
        <time>2020-09-18T09:27:03Z</time>
      </trkpt>
      <trkpt lat="44.30636" lon="6.056">
        <ele>730.1</ele>
        <time>2020-09-18T09:27:20Z</time>
      </trkpt>
      <trkpt lat="44.30603" lon="6.056">
        <ele>734.2</ele>
        <time>2020-09-18T09:27:32Z</time>
      </trkpt>
      <trkpt lat="44.30571" lon="6.05584">
        <ele>734.8</ele>
        <time>2020-09-18T09:27:45Z</time>
      </trkpt>
      <trkpt lat="44.30557" lon="6.05565">
        <ele>734</ele>
        <time>2020-09-18T09:27:54Z</time>
      </trkpt>
      <trkpt lat="44.30556" lon="6.05562">
        <ele>733.8</ele>
        <time>2020-09-18T09:27:55Z</time>
      </trkpt>
      <trkpt lat="44.30554" lon="6.0556">
        <ele>733.7</ele>
        <time>2020-09-18T09:27:56Z</time>
      </trkpt>
      <trkpt lat="44.30524" lon="6.05541">
        <ele>735.5</ele>
        <time>2020-09-18T09:28:10Z</time>
      </trkpt>
      <trkpt lat="44.30501" lon="6.05522">
        <ele>736.5</ele>
        <time>2020-09-18T09:28:21Z</time>
      </trkpt>
      <trkpt lat="44.30459" lon="6.05493">
        <ele>732</ele>
        <time>2020-09-18T09:28:40Z</time>
      </trkpt>
      <trkpt lat="44.30432" lon="6.05532">
        <ele>735.4</ele>
        <time>2020-09-18T09:28:53Z</time>
      </trkpt>
      <trkpt lat="44.30439" lon="6.05566">
        <ele>738.3</ele>
        <time>2020-09-18T09:29:03Z</time>
      </trkpt>
      <trkpt lat="44.30451" lon="6.05583">
        <ele>740.5</ele>
        <time>2020-09-18T09:29:09Z</time>
      </trkpt>
      <trkpt lat="44.3045" lon="6.05588">
        <ele>740.9</ele>
        <time>2020-09-18T09:29:10Z</time>
      </trkpt>
      <trkpt lat="44.30449" lon="6.05591">
        <ele>741.2</ele>
        <time>2020-09-18T09:29:11Z</time>
      </trkpt>
      <trkpt lat="44.30446" lon="6.05592">
        <ele>741.1</ele>
        <time>2020-09-18T09:29:12Z</time>
      </trkpt>
      <trkpt lat="44.30443" lon="6.05593">
        <ele>741</ele>
        <time>2020-09-18T09:29:13Z</time>
      </trkpt>
      <trkpt lat="44.3044" lon="6.05593">
        <ele>740.8</ele>
        <time>2020-09-18T09:29:14Z</time>
      </trkpt>
      <trkpt lat="44.30405" lon="6.05617">
        <ele>740.9</ele>
        <time>2020-09-18T09:29:27Z</time>
      </trkpt>
      <trkpt lat="44.30402" lon="6.05622">
        <ele>741.2</ele>
        <time>2020-09-18T09:29:28Z</time>
      </trkpt>
      <trkpt lat="44.30394" lon="6.05639">
        <ele>742.5</ele>
        <time>2020-09-18T09:29:31Z</time>
      </trkpt>
      <trkpt lat="44.30392" lon="6.05646">
        <ele>743</ele>
        <time>2020-09-18T09:29:32Z</time>
      </trkpt>
      <trkpt lat="44.3039" lon="6.05652">
        <ele>743.6</ele>
        <time>2020-09-18T09:29:33Z</time>
      </trkpt>
      <trkpt lat="44.30386" lon="6.05667">
        <ele>744.8</ele>
        <time>2020-09-18T09:29:35Z</time>
      </trkpt>
      <trkpt lat="44.30384" lon="6.05674">
        <ele>745.3</ele>
        <time>2020-09-18T09:29:36Z</time>
      </trkpt>
      <trkpt lat="44.3038" lon="6.05682">
        <ele>745.7</ele>
        <time>2020-09-18T09:29:37Z</time>
      </trkpt>
      <trkpt lat="44.30376" lon="6.05688">
        <ele>746</ele>
        <time>2020-09-18T09:29:38Z</time>
      </trkpt>
      <trkpt lat="44.30372" lon="6.05694">
        <ele>746.3</ele>
        <time>2020-09-18T09:29:39Z</time>
      </trkpt>
      <trkpt lat="44.30358" lon="6.05713">
        <ele>747.1</ele>
        <time>2020-09-18T09:29:43Z</time>
      </trkpt>
      <trkpt lat="44.30353" lon="6.05716">
        <ele>747</ele>
        <time>2020-09-18T09:29:44Z</time>
      </trkpt>
      <trkpt lat="44.30348" lon="6.05716">
        <ele>746.7</ele>
        <time>2020-09-18T09:29:45Z</time>
      </trkpt>
      <trkpt lat="44.30345" lon="6.05715">
        <ele>746.4</ele>
        <time>2020-09-18T09:29:46Z</time>
      </trkpt>
      <trkpt lat="44.30341" lon="6.05714">
        <ele>746</ele>
        <time>2020-09-18T09:29:47Z</time>
      </trkpt>
      <trkpt lat="44.30337" lon="6.05711">
        <ele>745.5</ele>
        <time>2020-09-18T09:29:48Z</time>
      </trkpt>
      <trkpt lat="44.30334" lon="6.05708">
        <ele>745</ele>
        <time>2020-09-18T09:29:49Z</time>
      </trkpt>
      <trkpt lat="44.30332" lon="6.05704">
        <ele>744.9</ele>
        <time>2020-09-18T09:29:50Z</time>
      </trkpt>
      <trkpt lat="44.30331" lon="6.057">
        <ele>744.8</ele>
        <time>2020-09-18T09:29:51Z</time>
      </trkpt>
      <trkpt lat="44.30331" lon="6.05696">
        <ele>744.5</ele>
        <time>2020-09-18T09:29:52Z</time>
      </trkpt>
      <trkpt lat="44.30331" lon="6.05692">
        <ele>744</ele>
        <time>2020-09-18T09:29:53Z</time>
      </trkpt>
      <trkpt lat="44.30331" lon="6.05688">
        <ele>743.6</ele>
        <time>2020-09-18T09:29:54Z</time>
      </trkpt>
      <trkpt lat="44.30336" lon="6.05661">
        <ele>740.6</ele>
        <time>2020-09-18T09:30:02Z</time>
      </trkpt>
      <trkpt lat="44.30335" lon="6.0565">
        <ele>739.5</ele>
        <time>2020-09-18T09:30:05Z</time>
      </trkpt>
      <trkpt lat="44.30333" lon="6.05647">
        <ele>739.1</ele>
        <time>2020-09-18T09:30:06Z</time>
      </trkpt>
      <trkpt lat="44.30331" lon="6.05645">
        <ele>739.4</ele>
        <time>2020-09-18T09:30:07Z</time>
      </trkpt>
      <trkpt lat="44.30329" lon="6.05643">
        <ele>739.7</ele>
        <time>2020-09-18T09:30:08Z</time>
      </trkpt>
      <trkpt lat="44.30326" lon="6.05641">
        <ele>740.2</ele>
        <time>2020-09-18T09:30:09Z</time>
      </trkpt>
      <trkpt lat="44.30323" lon="6.05641">
        <ele>740.7</ele>
        <time>2020-09-18T09:30:10Z</time>
      </trkpt>
      <trkpt lat="44.3032" lon="6.0564">
        <ele>741.4</ele>
        <time>2020-09-18T09:30:11Z</time>
      </trkpt>
      <trkpt lat="44.30317" lon="6.0564">
        <ele>742</ele>
        <time>2020-09-18T09:30:12Z</time>
      </trkpt>
      <trkpt lat="44.30314" lon="6.0564">
        <ele>742.7</ele>
        <time>2020-09-18T09:30:13Z</time>
      </trkpt>
      <trkpt lat="44.30311" lon="6.05639">
        <ele>743.4</ele>
        <time>2020-09-18T09:30:14Z</time>
      </trkpt>
      <trkpt lat="44.30285" lon="6.05614">
        <ele>746.1</ele>
        <time>2020-09-18T09:30:27Z</time>
      </trkpt>
      <trkpt lat="44.30261" lon="6.05577">
        <ele>746</ele>
        <time>2020-09-18T09:30:41Z</time>
      </trkpt>
      <trkpt lat="44.30227" lon="6.05546">
        <ele>746.2</ele>
        <time>2020-09-18T09:30:56Z</time>
      </trkpt>
      <trkpt lat="44.30186" lon="6.05522">
        <ele>747.1</ele>
        <time>2020-09-18T09:31:13Z</time>
      </trkpt>
      <trkpt lat="44.30147" lon="6.05516">
        <ele>749.1</ele>
        <time>2020-09-18T09:31:28Z</time>
      </trkpt>
      <trkpt lat="44.30111" lon="6.05545">
        <ele>755.7</ele>
        <time>2020-09-18T09:31:45Z</time>
      </trkpt>
      <trkpt lat="44.30077" lon="6.05557">
        <ele>760</ele>
        <time>2020-09-18T09:31:59Z</time>
      </trkpt>
      <trkpt lat="44.30061" lon="6.05581">
        <ele>765.6</ele>
        <time>2020-09-18T09:32:12Z</time>
      </trkpt>
      <trkpt lat="44.30039" lon="6.05576">
        <ele>766.9</ele>
        <time>2020-09-18T09:32:25Z</time>
      </trkpt>
      <trkpt lat="44.30021" lon="6.05544">
        <ele>765.8</ele>
        <time>2020-09-18T09:32:40Z</time>
      </trkpt>
      <trkpt lat="44.30002" lon="6.05514">
        <ele>766.6</ele>
        <time>2020-09-18T09:32:55Z</time>
      </trkpt>
      <trkpt lat="44.29997" lon="6.05466">
        <ele>767.4</ele>
        <time>2020-09-18T09:33:12Z</time>
      </trkpt>
      <trkpt lat="44.29998" lon="6.05464">
        <ele>767.3</ele>
        <time>2020-09-18T09:33:13Z</time>
      </trkpt>
      <trkpt lat="44.29999" lon="6.05462">
        <ele>767.1</ele>
        <time>2020-09-18T09:33:14Z</time>
      </trkpt>
      <trkpt lat="44.30015" lon="6.05428">
        <ele>764.8</ele>
        <time>2020-09-18T09:33:29Z</time>
      </trkpt>
      <trkpt lat="44.30037" lon="6.05395">
        <ele>762.6</ele>
        <time>2020-09-18T09:33:45Z</time>
      </trkpt>
      <trkpt lat="44.30044" lon="6.05365">
        <ele>764</ele>
        <time>2020-09-18T09:33:57Z</time>
      </trkpt>
      <trkpt lat="44.30043" lon="6.05364">
        <ele>764.3</ele>
        <time>2020-09-18T09:33:58Z</time>
      </trkpt>
      <trkpt lat="44.30041" lon="6.05364">
        <ele>764.6</ele>
        <time>2020-09-18T09:33:59Z</time>
      </trkpt>
      <trkpt lat="44.30039" lon="6.05365">
        <ele>764.8</ele>
        <time>2020-09-18T09:34:00Z</time>
      </trkpt>
      <trkpt lat="44.30037" lon="6.05366">
        <ele>764.9</ele>
        <time>2020-09-18T09:34:01Z</time>
      </trkpt>
      <trkpt lat="44.30035" lon="6.05368">
        <ele>765</ele>
        <time>2020-09-18T09:34:02Z</time>
      </trkpt>
      <trkpt lat="44.30033" lon="6.0537">
        <ele>765.1</ele>
        <time>2020-09-18T09:34:03Z</time>
      </trkpt>
      <trkpt lat="44.30032" lon="6.05371">
        <ele>765.2</ele>
        <time>2020-09-18T09:34:04Z</time>
      </trkpt>
      <trkpt lat="44.29995" lon="6.05388">
        <ele>769.4</ele>
        <time>2020-09-18T09:34:23Z</time>
      </trkpt>
      <trkpt lat="44.29957" lon="6.05401">
        <ele>773.2</ele>
        <time>2020-09-18T09:34:43Z</time>
      </trkpt>
      <trkpt lat="44.29918" lon="6.054">
        <ele>777.3</ele>
        <time>2020-09-18T09:35:03Z</time>
      </trkpt>
      <trkpt lat="44.29893" lon="6.05395">
        <ele>780.5</ele>
        <time>2020-09-18T09:35:17Z</time>
      </trkpt>
      <trkpt lat="44.2987" lon="6.05384">
        <ele>782.7</ele>
        <time>2020-09-18T09:35:31Z</time>
      </trkpt>
      <trkpt lat="44.29837" lon="6.05375">
        <ele>786</ele>
        <time>2020-09-18T09:35:48Z</time>
      </trkpt>
      <trkpt lat="44.29812" lon="6.0536">
        <ele>790.7</ele>
        <time>2020-09-18T09:36:02Z</time>
      </trkpt>
      <trkpt lat="44.29795" lon="6.05335">
        <ele>791.5</ele>
        <time>2020-09-18T09:36:17Z</time>
      </trkpt>
      <trkpt lat="44.2978" lon="6.05303">
        <ele>790.5</ele>
        <time>2020-09-18T09:36:34Z</time>
      </trkpt>
      <trkpt lat="44.29757" lon="6.05276">
        <ele>791.4</ele>
        <time>2020-09-18T09:36:51Z</time>
      </trkpt>
      <trkpt lat="44.29736" lon="6.05248">
        <ele>789.8</ele>
        <time>2020-09-18T09:37:08Z</time>
      </trkpt>
      <trkpt lat="44.29719" lon="6.0526">
        <ele>794.3</ele>
        <time>2020-09-18T09:37:21Z</time>
      </trkpt>
      <trkpt lat="44.29717" lon="6.0529">
        <ele>799.8</ele>
        <time>2020-09-18T09:37:35Z</time>
      </trkpt>
      <trkpt lat="44.29736" lon="6.05324">
        <ele>803.8</ele>
        <time>2020-09-18T09:37:53Z</time>
      </trkpt>
      <trkpt lat="44.29756" lon="6.05356">
        <ele>807.1</ele>
        <time>2020-09-18T09:38:11Z</time>
      </trkpt>
      <trkpt lat="44.29776" lon="6.05393">
        <ele>808.2</ele>
        <time>2020-09-18T09:38:30Z</time>
      </trkpt>
      <trkpt lat="44.29789" lon="6.05422">
        <ele>809.2</ele>
        <time>2020-09-18T09:38:45Z</time>
      </trkpt>
      <trkpt lat="44.29788" lon="6.05425">
        <ele>809.8</ele>
        <time>2020-09-18T09:38:46Z</time>
      </trkpt>
      <trkpt lat="44.29787" lon="6.05427">
        <ele>810.6</ele>
        <time>2020-09-18T09:38:47Z</time>
      </trkpt>
      <trkpt lat="44.29785" lon="6.05427">
        <ele>811.2</ele>
        <time>2020-09-18T09:38:48Z</time>
      </trkpt>
      <trkpt lat="44.29784" lon="6.05427">
        <ele>811.7</ele>
        <time>2020-09-18T09:38:49Z</time>
      </trkpt>
      <trkpt lat="44.29782" lon="6.05426">
        <ele>812.1</ele>
        <time>2020-09-18T09:38:50Z</time>
      </trkpt>
      <trkpt lat="44.29781" lon="6.05426">
        <ele>812.6</ele>
        <time>2020-09-18T09:38:51Z</time>
      </trkpt>
      <trkpt lat="44.29758" lon="6.05406">
        <ele>816.9</ele>
        <time>2020-09-18T09:39:07Z</time>
      </trkpt>
      <trkpt lat="44.29743" lon="6.05396">
        <ele>818</ele>
        <time>2020-09-18T09:39:17Z</time>
      </trkpt>
      <trkpt lat="44.29742" lon="6.05394">
        <ele>817.8</ele>
        <time>2020-09-18T09:39:18Z</time>
      </trkpt>
      <trkpt lat="44.2974" lon="6.05393">
        <ele>817.7</ele>
        <time>2020-09-18T09:39:19Z</time>
      </trkpt>
      <trkpt lat="44.29738" lon="6.05392">
        <ele>817.6</ele>
        <time>2020-09-18T09:39:20Z</time>
      </trkpt>
      <trkpt lat="44.29737" lon="6.05392">
        <ele>817.6</ele>
        <time>2020-09-18T09:39:21Z</time>
      </trkpt>
      <trkpt lat="44.29736" lon="6.05391">
        <ele>817.5</ele>
        <time>2020-09-18T09:39:22Z</time>
      </trkpt>
      <trkpt lat="44.2971" lon="6.05396">
        <ele>820.5</ele>
        <time>2020-09-18T09:39:39Z</time>
      </trkpt>
      <trkpt lat="44.29691" lon="6.05426">
        <ele>827.4</ele>
        <time>2020-09-18T09:39:57Z</time>
      </trkpt>
      <trkpt lat="44.29666" lon="6.05447">
        <ele>834</ele>
        <time>2020-09-18T09:40:15Z</time>
      </trkpt>
      <trkpt lat="44.29638" lon="6.05449">
        <ele>834.3</ele>
        <time>2020-09-18T09:40:31Z</time>
      </trkpt>
      <trkpt lat="44.29613" lon="6.05462">
        <ele>836.5</ele>
        <time>2020-09-18T09:40:47Z</time>
      </trkpt>
      <trkpt lat="44.29592" lon="6.05495">
        <ele>841.6</ele>
        <time>2020-09-18T09:41:06Z</time>
      </trkpt>
      <trkpt lat="44.29581" lon="6.05528">
        <ele>845.5</ele>
        <time>2020-09-18T09:41:23Z</time>
      </trkpt>
      <trkpt lat="44.2958" lon="6.05542">
        <ele>847.1</ele>
        <time>2020-09-18T09:41:30Z</time>
      </trkpt>
      <trkpt lat="44.2958" lon="6.05544">
        <ele>847.4</ele>
        <time>2020-09-18T09:41:31Z</time>
      </trkpt>
      <trkpt lat="44.29579" lon="6.05546">
        <ele>847.7</ele>
        <time>2020-09-18T09:41:32Z</time>
      </trkpt>
      <trkpt lat="44.29562" lon="6.05571">
        <ele>851.1</ele>
        <time>2020-09-18T09:41:47Z</time>
      </trkpt>
      <trkpt lat="44.29535" lon="6.05569">
        <ele>851.6</ele>
        <time>2020-09-18T09:42:03Z</time>
      </trkpt>
      <trkpt lat="44.29508" lon="6.05575">
        <ele>853</ele>
        <time>2020-09-18T09:42:19Z</time>
      </trkpt>
      <trkpt lat="44.29473" lon="6.056">
        <ele>855.1</ele>
        <time>2020-09-18T09:42:42Z</time>
      </trkpt>
      <trkpt lat="44.29455" lon="6.05628">
        <ele>858.4</ele>
        <time>2020-09-18T09:42:58Z</time>
      </trkpt>
      <trkpt lat="44.29452" lon="6.05641">
        <ele>860</ele>
        <time>2020-09-18T09:43:05Z</time>
      </trkpt>
      <trkpt lat="44.29452" lon="6.05643">
        <ele>860.3</ele>
        <time>2020-09-18T09:43:06Z</time>
      </trkpt>
      <trkpt lat="44.29452" lon="6.05644">
        <ele>860.6</ele>
        <time>2020-09-18T09:43:07Z</time>
      </trkpt>
      <trkpt lat="44.29452" lon="6.05647">
        <ele>860.9</ele>
        <time>2020-09-18T09:43:08Z</time>
      </trkpt>
      <trkpt lat="44.29452" lon="6.05649">
        <ele>861.3</ele>
        <time>2020-09-18T09:43:09Z</time>
      </trkpt>
      <trkpt lat="44.29452" lon="6.05651">
        <ele>861.6</ele>
        <time>2020-09-18T09:43:10Z</time>
      </trkpt>
      <trkpt lat="44.29453" lon="6.05653">
        <ele>861.8</ele>
        <time>2020-09-18T09:43:11Z</time>
      </trkpt>
      <trkpt lat="44.29457" lon="6.05668">
        <ele>864.3</ele>
        <time>2020-09-18T09:43:19Z</time>
      </trkpt>
      <trkpt lat="44.29457" lon="6.05671">
        <ele>864.7</ele>
        <time>2020-09-18T09:43:20Z</time>
      </trkpt>
      <trkpt lat="44.29437" lon="6.05689">
        <ele>867.6</ele>
        <time>2020-09-18T09:43:34Z</time>
      </trkpt>
      <trkpt lat="44.29421" lon="6.05668">
        <ele>863.3</ele>
        <time>2020-09-18T09:43:46Z</time>
      </trkpt>
      <trkpt lat="44.29396" lon="6.05648">
        <ele>863.3</ele>
        <time>2020-09-18T09:44:02Z</time>
      </trkpt>
      <trkpt lat="44.29368" lon="6.05634">
        <ele>865.5</ele>
        <time>2020-09-18T09:44:17Z</time>
      </trkpt>
      <trkpt lat="44.29342" lon="6.05619">
        <ele>867.2</ele>
        <time>2020-09-18T09:44:34Z</time>
      </trkpt>
      <trkpt lat="44.29315" lon="6.05602">
        <ele>868</ele>
        <time>2020-09-18T09:44:48Z</time>
      </trkpt>
      <trkpt lat="44.29288" lon="6.05596">
        <ele>870.5</ele>
        <time>2020-09-18T09:45:03Z</time>
      </trkpt>
      <trkpt lat="44.29247" lon="6.05597">
        <ele>875.3</ele>
        <time>2020-09-18T09:45:25Z</time>
      </trkpt>
      <trkpt lat="44.29206" lon="6.05606">
        <ele>877.3</ele>
        <time>2020-09-18T09:45:47Z</time>
      </trkpt>
      <trkpt lat="44.29172" lon="6.05606">
        <ele>878.5</ele>
        <time>2020-09-18T09:46:05Z</time>
      </trkpt>
      <trkpt lat="44.29137" lon="6.05626">
        <ele>877.6</ele>
        <time>2020-09-18T09:46:24Z</time>
      </trkpt>
      <trkpt lat="44.29105" lon="6.05653">
        <ele>877.8</ele>
        <time>2020-09-18T09:46:43Z</time>
      </trkpt>
      <trkpt lat="44.29072" lon="6.05682">
        <ele>879.2</ele>
        <time>2020-09-18T09:47:03Z</time>
      </trkpt>
      <trkpt lat="44.29042" lon="6.05708">
        <ele>880.3</ele>
        <time>2020-09-18T09:47:21Z</time>
      </trkpt>
      <trkpt lat="44.29008" lon="6.05724">
        <ele>879.4</ele>
        <time>2020-09-18T09:47:39Z</time>
      </trkpt>
      <trkpt lat="44.29005" lon="6.05726">
        <ele>879.3</ele>
        <time>2020-09-18T09:47:45Z</time>
      </trkpt>
      <trkpt lat="44.28997" lon="6.05734">
        <ele>879.1</ele>
        <time>2020-09-18T09:52:08Z</time>
      </trkpt>
      <trkpt lat="44.28996" lon="6.05737">
        <ele>879.2</ele>
        <time>2020-09-18T09:52:09Z</time>
      </trkpt>
      <trkpt lat="44.28994" lon="6.05741">
        <ele>879.3</ele>
        <time>2020-09-18T09:52:10Z</time>
      </trkpt>
      <trkpt lat="44.28992" lon="6.05743">
        <ele>879.2</ele>
        <time>2020-09-18T09:52:11Z</time>
      </trkpt>
      <trkpt lat="44.28991" lon="6.05745">
        <ele>879</ele>
        <time>2020-09-18T09:52:12Z</time>
      </trkpt>
      <trkpt lat="44.28989" lon="6.05748">
        <ele>878.9</ele>
        <time>2020-09-18T09:52:13Z</time>
      </trkpt>
      <trkpt lat="44.28988" lon="6.0575">
        <ele>878.9</ele>
        <time>2020-09-18T09:52:14Z</time>
      </trkpt>
      <trkpt lat="44.28963" lon="6.05796">
        <ele>875.8</ele>
        <time>2020-09-18T09:52:33Z</time>
      </trkpt>
      <trkpt lat="44.28947" lon="6.05843">
        <ele>872.6</ele>
        <time>2020-09-18T09:52:50Z</time>
      </trkpt>
      <trkpt lat="44.28945" lon="6.05902">
        <ele>876.3</ele>
        <time>2020-09-18T09:53:06Z</time>
      </trkpt>
      <trkpt lat="44.28941" lon="6.05959">
        <ele>883</ele>
        <time>2020-09-18T09:53:20Z</time>
      </trkpt>
      <trkpt lat="44.2892" lon="6.05999">
        <ele>881.4</ele>
        <time>2020-09-18T09:53:35Z</time>
      </trkpt>
      <trkpt lat="44.28912" lon="6.06029">
        <ele>883.3</ele>
        <time>2020-09-18T09:53:47Z</time>
      </trkpt>
      <trkpt lat="44.28925" lon="6.06057">
        <ele>891.8</ele>
        <time>2020-09-18T09:53:59Z</time>
      </trkpt>
      <trkpt lat="44.2893" lon="6.06096">
        <ele>899.8</ele>
        <time>2020-09-18T09:54:15Z</time>
      </trkpt>
      <trkpt lat="44.28912" lon="6.06131">
        <ele>901</ele>
        <time>2020-09-18T09:54:30Z</time>
      </trkpt>
      <trkpt lat="44.2889" lon="6.06186">
        <ele>909</ele>
        <time>2020-09-18T09:54:41Z</time>
      </trkpt>
      <trkpt lat="44.28878" lon="6.06215">
        <ele>912.6</ele>
        <time>2020-09-18T09:54:53Z</time>
      </trkpt>
      <trkpt lat="44.28867" lon="6.06219">
        <ele>911.7</ele>
        <time>2020-09-18T09:54:57Z</time>
      </trkpt>
      <trkpt lat="44.28863" lon="6.06217">
        <ele>910.7</ele>
        <time>2020-09-18T09:54:58Z</time>
      </trkpt>
      <trkpt lat="44.28846" lon="6.06175">
        <ele>900.4</ele>
        <time>2020-09-18T09:55:07Z</time>
      </trkpt>
      <trkpt lat="44.28844" lon="6.0617">
        <ele>899</ele>
        <time>2020-09-18T09:55:08Z</time>
      </trkpt>
      <trkpt lat="44.28841" lon="6.06165">
        <ele>897.6</ele>
        <time>2020-09-18T09:55:09Z</time>
      </trkpt>
      <trkpt lat="44.28837" lon="6.06161">
        <ele>896.1</ele>
        <time>2020-09-18T09:55:10Z</time>
      </trkpt>
      <trkpt lat="44.28831" lon="6.06158">
        <ele>895.2</ele>
        <time>2020-09-18T09:55:11Z</time>
      </trkpt>
      <trkpt lat="44.28825" lon="6.06156">
        <ele>895.8</ele>
        <time>2020-09-18T09:55:12Z</time>
      </trkpt>
      <trkpt lat="44.28819" lon="6.06154">
        <ele>896.5</ele>
        <time>2020-09-18T09:55:13Z</time>
      </trkpt>
      <trkpt lat="44.28813" lon="6.06154">
        <ele>897.5</ele>
        <time>2020-09-18T09:55:14Z</time>
      </trkpt>
      <trkpt lat="44.28807" lon="6.06154">
        <ele>898.7</ele>
        <time>2020-09-18T09:55:15Z</time>
      </trkpt>
      <trkpt lat="44.28788" lon="6.06155">
        <ele>902.2</ele>
        <time>2020-09-18T09:55:23Z</time>
      </trkpt>
      <trkpt lat="44.28766" lon="6.06131">
        <ele>901.6</ele>
        <time>2020-09-18T09:55:37Z</time>
      </trkpt>
      <trkpt lat="44.2874" lon="6.06099">
        <ele>901.5</ele>
        <time>2020-09-18T09:55:53Z</time>
      </trkpt>
      <trkpt lat="44.28713" lon="6.06077">
        <ele>905.5</ele>
        <time>2020-09-18T09:56:10Z</time>
      </trkpt>
      <trkpt lat="44.28698" lon="6.06068">
        <ele>908.3</ele>
        <time>2020-09-18T09:56:20Z</time>
      </trkpt>
      <trkpt lat="44.28698" lon="6.06065">
        <ele>908.1</ele>
        <time>2020-09-18T09:56:21Z</time>
      </trkpt>
      <trkpt lat="44.28697" lon="6.06063">
        <ele>908</ele>
        <time>2020-09-18T09:56:22Z</time>
      </trkpt>
      <trkpt lat="44.28696" lon="6.0606">
        <ele>907.9</ele>
        <time>2020-09-18T09:56:23Z</time>
      </trkpt>
      <trkpt lat="44.28696" lon="6.06057">
        <ele>907.5</ele>
        <time>2020-09-18T09:56:24Z</time>
      </trkpt>
      <trkpt lat="44.28696" lon="6.06054">
        <ele>907.1</ele>
        <time>2020-09-18T09:56:25Z</time>
      </trkpt>
      <trkpt lat="44.28697" lon="6.06051">
        <ele>906.6</ele>
        <time>2020-09-18T09:56:26Z</time>
      </trkpt>
      <trkpt lat="44.28691" lon="6.06004">
        <ele>902.1</ele>
        <time>2020-09-18T09:56:41Z</time>
      </trkpt>
      <trkpt lat="44.28659" lon="6.05973">
        <ele>904</ele>
        <time>2020-09-18T09:56:55Z</time>
      </trkpt>
      <trkpt lat="44.28622" lon="6.05958">
        <ele>905.4</ele>
        <time>2020-09-18T09:57:10Z</time>
      </trkpt>
      <trkpt lat="44.2859" lon="6.05957">
        <ele>908.8</ele>
        <time>2020-09-18T09:57:28Z</time>
      </trkpt>
      <trkpt lat="44.28563" lon="6.05947">
        <ele>905.2</ele>
        <time>2020-09-18T09:57:44Z</time>
      </trkpt>
      <trkpt lat="44.28538" lon="6.05929">
        <ele>899.3</ele>
        <time>2020-09-18T09:58:00Z</time>
      </trkpt>
      <trkpt lat="44.28521" lon="6.0595">
        <ele>900.8</ele>
        <time>2020-09-18T09:58:14Z</time>
      </trkpt>
      <trkpt lat="44.28524" lon="6.05984">
        <ele>906.6</ele>
        <time>2020-09-18T09:58:29Z</time>
      </trkpt>
      <trkpt lat="44.2851" lon="6.06025">
        <ele>911.6</ele>
        <time>2020-09-18T09:58:46Z</time>
      </trkpt>
      <trkpt lat="44.28508" lon="6.06062">
        <ele>918.8</ele>
        <time>2020-09-18T09:59:03Z</time>
      </trkpt>
      <trkpt lat="44.28495" lon="6.06103">
        <ele>926.3</ele>
        <time>2020-09-18T09:59:20Z</time>
      </trkpt>
      <trkpt lat="44.28475" lon="6.06143">
        <ele>932</ele>
        <time>2020-09-18T09:59:39Z</time>
      </trkpt>
      <trkpt lat="44.28448" lon="6.06166">
        <ele>931.1</ele>
        <time>2020-09-18T09:59:56Z</time>
      </trkpt>
      <trkpt lat="44.28423" lon="6.06193">
        <ele>934.2</ele>
        <time>2020-09-18T10:00:13Z</time>
      </trkpt>
      <trkpt lat="44.28394" lon="6.06218">
        <ele>941.9</ele>
        <time>2020-09-18T10:00:31Z</time>
      </trkpt>
      <trkpt lat="44.28372" lon="6.06255">
        <ele>947.1</ele>
        <time>2020-09-18T10:00:51Z</time>
      </trkpt>
      <trkpt lat="44.28346" lon="6.0628">
        <ele>946.5</ele>
        <time>2020-09-18T10:01:08Z</time>
      </trkpt>
      <trkpt lat="44.28327" lon="6.06319">
        <ele>949.9</ele>
        <time>2020-09-18T10:01:25Z</time>
      </trkpt>
      <trkpt lat="44.28306" lon="6.06307">
        <ele>956.3</ele>
        <time>2020-09-18T10:01:34Z</time>
      </trkpt>
      <trkpt lat="44.28306" lon="6.06304">
        <ele>956.5</ele>
        <time>2020-09-18T10:01:35Z</time>
      </trkpt>
      <trkpt lat="44.28306" lon="6.06262">
        <ele>953.5</ele>
        <time>2020-09-18T10:01:51Z</time>
      </trkpt>
      <trkpt lat="44.28312" lon="6.06248">
        <ele>950.5</ele>
        <time>2020-09-18T10:01:57Z</time>
      </trkpt>
      <trkpt lat="44.28313" lon="6.06246">
        <ele>950.1</ele>
        <time>2020-09-18T10:01:58Z</time>
      </trkpt>
      <trkpt lat="44.28313" lon="6.06245">
        <ele>949.9</ele>
        <time>2020-09-18T10:01:59Z</time>
      </trkpt>
      <trkpt lat="44.28336" lon="6.06211">
        <ele>944.1</ele>
        <time>2020-09-18T10:02:16Z</time>
      </trkpt>
      <trkpt lat="44.28341" lon="6.06174">
        <ele>945.4</ele>
        <time>2020-09-18T10:02:31Z</time>
      </trkpt>
      <trkpt lat="44.28344" lon="6.06136">
        <ele>943.1</ele>
        <time>2020-09-18T10:02:47Z</time>
      </trkpt>
      <trkpt lat="44.28343" lon="6.06095">
        <ele>941</ele>
        <time>2020-09-18T10:03:04Z</time>
      </trkpt>
      <trkpt lat="44.28339" lon="6.06091">
        <ele>942.2</ele>
        <time>2020-09-18T10:03:07Z</time>
      </trkpt>
      <trkpt lat="44.28303" lon="6.06091">
        <ele>950.4</ele>
        <time>2020-09-18T10:03:27Z</time>
      </trkpt>
      <trkpt lat="44.28279" lon="6.06074">
        <ele>953</ele>
        <time>2020-09-18T10:03:43Z</time>
      </trkpt>
      <trkpt lat="44.28267" lon="6.06039">
        <ele>950.1</ele>
        <time>2020-09-18T10:03:59Z</time>
      </trkpt>
      <trkpt lat="44.28244" lon="6.06035">
        <ele>953.6</ele>
        <time>2020-09-18T10:04:13Z</time>
      </trkpt>
      <trkpt lat="44.28223" lon="6.06059">
        <ele>961.3</ele>
        <time>2020-09-18T10:04:29Z</time>
      </trkpt>
      <trkpt lat="44.2821" lon="6.06063">
        <ele>964.5</ele>
        <time>2020-09-18T10:04:38Z</time>
      </trkpt>
      <trkpt lat="44.28209" lon="6.06061">
        <ele>964.3</ele>
        <time>2020-09-18T10:04:39Z</time>
      </trkpt>
      <trkpt lat="44.28209" lon="6.06019">
        <ele>958.5</ele>
        <time>2020-09-18T10:04:56Z</time>
      </trkpt>
      <trkpt lat="44.28192" lon="6.05998">
        <ele>959.4</ele>
        <time>2020-09-18T10:05:11Z</time>
      </trkpt>
      <trkpt lat="44.28164" lon="6.06003">
        <ele>965.9</ele>
        <time>2020-09-18T10:05:27Z</time>
      </trkpt>
      <trkpt lat="44.28135" lon="6.0603">
        <ele>974.3</ele>
        <time>2020-09-18T10:05:47Z</time>
      </trkpt>
      <trkpt lat="44.28113" lon="6.06057">
        <ele>979.4</ele>
        <time>2020-09-18T10:06:04Z</time>
      </trkpt>
      <trkpt lat="44.28084" lon="6.06085">
        <ele>984.3</ele>
        <time>2020-09-18T10:06:23Z</time>
      </trkpt>
      <trkpt lat="44.28052" lon="6.06076">
        <ele>994.1</ele>
        <time>2020-09-18T10:06:41Z</time>
      </trkpt>
      <trkpt lat="44.28034" lon="6.06076">
        <ele>1000.1</ele>
        <time>2020-09-18T10:06:51Z</time>
      </trkpt>
      <trkpt lat="44.28034" lon="6.06078">
        <ele>1000.3</ele>
        <time>2020-09-18T10:06:52Z</time>
      </trkpt>
      <trkpt lat="44.28033" lon="6.0608">
        <ele>1000.4</ele>
        <time>2020-09-18T10:06:53Z</time>
      </trkpt>
      <trkpt lat="44.28037" lon="6.06107">
        <ele>1001.1</ele>
        <time>2020-09-18T10:07:06Z</time>
      </trkpt>
      <trkpt lat="44.2806" lon="6.06137">
        <ele>998.9</ele>
        <time>2020-09-18T10:07:21Z</time>
      </trkpt>
      <trkpt lat="44.28088" lon="6.06138">
        <ele>993.1</ele>
        <time>2020-09-18T10:07:36Z</time>
      </trkpt>
      <trkpt lat="44.28118" lon="6.06117">
        <ele>985.4</ele>
        <time>2020-09-18T10:07:53Z</time>
      </trkpt>
      <trkpt lat="44.28122" lon="6.06118">
        <ele>985.1</ele>
        <time>2020-09-18T10:07:55Z</time>
      </trkpt>
      <trkpt lat="44.28123" lon="6.0612">
        <ele>985.2</ele>
        <time>2020-09-18T10:07:56Z</time>
      </trkpt>
      <trkpt lat="44.28125" lon="6.06122">
        <ele>985.4</ele>
        <time>2020-09-18T10:07:57Z</time>
      </trkpt>
      <trkpt lat="44.28125" lon="6.06125">
        <ele>985.7</ele>
        <time>2020-09-18T10:07:58Z</time>
      </trkpt>
      <trkpt lat="44.28125" lon="6.06128">
        <ele>986.1</ele>
        <time>2020-09-18T10:07:59Z</time>
      </trkpt>
      <trkpt lat="44.28125" lon="6.0613">
        <ele>986.6</ele>
        <time>2020-09-18T10:08:00Z</time>
      </trkpt>
      <trkpt lat="44.28123" lon="6.06132">
        <ele>987</ele>
        <time>2020-09-18T10:08:01Z</time>
      </trkpt>
      <trkpt lat="44.28121" lon="6.06132">
        <ele>987.4</ele>
        <time>2020-09-18T10:08:02Z</time>
      </trkpt>
      <trkpt lat="44.28119" lon="6.06133">
        <ele>987.7</ele>
        <time>2020-09-18T10:08:03Z</time>
      </trkpt>
      <trkpt lat="44.281" lon="6.06149">
        <ele>993.4</ele>
        <time>2020-09-18T10:08:15Z</time>
      </trkpt>
      <trkpt lat="44.28076" lon="6.06184">
        <ele>1003.2</ele>
        <time>2020-09-18T10:08:32Z</time>
      </trkpt>
      <trkpt lat="44.28044" lon="6.06204">
        <ele>1011.6</ele>
        <time>2020-09-18T10:08:50Z</time>
      </trkpt>
      <trkpt lat="44.28023" lon="6.06209">
        <ele>1015.9</ele>
        <time>2020-09-18T10:09:05Z</time>
      </trkpt>
      <trkpt lat="44.27994" lon="6.06211">
        <ele>1021.1</ele>
        <time>2020-09-18T10:09:19Z</time>
      </trkpt>
      <trkpt lat="44.27976" lon="6.06226">
        <ele>1026.4</ele>
        <time>2020-09-18T10:09:30Z</time>
      </trkpt>
      <trkpt lat="44.27977" lon="6.06227">
        <ele>1026.5</ele>
        <time>2020-09-18T10:09:31Z</time>
      </trkpt>
      <trkpt lat="44.27979" lon="6.06228">
        <ele>1026.3</ele>
        <time>2020-09-18T10:09:32Z</time>
      </trkpt>
      <trkpt lat="44.27981" lon="6.06229">
        <ele>1025.9</ele>
        <time>2020-09-18T10:09:33Z</time>
      </trkpt>
      <trkpt lat="44.27984" lon="6.06229">
        <ele>1025.6</ele>
        <time>2020-09-18T10:09:34Z</time>
      </trkpt>
      <trkpt lat="44.27986" lon="6.06228">
        <ele>1025.2</ele>
        <time>2020-09-18T10:09:35Z</time>
      </trkpt>
      <trkpt lat="44.27988" lon="6.06227">
        <ele>1024.8</ele>
        <time>2020-09-18T10:09:36Z</time>
      </trkpt>
      <trkpt lat="44.2799" lon="6.06227">
        <ele>1024.4</ele>
        <time>2020-09-18T10:09:37Z</time>
      </trkpt>
      <trkpt lat="44.28026" lon="6.06235">
        <ele>1020.1</ele>
        <time>2020-09-18T10:09:55Z</time>
      </trkpt>
      <trkpt lat="44.28056" lon="6.06252">
        <ele>1017.9</ele>
        <time>2020-09-18T10:10:12Z</time>
      </trkpt>
      <trkpt lat="44.2806" lon="6.06273">
        <ele>1021.4</ele>
        <time>2020-09-18T10:10:24Z</time>
      </trkpt>
      <trkpt lat="44.28058" lon="6.06273">
        <ele>1021.8</ele>
        <time>2020-09-18T10:10:25Z</time>
      </trkpt>
      <trkpt lat="44.28057" lon="6.06273">
        <ele>1022.1</ele>
        <time>2020-09-18T10:10:26Z</time>
      </trkpt>
      <trkpt lat="44.28055" lon="6.06273">
        <ele>1022.5</ele>
        <time>2020-09-18T10:10:27Z</time>
      </trkpt>
      <trkpt lat="44.28053" lon="6.06272">
        <ele>1022.7</ele>
        <time>2020-09-18T10:10:28Z</time>
      </trkpt>
      <trkpt lat="44.28051" lon="6.06271">
        <ele>1022.8</ele>
        <time>2020-09-18T10:10:29Z</time>
      </trkpt>
      <trkpt lat="44.28025" lon="6.06263">
        <ele>1026</ele>
        <time>2020-09-18T10:10:44Z</time>
      </trkpt>
      <trkpt lat="44.27992" lon="6.06273">
        <ele>1034.3</ele>
        <time>2020-09-18T10:11:03Z</time>
      </trkpt>
      <trkpt lat="44.27967" lon="6.06286">
        <ele>1040.1</ele>
        <time>2020-09-18T10:11:19Z</time>
      </trkpt>
      <trkpt lat="44.27943" lon="6.06269">
        <ele>1037.8</ele>
        <time>2020-09-18T10:11:35Z</time>
      </trkpt>
      <trkpt lat="44.27917" lon="6.06252">
        <ele>1036.4</ele>
        <time>2020-09-18T10:11:52Z</time>
      </trkpt>
      <trkpt lat="44.27894" lon="6.06279">
        <ele>1039.4</ele>
        <time>2020-09-18T10:12:09Z</time>
      </trkpt>
      <trkpt lat="44.27873" lon="6.06311">
        <ele>1043.2</ele>
        <time>2020-09-18T10:12:27Z</time>
      </trkpt>
      <trkpt lat="44.27852" lon="6.0635">
        <ele>1048</ele>
        <time>2020-09-18T10:12:47Z</time>
      </trkpt>
      <trkpt lat="44.27839" lon="6.06381">
        <ele>1052.4</ele>
        <time>2020-09-18T10:13:02Z</time>
      </trkpt>
      <trkpt lat="44.27822" lon="6.06426">
        <ele>1059.5</ele>
        <time>2020-09-18T10:13:23Z</time>
      </trkpt>
      <trkpt lat="44.27805" lon="6.0646">
        <ele>1065.2</ele>
        <time>2020-09-18T10:13:41Z</time>
      </trkpt>
      <trkpt lat="44.27785" lon="6.06483">
        <ele>1068.1</ele>
        <time>2020-09-18T10:13:56Z</time>
      </trkpt>
      <trkpt lat="44.27758" lon="6.06485">
        <ele>1065.3</ele>
        <time>2020-09-18T10:14:11Z</time>
      </trkpt>
      <trkpt lat="44.27728" lon="6.06494">
        <ele>1067.4</ele>
        <time>2020-09-18T10:14:28Z</time>
      </trkpt>
      <trkpt lat="44.27696" lon="6.06498">
        <ele>1070</ele>
        <time>2020-09-18T10:14:47Z</time>
      </trkpt>
      <trkpt lat="44.27678" lon="6.0649">
        <ele>1068.8</ele>
        <time>2020-09-18T10:14:58Z</time>
      </trkpt>
      <trkpt lat="44.27645" lon="6.06483">
        <ele>1064.7</ele>
        <time>2020-09-18T10:15:17Z</time>
      </trkpt>
      <trkpt lat="44.27628" lon="6.06503">
        <ele>1068.1</ele>
        <time>2020-09-18T10:15:31Z</time>
      </trkpt>
      <trkpt lat="44.27614" lon="6.06538">
        <ele>1075.5</ele>
        <time>2020-09-18T10:15:48Z</time>
      </trkpt>
      <trkpt lat="44.27591" lon="6.06563">
        <ele>1079.4</ele>
        <time>2020-09-18T10:16:05Z</time>
      </trkpt>
      <trkpt lat="44.27559" lon="6.06584">
        <ele>1082.4</ele>
        <time>2020-09-18T10:16:25Z</time>
      </trkpt>
      <trkpt lat="44.27534" lon="6.06613">
        <ele>1084.5</ele>
        <time>2020-09-18T10:16:43Z</time>
      </trkpt>
      <trkpt lat="44.27517" lon="6.06657">
        <ele>1088.2</ele>
        <time>2020-09-18T10:17:04Z</time>
      </trkpt>
      <trkpt lat="44.27512" lon="6.06705">
        <ele>1092.3</ele>
        <time>2020-09-18T10:17:24Z</time>
      </trkpt>
      <trkpt lat="44.27513" lon="6.06745">
        <ele>1096.3</ele>
        <time>2020-09-18T10:17:41Z</time>
      </trkpt>
      <trkpt lat="44.27498" lon="6.06779">
        <ele>1096.9</ele>
        <time>2020-09-18T10:17:58Z</time>
      </trkpt>
      <trkpt lat="44.27498" lon="6.06779">
        <ele>1096.9</ele>
        <time>2020-09-18T10:18:00Z</time>
      </trkpt>
      <trkpt lat="44.27503" lon="6.06792">
        <ele>1099.3</ele>
        <time>2020-09-18T10:21:47Z</time>
      </trkpt>
      <trkpt lat="44.27501" lon="6.06794">
        <ele>1098.9</ele>
        <time>2020-09-18T10:21:48Z</time>
      </trkpt>
      <trkpt lat="44.2749" lon="6.06818">
        <ele>1099.3</ele>
        <time>2020-09-18T10:21:59Z</time>
      </trkpt>
      <trkpt lat="44.27496" lon="6.06856">
        <ele>1103.6</ele>
        <time>2020-09-18T10:22:13Z</time>
      </trkpt>
      <trkpt lat="44.27507" lon="6.06883">
        <ele>1108.5</ele>
        <time>2020-09-18T10:22:26Z</time>
      </trkpt>
      <trkpt lat="44.27501" lon="6.06917">
        <ele>1109.1</ele>
        <time>2020-09-18T10:22:40Z</time>
      </trkpt>
      <trkpt lat="44.27503" lon="6.06959">
        <ele>1112.4</ele>
        <time>2020-09-18T10:22:57Z</time>
      </trkpt>
      <trkpt lat="44.27514" lon="6.06986">
        <ele>1117</ele>
        <time>2020-09-18T10:23:11Z</time>
      </trkpt>
      <trkpt lat="44.27523" lon="6.06994">
        <ele>1119.8</ele>
        <time>2020-09-18T10:23:18Z</time>
      </trkpt>
      <trkpt lat="44.27524" lon="6.06997">
        <ele>1120</ele>
        <time>2020-09-18T10:23:19Z</time>
      </trkpt>
      <trkpt lat="44.27523" lon="6.06999">
        <ele>1120</ele>
        <time>2020-09-18T10:23:20Z</time>
      </trkpt>
      <trkpt lat="44.27523" lon="6.07001">
        <ele>1120</ele>
        <time>2020-09-18T10:23:21Z</time>
      </trkpt>
      <trkpt lat="44.27522" lon="6.07004">
        <ele>1119.9</ele>
        <time>2020-09-18T10:23:22Z</time>
      </trkpt>
      <trkpt lat="44.27504" lon="6.07037">
        <ele>1116.4</ele>
        <time>2020-09-18T10:23:38Z</time>
      </trkpt>
      <trkpt lat="44.27486" lon="6.07084">
        <ele>1114.3</ele>
        <time>2020-09-18T10:23:53Z</time>
      </trkpt>
      <trkpt lat="44.27477" lon="6.07131">
        <ele>1113.1</ele>
        <time>2020-09-18T10:24:03Z</time>
      </trkpt>
      <trkpt lat="44.27452" lon="6.07166">
        <ele>1109.6</ele>
        <time>2020-09-18T10:24:14Z</time>
      </trkpt>
      <trkpt lat="44.27415" lon="6.07183">
        <ele>1105.7</ele>
        <time>2020-09-18T10:24:28Z</time>
      </trkpt>
      <trkpt lat="44.27398" lon="6.07194">
        <ele>1104.6</ele>
        <time>2020-09-18T10:24:41Z</time>
      </trkpt>
      <trkpt lat="44.27391" lon="6.072">
        <ele>1104.5</ele>
        <time>2020-09-18T10:24:50Z</time>
      </trkpt>
      <trkpt lat="44.27389" lon="6.07203">
        <ele>1104.4</ele>
        <time>2020-09-18T10:24:51Z</time>
      </trkpt>
      <trkpt lat="44.27358" lon="6.07238">
        <ele>1103.7</ele>
        <time>2020-09-18T10:25:05Z</time>
      </trkpt>
      <trkpt lat="44.27319" lon="6.0726">
        <ele>1099.6</ele>
        <time>2020-09-18T10:25:17Z</time>
      </trkpt>
      <trkpt lat="44.2729" lon="6.07271">
        <ele>1095.4</ele>
        <time>2020-09-18T10:25:31Z</time>
      </trkpt>
      <trkpt lat="44.2729" lon="6.07271">
        <ele>1095.5</ele>
        <time>2020-09-18T10:25:33Z</time>
      </trkpt>
      <trkpt lat="44.2729" lon="6.07274">
        <ele>1095.7</ele>
        <time>2020-09-18T10:28:00Z</time>
      </trkpt>
      <trkpt lat="44.27288" lon="6.07276">
        <ele>1095.5</ele>
        <time>2020-09-18T10:28:01Z</time>
      </trkpt>
      <trkpt lat="44.27286" lon="6.07278">
        <ele>1095.3</ele>
        <time>2020-09-18T10:28:02Z</time>
      </trkpt>
      <trkpt lat="44.27273" lon="6.07323">
        <ele>1097.3</ele>
        <time>2020-09-18T10:28:13Z</time>
      </trkpt>
      <trkpt lat="44.27249" lon="6.07365">
        <ele>1095.1</ele>
        <time>2020-09-18T10:28:27Z</time>
      </trkpt>
      <trkpt lat="44.27217" lon="6.07408">
        <ele>1092</ele>
        <time>2020-09-18T10:28:42Z</time>
      </trkpt>
      <trkpt lat="44.27195" lon="6.07444">
        <ele>1091.2</ele>
        <time>2020-09-18T10:28:53Z</time>
      </trkpt>
      <trkpt lat="44.27185" lon="6.07481">
        <ele>1093.2</ele>
        <time>2020-09-18T10:29:02Z</time>
      </trkpt>
      <trkpt lat="44.27157" lon="6.0749">
        <ele>1090.2</ele>
        <time>2020-09-18T10:29:16Z</time>
      </trkpt>
      <trkpt lat="44.27128" lon="6.07497">
        <ele>1088.9</ele>
        <time>2020-09-18T10:29:30Z</time>
      </trkpt>
      <trkpt lat="44.27107" lon="6.07508">
        <ele>1089.2</ele>
        <time>2020-09-18T10:29:43Z</time>
      </trkpt>
      <trkpt lat="44.27074" lon="6.07552">
        <ele>1094.8</ele>
        <time>2020-09-18T10:30:04Z</time>
      </trkpt>
      <trkpt lat="44.27061" lon="6.07604">
        <ele>1099.3</ele>
        <time>2020-09-18T10:30:23Z</time>
      </trkpt>
      <trkpt lat="44.2705" lon="6.07632">
        <ele>1099</ele>
        <time>2020-09-18T10:30:35Z</time>
      </trkpt>
      <trkpt lat="44.2705" lon="6.07633">
        <ele>1099</ele>
        <time>2020-09-18T10:30:37Z</time>
      </trkpt>
      <trkpt lat="44.27044" lon="6.07638">
        <ele>1098.3</ele>
        <time>2020-09-18T10:30:44Z</time>
      </trkpt>
      <trkpt lat="44.27042" lon="6.07639">
        <ele>1098</ele>
        <time>2020-09-18T10:30:45Z</time>
      </trkpt>
      <trkpt lat="44.2704" lon="6.0764">
        <ele>1097.7</ele>
        <time>2020-09-18T10:30:46Z</time>
      </trkpt>
      <trkpt lat="44.27038" lon="6.07642">
        <ele>1097.6</ele>
        <time>2020-09-18T10:30:47Z</time>
      </trkpt>
      <trkpt lat="44.27037" lon="6.07645">
        <ele>1097.6</ele>
        <time>2020-09-18T10:30:48Z</time>
      </trkpt>
      <trkpt lat="44.27036" lon="6.07648">
        <ele>1097.6</ele>
        <time>2020-09-18T10:30:49Z</time>
      </trkpt>
      <trkpt lat="44.27036" lon="6.07651">
        <ele>1097.7</ele>
        <time>2020-09-18T10:30:50Z</time>
      </trkpt>
      <trkpt lat="44.27035" lon="6.07654">
        <ele>1097.8</ele>
        <time>2020-09-18T10:30:51Z</time>
      </trkpt>
      <trkpt lat="44.27035" lon="6.07657">
        <ele>1097.9</ele>
        <time>2020-09-18T10:30:52Z</time>
      </trkpt>
      <trkpt lat="44.27034" lon="6.0766">
        <ele>1098</ele>
        <time>2020-09-18T10:30:53Z</time>
      </trkpt>
      <trkpt lat="44.27034" lon="6.07663">
        <ele>1098.1</ele>
        <time>2020-09-18T10:30:54Z</time>
      </trkpt>
      <trkpt lat="44.27033" lon="6.07683">
        <ele>1099.1</ele>
        <time>2020-09-18T10:31:02Z</time>
      </trkpt>
      <trkpt lat="44.27031" lon="6.07685">
        <ele>1099</ele>
        <time>2020-09-18T10:31:03Z</time>
      </trkpt>
      <trkpt lat="44.2703" lon="6.07686">
        <ele>1098.8</ele>
        <time>2020-09-18T10:31:04Z</time>
      </trkpt>
      <trkpt lat="44.27006" lon="6.07713">
        <ele>1096.7</ele>
        <time>2020-09-18T10:31:18Z</time>
      </trkpt>
      <trkpt lat="44.27" lon="6.07723">
        <ele>1096.5</ele>
        <time>2020-09-18T10:31:23Z</time>
      </trkpt>
      <trkpt lat="44.26997" lon="6.07724">
        <ele>1097.1</ele>
        <time>2020-09-18T10:31:24Z</time>
      </trkpt>
      <trkpt lat="44.26995" lon="6.07724">
        <ele>1097.7</ele>
        <time>2020-09-18T10:31:25Z</time>
      </trkpt>
      <trkpt lat="44.26993" lon="6.07724">
        <ele>1098.2</ele>
        <time>2020-09-18T10:31:26Z</time>
      </trkpt>
      <trkpt lat="44.26992" lon="6.07723">
        <ele>1098.7</ele>
        <time>2020-09-18T10:31:27Z</time>
      </trkpt>
      <trkpt lat="44.2699" lon="6.07721">
        <ele>1099</ele>
        <time>2020-09-18T10:31:28Z</time>
      </trkpt>
      <trkpt lat="44.26989" lon="6.07719">
        <ele>1099.1</ele>
        <time>2020-09-18T10:31:29Z</time>
      </trkpt>
      <trkpt lat="44.26989" lon="6.07716">
        <ele>1099.1</ele>
        <time>2020-09-18T10:31:30Z</time>
      </trkpt>
      <trkpt lat="44.26978" lon="6.07677">
        <ele>1100.5</ele>
        <time>2020-09-18T10:31:45Z</time>
      </trkpt>
      <trkpt lat="44.26961" lon="6.07646">
        <ele>1105.3</ele>
        <time>2020-09-18T10:32:00Z</time>
      </trkpt>
      <trkpt lat="44.26959" lon="6.0762">
        <ele>1105.8</ele>
        <time>2020-09-18T10:32:11Z</time>
      </trkpt>
      <trkpt lat="44.26952" lon="6.07593">
        <ele>1108.1</ele>
        <time>2020-09-18T10:32:22Z</time>
      </trkpt>
      <trkpt lat="44.26938" lon="6.07553">
        <ele>1113</ele>
        <time>2020-09-18T10:32:39Z</time>
      </trkpt>
      <trkpt lat="44.26939" lon="6.07506">
        <ele>1111.2</ele>
        <time>2020-09-18T10:32:58Z</time>
      </trkpt>
      <trkpt lat="44.26938" lon="6.07466">
        <ele>1112.8</ele>
        <time>2020-09-18T10:33:14Z</time>
      </trkpt>
      <trkpt lat="44.26944" lon="6.0743">
        <ele>1111.8</ele>
        <time>2020-09-18T10:33:29Z</time>
      </trkpt>
      <trkpt lat="44.26946" lon="6.07394">
        <ele>1111.6</ele>
        <time>2020-09-18T10:33:44Z</time>
      </trkpt>
      <trkpt lat="44.26949" lon="6.07357">
        <ele>1110.7</ele>
        <time>2020-09-18T10:33:59Z</time>
      </trkpt>
      <trkpt lat="44.26955" lon="6.07328">
        <ele>1108.1</ele>
        <time>2020-09-18T10:34:12Z</time>
      </trkpt>
      <trkpt lat="44.26954" lon="6.07327">
        <ele>1108.3</ele>
        <time>2020-09-18T10:34:13Z</time>
      </trkpt>
      <trkpt lat="44.26952" lon="6.07326">
        <ele>1108.7</ele>
        <time>2020-09-18T10:34:14Z</time>
      </trkpt>
      <trkpt lat="44.26951" lon="6.07325">
        <ele>1109.3</ele>
        <time>2020-09-18T10:34:15Z</time>
      </trkpt>
      <trkpt lat="44.26949" lon="6.07325">
        <ele>1109.9</ele>
        <time>2020-09-18T10:34:16Z</time>
      </trkpt>
      <trkpt lat="44.26947" lon="6.07326">
        <ele>1110.6</ele>
        <time>2020-09-18T10:34:17Z</time>
      </trkpt>
      <trkpt lat="44.26946" lon="6.07328">
        <ele>1111.2</ele>
        <time>2020-09-18T10:34:18Z</time>
      </trkpt>
      <trkpt lat="44.26945" lon="6.0733">
        <ele>1111.7</ele>
        <time>2020-09-18T10:34:19Z</time>
      </trkpt>
      <trkpt lat="44.26945" lon="6.07332">
        <ele>1112.1</ele>
        <time>2020-09-18T10:34:20Z</time>
      </trkpt>
      <trkpt lat="44.26944" lon="6.07334">
        <ele>1112.4</ele>
        <time>2020-09-18T10:34:21Z</time>
      </trkpt>
      <trkpt lat="44.26926" lon="6.07371">
        <ele>1119.2</ele>
        <time>2020-09-18T10:34:40Z</time>
      </trkpt>
      <trkpt lat="44.26911" lon="6.07408">
        <ele>1124.8</ele>
        <time>2020-09-18T10:34:58Z</time>
      </trkpt>
      <trkpt lat="44.26899" lon="6.07445">
        <ele>1127.8</ele>
        <time>2020-09-18T10:35:16Z</time>
      </trkpt>
      <trkpt lat="44.26888" lon="6.07486">
        <ele>1132.8</ele>
        <time>2020-09-18T10:35:34Z</time>
      </trkpt>
      <trkpt lat="44.26871" lon="6.07517">
        <ele>1141.6</ele>
        <time>2020-09-18T10:35:50Z</time>
      </trkpt>
      <trkpt lat="44.26867" lon="6.07551">
        <ele>1145</ele>
        <time>2020-09-18T10:36:05Z</time>
      </trkpt>
      <trkpt lat="44.26864" lon="6.07587">
        <ele>1148.2</ele>
        <time>2020-09-18T10:36:21Z</time>
      </trkpt>
      <trkpt lat="44.26856" lon="6.0762">
        <ele>1150.2</ele>
        <time>2020-09-18T10:36:36Z</time>
      </trkpt>
      <trkpt lat="44.26855" lon="6.07624">
        <ele>1150.5</ele>
        <time>2020-09-18T10:36:38Z</time>
      </trkpt>
      <trkpt lat="44.26853" lon="6.07626">
        <ele>1151.1</ele>
        <time>2020-09-18T10:36:39Z</time>
      </trkpt>
      <trkpt lat="44.26852" lon="6.07627">
        <ele>1151.8</ele>
        <time>2020-09-18T10:36:40Z</time>
      </trkpt>
      <trkpt lat="44.2685" lon="6.07627">
        <ele>1152.7</ele>
        <time>2020-09-18T10:36:41Z</time>
      </trkpt>
      <trkpt lat="44.26845" lon="6.07619">
        <ele>1155.5</ele>
        <time>2020-09-18T10:36:46Z</time>
      </trkpt>
      <trkpt lat="44.26845" lon="6.07576">
        <ele>1157</ele>
        <time>2020-09-18T10:37:06Z</time>
      </trkpt>
      <trkpt lat="44.2683" lon="6.07542">
        <ele>1160.8</ele>
        <time>2020-09-18T10:37:23Z</time>
      </trkpt>
      <trkpt lat="44.26832" lon="6.07504">
        <ele>1157.6</ele>
        <time>2020-09-18T10:37:40Z</time>
      </trkpt>
      <trkpt lat="44.26822" lon="6.07504">
        <ele>1159.7</ele>
        <time>2020-09-18T10:37:48Z</time>
      </trkpt>
      <trkpt lat="44.26815" lon="6.07562">
        <ele>1165.4</ele>
        <time>2020-09-18T10:38:12Z</time>
      </trkpt>
      <trkpt lat="44.26811" lon="6.07603">
        <ele>1167</ele>
        <time>2020-09-18T10:38:29Z</time>
      </trkpt>
      <trkpt lat="44.26801" lon="6.07644">
        <ele>1168.4</ele>
        <time>2020-09-18T10:38:47Z</time>
      </trkpt>
      <trkpt lat="44.26783" lon="6.07683">
        <ele>1172.7</ele>
        <time>2020-09-18T10:39:05Z</time>
      </trkpt>
      <trkpt lat="44.26768" lon="6.07712">
        <ele>1176.7</ele>
        <time>2020-09-18T10:39:19Z</time>
      </trkpt>
      <trkpt lat="44.26749" lon="6.07753">
        <ele>1182.2</ele>
        <time>2020-09-18T10:39:38Z</time>
      </trkpt>
      <trkpt lat="44.26727" lon="6.07774">
        <ele>1184.9</ele>
        <time>2020-09-18T10:39:53Z</time>
      </trkpt>
      <trkpt lat="44.26698" lon="6.07784">
        <ele>1188.9</ele>
        <time>2020-09-18T10:40:10Z</time>
      </trkpt>
      <trkpt lat="44.26678" lon="6.07806">
        <ele>1192.7</ele>
        <time>2020-09-18T10:40:24Z</time>
      </trkpt>
      <trkpt lat="44.2666" lon="6.07821">
        <ele>1195.7</ele>
        <time>2020-09-18T10:40:36Z</time>
      </trkpt>
      <trkpt lat="44.26657" lon="6.07824">
        <ele>1196</ele>
        <time>2020-09-18T10:40:43Z</time>
      </trkpt>
      <trkpt lat="44.26654" lon="6.07832">
        <ele>1196.4</ele>
        <time>2020-09-18T10:41:58Z</time>
      </trkpt>
      <trkpt lat="44.26653" lon="6.07834">
        <ele>1196.6</ele>
        <time>2020-09-18T10:41:59Z</time>
      </trkpt>
      <trkpt lat="44.26651" lon="6.07838">
        <ele>1197</ele>
        <time>2020-09-18T10:42:00Z</time>
      </trkpt>
      <trkpt lat="44.2665" lon="6.07841">
        <ele>1197.3</ele>
        <time>2020-09-18T10:42:01Z</time>
      </trkpt>
      <trkpt lat="44.2663" lon="6.07893">
        <ele>1201.3</ele>
        <time>2020-09-18T10:42:14Z</time>
      </trkpt>
      <trkpt lat="44.26606" lon="6.07981">
        <ele>1202.2</ele>
        <time>2020-09-18T10:42:38Z</time>
      </trkpt>
      <trkpt lat="44.26588" lon="6.08047">
        <ele>1202</ele>
        <time>2020-09-18T10:42:55Z</time>
      </trkpt>
      <trkpt lat="44.26577" lon="6.08062">
        <ele>1202.6</ele>
        <time>2020-09-18T10:43:05Z</time>
      </trkpt>
      <trkpt lat="44.26566" lon="6.08067">
        <ele>1203.2</ele>
        <time>2020-09-18T10:43:59Z</time>
      </trkpt>
      <trkpt lat="44.26563" lon="6.08069">
        <ele>1203.3</ele>
        <time>2020-09-18T10:44:00Z</time>
      </trkpt>
      <trkpt lat="44.2655" lon="6.08097">
        <ele>1205.4</ele>
        <time>2020-09-18T10:44:09Z</time>
      </trkpt>
      <trkpt lat="44.26545" lon="6.0812">
        <ele>1208.1</ele>
        <time>2020-09-18T10:44:16Z</time>
      </trkpt>
      <trkpt lat="44.26528" lon="6.08154">
        <ele>1210.3</ele>
        <time>2020-09-18T10:44:27Z</time>
      </trkpt>
      <trkpt lat="44.26517" lon="6.08172">
        <ele>1211</ele>
        <time>2020-09-18T10:44:33Z</time>
      </trkpt>
      <trkpt lat="44.26494" lon="6.08195">
        <ele>1214</ele>
        <time>2020-09-18T10:44:44Z</time>
      </trkpt>
      <trkpt lat="44.26467" lon="6.08222">
        <ele>1218.8</ele>
        <time>2020-09-18T10:44:59Z</time>
      </trkpt>
      <trkpt lat="44.26454" lon="6.08236">
        <ele>1220.1</ele>
        <time>2020-09-18T10:45:06Z</time>
      </trkpt>
      <trkpt lat="44.26451" lon="6.08237">
        <ele>1220.1</ele>
        <time>2020-09-18T10:45:07Z</time>
      </trkpt>
      <trkpt lat="44.26448" lon="6.08238">
        <ele>1220.1</ele>
        <time>2020-09-18T10:45:08Z</time>
      </trkpt>
      <trkpt lat="44.26445" lon="6.0824">
        <ele>1220.1</ele>
        <time>2020-09-18T10:45:09Z</time>
      </trkpt>
      <trkpt lat="44.26442" lon="6.08241">
        <ele>1220.1</ele>
        <time>2020-09-18T10:45:10Z</time>
      </trkpt>
      <trkpt lat="44.26408" lon="6.08242">
        <ele>1220.1</ele>
        <time>2020-09-18T10:45:24Z</time>
      </trkpt>
      <trkpt lat="44.26383" lon="6.08243">
        <ele>1224</ele>
        <time>2020-09-18T10:45:36Z</time>
      </trkpt>
      <trkpt lat="44.26353" lon="6.08257">
        <ele>1228.5</ele>
        <time>2020-09-18T10:45:47Z</time>
      </trkpt>
      <trkpt lat="44.26326" lon="6.08283">
        <ele>1235.5</ele>
        <time>2020-09-18T10:45:59Z</time>
      </trkpt>
      <trkpt lat="44.2631" lon="6.08304">
        <ele>1239.2</ele>
        <time>2020-09-18T10:46:07Z</time>
      </trkpt>
      <trkpt lat="44.26284" lon="6.08343">
        <ele>1241</ele>
        <time>2020-09-18T10:46:21Z</time>
      </trkpt>
      <trkpt lat="44.26259" lon="6.08391">
        <ele>1243.1</ele>
        <time>2020-09-18T10:46:37Z</time>
      </trkpt>
      <trkpt lat="44.26251" lon="6.08411">
        <ele>1242.9</ele>
        <time>2020-09-18T10:46:44Z</time>
      </trkpt>
      <trkpt lat="44.26248" lon="6.08412">
        <ele>1243</ele>
        <time>2020-09-18T10:46:45Z</time>
      </trkpt>
      <trkpt lat="44.26246" lon="6.08412">
        <ele>1243.2</ele>
        <time>2020-09-18T10:46:46Z</time>
      </trkpt>
      <trkpt lat="44.26243" lon="6.08413">
        <ele>1243.5</ele>
        <time>2020-09-18T10:46:47Z</time>
      </trkpt>
      <trkpt lat="44.2624" lon="6.08414">
        <ele>1243.7</ele>
        <time>2020-09-18T10:46:48Z</time>
      </trkpt>
      <trkpt lat="44.26238" lon="6.08415">
        <ele>1243.9</ele>
        <time>2020-09-18T10:46:49Z</time>
      </trkpt>
      <trkpt lat="44.26235" lon="6.08416">
        <ele>1244.1</ele>
        <time>2020-09-18T10:46:50Z</time>
      </trkpt>
      <trkpt lat="44.26234" lon="6.08418">
        <ele>1244.3</ele>
        <time>2020-09-18T10:46:51Z</time>
      </trkpt>
      <trkpt lat="44.26234" lon="6.0842">
        <ele>1244.6</ele>
        <time>2020-09-18T10:46:56Z</time>
      </trkpt>
      <trkpt lat="44.26214" lon="6.08447">
        <ele>1247.8</ele>
        <time>2020-09-18T10:48:14Z</time>
      </trkpt>
      <trkpt lat="44.26198" lon="6.08476">
        <ele>1248.7</ele>
        <time>2020-09-18T10:48:45Z</time>
      </trkpt>
      <trkpt lat="44.26176" lon="6.08515">
        <ele>1247.7</ele>
        <time>2020-09-18T10:49:24Z</time>
      </trkpt>
      <trkpt lat="44.26175" lon="6.08518">
        <ele>1247.7</ele>
        <time>2020-09-18T10:49:31Z</time>
      </trkpt>
      <trkpt lat="44.26169" lon="6.0853">
        <ele>1247.8</ele>
        <time>2020-09-18T10:51:20Z</time>
      </trkpt>
      <trkpt lat="44.26141" lon="6.08584">
        <ele>1250.2</ele>
        <time>2020-09-18T10:51:36Z</time>
      </trkpt>
      <trkpt lat="44.26137" lon="6.08594">
        <ele>1251</ele>
        <time>2020-09-18T10:51:38Z</time>
      </trkpt>
      <trkpt lat="44.26113" lon="6.08638">
        <ele>1251.8</ele>
        <time>2020-09-18T10:51:49Z</time>
      </trkpt>
      <trkpt lat="44.26076" lon="6.08643">
        <ele>1248.7</ele>
        <time>2020-09-18T10:52:00Z</time>
      </trkpt>
      <trkpt lat="44.26041" lon="6.08672">
        <ele>1252.2</ele>
        <time>2020-09-18T10:52:13Z</time>
      </trkpt>
      <trkpt lat="44.26035" lon="6.08723">
        <ele>1253.1</ele>
        <time>2020-09-18T10:52:25Z</time>
      </trkpt>
      <trkpt lat="44.26012" lon="6.0875">
        <ele>1251.2</ele>
        <time>2020-09-18T10:52:36Z</time>
      </trkpt>
      <trkpt lat="44.2598" lon="6.08768">
        <ele>1253.4</ele>
        <time>2020-09-18T10:52:48Z</time>
      </trkpt>
      <trkpt lat="44.25958" lon="6.08786">
        <ele>1256</ele>
        <time>2020-09-18T10:52:57Z</time>
      </trkpt>
      <trkpt lat="44.25934" lon="6.08808">
        <ele>1257.7</ele>
        <time>2020-09-18T10:53:07Z</time>
      </trkpt>
      <trkpt lat="44.25928" lon="6.08819">
        <ele>1258</ele>
        <time>2020-09-18T10:53:11Z</time>
      </trkpt>
      <trkpt lat="44.25929" lon="6.08822">
        <ele>1258</ele>
        <time>2020-09-18T10:53:12Z</time>
      </trkpt>
      <trkpt lat="44.25929" lon="6.08826">
        <ele>1258</ele>
        <time>2020-09-18T10:53:13Z</time>
      </trkpt>
      <trkpt lat="44.25931" lon="6.08829">
        <ele>1258</ele>
        <time>2020-09-18T10:53:14Z</time>
      </trkpt>
      <trkpt lat="44.25934" lon="6.08831">
        <ele>1258</ele>
        <time>2020-09-18T10:53:15Z</time>
      </trkpt>
      <trkpt lat="44.25936" lon="6.08832">
        <ele>1258</ele>
        <time>2020-09-18T10:53:16Z</time>
      </trkpt>
      <trkpt lat="44.2594" lon="6.08832">
        <ele>1258</ele>
        <time>2020-09-18T10:53:17Z</time>
      </trkpt>
      <trkpt lat="44.25943" lon="6.08832">
        <ele>1258</ele>
        <time>2020-09-18T10:53:18Z</time>
      </trkpt>
      <trkpt lat="44.25983" lon="6.08847">
        <ele>1259.4</ele>
        <time>2020-09-18T10:53:33Z</time>
      </trkpt>
      <trkpt lat="44.25984" lon="6.08884">
        <ele>1263.1</ele>
        <time>2020-09-18T10:53:45Z</time>
      </trkpt>
      <trkpt lat="44.25956" lon="6.08907">
        <ele>1266</ele>
        <time>2020-09-18T10:53:57Z</time>
      </trkpt>
      <trkpt lat="44.25917" lon="6.08904">
        <ele>1266.5</ele>
        <time>2020-09-18T10:54:13Z</time>
      </trkpt>
      <trkpt lat="44.25878" lon="6.08901">
        <ele>1266.4</ele>
        <time>2020-09-18T10:54:29Z</time>
      </trkpt>
      <trkpt lat="44.25852" lon="6.0893">
        <ele>1268.8</ele>
        <time>2020-09-18T10:54:42Z</time>
      </trkpt>
      <trkpt lat="44.25827" lon="6.08977">
        <ele>1273.9</ele>
        <time>2020-09-18T10:54:59Z</time>
      </trkpt>
      <trkpt lat="44.25801" lon="6.09015">
        <ele>1275</ele>
        <time>2020-09-18T10:55:14Z</time>
      </trkpt>
      <trkpt lat="44.25787" lon="6.09061">
        <ele>1277.4</ele>
        <time>2020-09-18T10:55:29Z</time>
      </trkpt>
      <trkpt lat="44.25777" lon="6.09079">
        <ele>1277.5</ele>
        <time>2020-09-18T10:55:41Z</time>
      </trkpt>
      <trkpt lat="44.25774" lon="6.09085">
        <ele>1277.5</ele>
        <time>2020-09-18T10:55:48Z</time>
      </trkpt>
      <trkpt lat="44.25772" lon="6.09088">
        <ele>1277.4</ele>
        <time>2020-09-18T10:55:49Z</time>
      </trkpt>
      <trkpt lat="44.25748" lon="6.09117">
        <ele>1275.1</ele>
        <time>2020-09-18T10:56:02Z</time>
      </trkpt>
      <trkpt lat="44.2573" lon="6.0913">
        <ele>1275.2</ele>
        <time>2020-09-18T10:56:10Z</time>
      </trkpt>
      <trkpt lat="44.25708" lon="6.09147">
        <ele>1275.3</ele>
        <time>2020-09-18T10:56:20Z</time>
      </trkpt>
      <trkpt lat="44.25681" lon="6.0915">
        <ele>1274.8</ele>
        <time>2020-09-18T10:56:32Z</time>
      </trkpt>
      <trkpt lat="44.25671" lon="6.0919">
        <ele>1276.8</ele>
        <time>2020-09-18T10:56:47Z</time>
      </trkpt>
      <trkpt lat="44.25653" lon="6.09217">
        <ele>1279</ele>
        <time>2020-09-18T10:57:00Z</time>
      </trkpt>
      <trkpt lat="44.25633" lon="6.09236">
        <ele>1280.9</ele>
        <time>2020-09-18T10:57:12Z</time>
      </trkpt>
      <trkpt lat="44.25618" lon="6.09265">
        <ele>1283.3</ele>
        <time>2020-09-18T10:57:24Z</time>
      </trkpt>
      <trkpt lat="44.25605" lon="6.09319">
        <ele>1287.3</ele>
        <time>2020-09-18T10:57:44Z</time>
      </trkpt>
      <trkpt lat="44.25578" lon="6.09361">
        <ele>1289.7</ele>
        <time>2020-09-18T10:58:04Z</time>
      </trkpt>
      <trkpt lat="44.25556" lon="6.09413">
        <ele>1291.8</ele>
        <time>2020-09-18T10:58:25Z</time>
      </trkpt>
      <trkpt lat="44.2554" lon="6.09447">
        <ele>1293.1</ele>
        <time>2020-09-18T10:58:39Z</time>
      </trkpt>
      <trkpt lat="44.25527" lon="6.09478">
        <ele>1294.6</ele>
        <time>2020-09-18T10:58:51Z</time>
      </trkpt>
      <trkpt lat="44.25502" lon="6.0951">
        <ele>1295.8</ele>
        <time>2020-09-18T10:59:07Z</time>
      </trkpt>
      <trkpt lat="44.25476" lon="6.0955">
        <ele>1297.8</ele>
        <time>2020-09-18T10:59:24Z</time>
      </trkpt>
      <trkpt lat="44.25461" lon="6.09596">
        <ele>1300.4</ele>
        <time>2020-09-18T10:59:41Z</time>
      </trkpt>
      <trkpt lat="44.25453" lon="6.0963">
        <ele>1302.3</ele>
        <time>2020-09-18T10:59:55Z</time>
      </trkpt>
      <trkpt lat="44.25437" lon="6.09663">
        <ele>1303.3</ele>
        <time>2020-09-18T11:00:09Z</time>
      </trkpt>
      <trkpt lat="44.25428" lon="6.09708">
        <ele>1304.5</ele>
        <time>2020-09-18T11:00:26Z</time>
      </trkpt>
      <trkpt lat="44.25421" lon="6.09759">
        <ele>1305</ele>
        <time>2020-09-18T11:00:45Z</time>
      </trkpt>
      <trkpt lat="44.25431" lon="6.09823">
        <ele>1304.6</ele>
        <time>2020-09-18T11:00:56Z</time>
      </trkpt>
      <trkpt lat="44.2543" lon="6.09834">
        <ele>1304</ele>
        <time>2020-09-18T11:00:58Z</time>
      </trkpt>
      <trkpt lat="44.25429" lon="6.0984">
        <ele>1303.3</ele>
        <time>2020-09-18T11:00:59Z</time>
      </trkpt>
      <trkpt lat="44.25422" lon="6.09876">
        <ele>1297.9</ele>
        <time>2020-09-18T11:01:05Z</time>
      </trkpt>
      <trkpt lat="44.25415" lon="6.09932">
        <ele>1291.8</ele>
        <time>2020-09-18T11:01:13Z</time>
      </trkpt>
      <trkpt lat="44.25413" lon="6.09939">
        <ele>1291.8</ele>
        <time>2020-09-18T11:01:14Z</time>
      </trkpt>
      <trkpt lat="44.2541" lon="6.09945">
        <ele>1291.7</ele>
        <time>2020-09-18T11:01:15Z</time>
      </trkpt>
      <trkpt lat="44.25407" lon="6.09951">
        <ele>1291.7</ele>
        <time>2020-09-18T11:01:16Z</time>
      </trkpt>
      <trkpt lat="44.25391" lon="6.09975">
        <ele>1290.2</ele>
        <time>2020-09-18T11:01:20Z</time>
      </trkpt>
      <trkpt lat="44.2538" lon="6.09989">
        <ele>1288.3</ele>
        <time>2020-09-18T11:01:23Z</time>
      </trkpt>
      <trkpt lat="44.25364" lon="6.10002">
        <ele>1285.5</ele>
        <time>2020-09-18T11:01:28Z</time>
      </trkpt>
      <trkpt lat="44.25341" lon="6.10016">
        <ele>1282.9</ele>
        <time>2020-09-18T11:01:33Z</time>
      </trkpt>
      <trkpt lat="44.25303" lon="6.10026">
        <ele>1283.2</ele>
        <time>2020-09-18T11:01:41Z</time>
      </trkpt>
      <trkpt lat="44.2526" lon="6.10024">
        <ele>1285.5</ele>
        <time>2020-09-18T11:01:51Z</time>
      </trkpt>
      <trkpt lat="44.25246" lon="6.10025">
        <ele>1285.9</ele>
        <time>2020-09-18T11:01:54Z</time>
      </trkpt>
      <trkpt lat="44.25241" lon="6.10026">
        <ele>1285.9</ele>
        <time>2020-09-18T11:01:55Z</time>
      </trkpt>
      <trkpt lat="44.25236" lon="6.10026">
        <ele>1286</ele>
        <time>2020-09-18T11:01:56Z</time>
      </trkpt>
      <trkpt lat="44.25231" lon="6.10026">
        <ele>1286.2</ele>
        <time>2020-09-18T11:01:57Z</time>
      </trkpt>
      <trkpt lat="44.25226" lon="6.10025">
        <ele>1286.5</ele>
        <time>2020-09-18T11:01:58Z</time>
      </trkpt>
      <trkpt lat="44.2521" lon="6.10026">
        <ele>1286.9</ele>
        <time>2020-09-18T11:02:01Z</time>
      </trkpt>
      <trkpt lat="44.25204" lon="6.10028">
        <ele>1286.6</ele>
        <time>2020-09-18T11:02:02Z</time>
      </trkpt>
      <trkpt lat="44.25198" lon="6.1003">
        <ele>1286.1</ele>
        <time>2020-09-18T11:02:03Z</time>
      </trkpt>
      <trkpt lat="44.25192" lon="6.10034">
        <ele>1285</ele>
        <time>2020-09-18T11:02:04Z</time>
      </trkpt>
      <trkpt lat="44.25187" lon="6.10038">
        <ele>1283.8</ele>
        <time>2020-09-18T11:02:05Z</time>
      </trkpt>
      <trkpt lat="44.25172" lon="6.10048">
        <ele>1280.4</ele>
        <time>2020-09-18T11:02:08Z</time>
      </trkpt>
      <trkpt lat="44.25141" lon="6.10061">
        <ele>1278.1</ele>
        <time>2020-09-18T11:02:13Z</time>
      </trkpt>
      <trkpt lat="44.25106" lon="6.10081">
        <ele>1274.4</ele>
        <time>2020-09-18T11:02:20Z</time>
      </trkpt>
      <trkpt lat="44.25101" lon="6.10085">
        <ele>1273.9</ele>
        <time>2020-09-18T11:02:21Z</time>
      </trkpt>
      <trkpt lat="44.25097" lon="6.1009">
        <ele>1273.8</ele>
        <time>2020-09-18T11:02:22Z</time>
      </trkpt>
      <trkpt lat="44.2508" lon="6.10113">
        <ele>1270.7</ele>
        <time>2020-09-18T11:02:27Z</time>
      </trkpt>
      <trkpt lat="44.2507" lon="6.10125">
        <ele>1268</ele>
        <time>2020-09-18T11:02:30Z</time>
      </trkpt>
      <trkpt lat="44.25067" lon="6.10131">
        <ele>1266.8</ele>
        <time>2020-09-18T11:02:31Z</time>
      </trkpt>
      <trkpt lat="44.25064" lon="6.10136">
        <ele>1265.6</ele>
        <time>2020-09-18T11:02:32Z</time>
      </trkpt>
      <trkpt lat="44.25062" lon="6.10142">
        <ele>1264.2</ele>
        <time>2020-09-18T11:02:33Z</time>
      </trkpt>
      <trkpt lat="44.25059" lon="6.10149">
        <ele>1262.7</ele>
        <time>2020-09-18T11:02:34Z</time>
      </trkpt>
      <trkpt lat="44.25057" lon="6.10155">
        <ele>1261.3</ele>
        <time>2020-09-18T11:02:35Z</time>
      </trkpt>
      <trkpt lat="44.25049" lon="6.10172">
        <ele>1258.6</ele>
        <time>2020-09-18T11:02:38Z</time>
      </trkpt>
      <trkpt lat="44.25046" lon="6.10177">
        <ele>1258.7</ele>
        <time>2020-09-18T11:02:39Z</time>
      </trkpt>
      <trkpt lat="44.25037" lon="6.10191">
        <ele>1258.1</ele>
        <time>2020-09-18T11:02:42Z</time>
      </trkpt>
      <trkpt lat="44.25034" lon="6.10194">
        <ele>1257.5</ele>
        <time>2020-09-18T11:02:43Z</time>
      </trkpt>
      <trkpt lat="44.25031" lon="6.10197">
        <ele>1256.8</ele>
        <time>2020-09-18T11:02:44Z</time>
      </trkpt>
      <trkpt lat="44.25027" lon="6.10198">
        <ele>1255.9</ele>
        <time>2020-09-18T11:02:45Z</time>
      </trkpt>
      <trkpt lat="44.25022" lon="6.102">
        <ele>1254.9</ele>
        <time>2020-09-18T11:02:46Z</time>
      </trkpt>
      <trkpt lat="44.25018" lon="6.102">
        <ele>1253.8</ele>
        <time>2020-09-18T11:02:47Z</time>
      </trkpt>
      <trkpt lat="44.25013" lon="6.102">
        <ele>1252.7</ele>
        <time>2020-09-18T11:02:48Z</time>
      </trkpt>
      <trkpt lat="44.25008" lon="6.10199">
        <ele>1251.6</ele>
        <time>2020-09-18T11:02:49Z</time>
      </trkpt>
      <trkpt lat="44.25003" lon="6.10199">
        <ele>1250.4</ele>
        <time>2020-09-18T11:02:50Z</time>
      </trkpt>
      <trkpt lat="44.24997" lon="6.102">
        <ele>1249.1</ele>
        <time>2020-09-18T11:02:51Z</time>
      </trkpt>
      <trkpt lat="44.24992" lon="6.10201">
        <ele>1248</ele>
        <time>2020-09-18T11:02:52Z</time>
      </trkpt>
      <trkpt lat="44.24982" lon="6.10203">
        <ele>1246.1</ele>
        <time>2020-09-18T11:02:54Z</time>
      </trkpt>
      <trkpt lat="44.24978" lon="6.10204">
        <ele>1245.3</ele>
        <time>2020-09-18T11:02:55Z</time>
      </trkpt>
      <trkpt lat="44.24974" lon="6.10204">
        <ele>1244.5</ele>
        <time>2020-09-18T11:02:56Z</time>
      </trkpt>
      <trkpt lat="44.2497" lon="6.10203">
        <ele>1243.9</ele>
        <time>2020-09-18T11:02:57Z</time>
      </trkpt>
      <trkpt lat="44.24965" lon="6.10201">
        <ele>1243.3</ele>
        <time>2020-09-18T11:02:58Z</time>
      </trkpt>
      <trkpt lat="44.24922" lon="6.10179">
        <ele>1239.2</ele>
        <time>2020-09-18T11:03:07Z</time>
      </trkpt>
      <trkpt lat="44.24882" lon="6.10165">
        <ele>1235.6</ele>
        <time>2020-09-18T11:03:16Z</time>
      </trkpt>
      <trkpt lat="44.24825" lon="6.10166">
        <ele>1228.5</ele>
        <time>2020-09-18T11:03:24Z</time>
      </trkpt>
      <trkpt lat="44.24756" lon="6.10169">
        <ele>1223.4</ele>
        <time>2020-09-18T11:03:33Z</time>
      </trkpt>
      <trkpt lat="44.24719" lon="6.10171">
        <ele>1221.8</ele>
        <time>2020-09-18T11:03:38Z</time>
      </trkpt>
      <trkpt lat="44.24702" lon="6.10171">
        <ele>1221.2</ele>
        <time>2020-09-18T11:03:41Z</time>
      </trkpt>
      <trkpt lat="44.24681" lon="6.10168">
        <ele>1220.5</ele>
        <time>2020-09-18T11:03:46Z</time>
      </trkpt>
      <trkpt lat="44.24663" lon="6.10167">
        <ele>1220.4</ele>
        <time>2020-09-18T11:03:57Z</time>
      </trkpt>
      <trkpt lat="44.24658" lon="6.10161">
        <ele>1220.7</ele>
        <time>2020-09-18T11:04:41Z</time>
      </trkpt>
      <trkpt lat="44.24659" lon="6.10159">
        <ele>1220.5</ele>
        <time>2020-09-18T11:04:42Z</time>
      </trkpt>
      <trkpt lat="44.2466" lon="6.10156">
        <ele>1220.4</ele>
        <time>2020-09-18T11:04:43Z</time>
      </trkpt>
      <trkpt lat="44.2466" lon="6.10154">
        <ele>1220.2</ele>
        <time>2020-09-18T11:04:44Z</time>
      </trkpt>
      <trkpt lat="44.24661" lon="6.10151">
        <ele>1220</ele>
        <time>2020-09-18T11:04:45Z</time>
      </trkpt>
      <trkpt lat="44.24662" lon="6.10148">
        <ele>1219.9</ele>
        <time>2020-09-18T11:04:46Z</time>
      </trkpt>
      <trkpt lat="44.24662" lon="6.10145">
        <ele>1219.7</ele>
        <time>2020-09-18T11:04:47Z</time>
      </trkpt>
      <trkpt lat="44.24662" lon="6.10142">
        <ele>1219.6</ele>
        <time>2020-09-18T11:04:48Z</time>
      </trkpt>
      <trkpt lat="44.24668" lon="6.10101">
        <ele>1218.5</ele>
        <time>2020-09-18T11:05:00Z</time>
      </trkpt>
      <trkpt lat="44.24675" lon="6.10042">
        <ele>1213.1</ele>
        <time>2020-09-18T11:05:13Z</time>
      </trkpt>
      <trkpt lat="44.24684" lon="6.1002">
        <ele>1211.6</ele>
        <time>2020-09-18T11:05:17Z</time>
      </trkpt>
      <trkpt lat="44.24687" lon="6.10016">
        <ele>1211.6</ele>
        <time>2020-09-18T11:05:18Z</time>
      </trkpt>
      <trkpt lat="44.24709" lon="6.09967">
        <ele>1214.8</ele>
        <time>2020-09-18T11:05:31Z</time>
      </trkpt>
      <trkpt lat="44.24705" lon="6.09918">
        <ele>1214.4</ele>
        <time>2020-09-18T11:05:44Z</time>
      </trkpt>
      <trkpt lat="44.24687" lon="6.09854">
        <ele>1215.1</ele>
        <time>2020-09-18T11:06:05Z</time>
      </trkpt>
      <trkpt lat="44.24683" lon="6.09797">
        <ele>1220.6</ele>
        <time>2020-09-18T11:06:24Z</time>
      </trkpt>
      <trkpt lat="44.24678" lon="6.09741">
        <ele>1225.9</ele>
        <time>2020-09-18T11:06:43Z</time>
      </trkpt>
      <trkpt lat="44.24671" lon="6.09675">
        <ele>1226.7</ele>
        <time>2020-09-18T11:07:05Z</time>
      </trkpt>
      <trkpt lat="44.24667" lon="6.09609">
        <ele>1227.5</ele>
        <time>2020-09-18T11:07:27Z</time>
      </trkpt>
      <trkpt lat="44.24683" lon="6.09555">
        <ele>1234.4</ele>
        <time>2020-09-18T11:07:46Z</time>
      </trkpt>
      <trkpt lat="44.24682" lon="6.09507">
        <ele>1235.7</ele>
        <time>2020-09-18T11:08:02Z</time>
      </trkpt>
      <trkpt lat="44.24653" lon="6.0947">
        <ele>1232.1</ele>
        <time>2020-09-18T11:08:19Z</time>
      </trkpt>
      <trkpt lat="44.24618" lon="6.09424">
        <ele>1231.4</ele>
        <time>2020-09-18T11:08:39Z</time>
      </trkpt>
      <trkpt lat="44.24592" lon="6.09391">
        <ele>1232.1</ele>
        <time>2020-09-18T11:08:54Z</time>
      </trkpt>
      <trkpt lat="44.2455" lon="6.09329">
        <ele>1232.1</ele>
        <time>2020-09-18T11:09:11Z</time>
      </trkpt>
      <trkpt lat="44.24498" lon="6.09248">
        <ele>1233.2</ele>
        <time>2020-09-18T11:09:25Z</time>
      </trkpt>
      <trkpt lat="44.24452" lon="6.09167">
        <ele>1226.2</ele>
        <time>2020-09-18T11:09:39Z</time>
      </trkpt>
      <trkpt lat="44.24405" lon="6.09099">
        <ele>1211</ele>
        <time>2020-09-18T11:09:54Z</time>
      </trkpt>
      <trkpt lat="44.24397" lon="6.09083">
        <ele>1206.8</ele>
        <time>2020-09-18T11:10:04Z</time>
      </trkpt>
      <trkpt lat="44.24397" lon="6.09083">
        <ele>1207.2</ele>
        <time>2020-09-18T11:10:07Z</time>
      </trkpt>
      <trkpt lat="44.24397" lon="6.09074">
        <ele>1206.8</ele>
        <time>2020-09-18T11:11:09Z</time>
      </trkpt>
      <trkpt lat="44.24397" lon="6.09071">
        <ele>1206.9</ele>
        <time>2020-09-18T11:11:10Z</time>
      </trkpt>
      <trkpt lat="44.24397" lon="6.09067">
        <ele>1207.2</ele>
        <time>2020-09-18T11:11:11Z</time>
      </trkpt>
      <trkpt lat="44.24398" lon="6.09064">
        <ele>1207.8</ele>
        <time>2020-09-18T11:11:12Z</time>
      </trkpt>
      <trkpt lat="44.24399" lon="6.0906">
        <ele>1208.7</ele>
        <time>2020-09-18T11:11:13Z</time>
      </trkpt>
      <trkpt lat="44.244" lon="6.09056">
        <ele>1209.7</ele>
        <time>2020-09-18T11:11:14Z</time>
      </trkpt>
      <trkpt lat="44.24407" lon="6.09035">
        <ele>1215.3</ele>
        <time>2020-09-18T11:11:18Z</time>
      </trkpt>
      <trkpt lat="44.24418" lon="6.09009">
        <ele>1224.9</ele>
        <time>2020-09-18T11:11:22Z</time>
      </trkpt>
      <trkpt lat="44.24421" lon="6.09002">
        <ele>1226.3</ele>
        <time>2020-09-18T11:11:23Z</time>
      </trkpt>
      <trkpt lat="44.24423" lon="6.08995">
        <ele>1227.1</ele>
        <time>2020-09-18T11:11:24Z</time>
      </trkpt>
      <trkpt lat="44.24424" lon="6.08989">
        <ele>1227.4</ele>
        <time>2020-09-18T11:11:25Z</time>
      </trkpt>
      <trkpt lat="44.24425" lon="6.08982">
        <ele>1227.1</ele>
        <time>2020-09-18T11:11:26Z</time>
      </trkpt>
      <trkpt lat="44.24426" lon="6.08975">
        <ele>1227</ele>
        <time>2020-09-18T11:11:27Z</time>
      </trkpt>
      <trkpt lat="44.24427" lon="6.08966">
        <ele>1226.4</ele>
        <time>2020-09-18T11:11:28Z</time>
      </trkpt>
      <trkpt lat="44.24427" lon="6.08957">
        <ele>1225.4</ele>
        <time>2020-09-18T11:11:29Z</time>
      </trkpt>
      <trkpt lat="44.2443" lon="6.08921">
        <ele>1223.2</ele>
        <time>2020-09-18T11:11:33Z</time>
      </trkpt>
      <trkpt lat="44.24441" lon="6.08869">
        <ele>1219.6</ele>
        <time>2020-09-18T11:11:39Z</time>
      </trkpt>
      <trkpt lat="44.24445" lon="6.08861">
        <ele>1220.3</ele>
        <time>2020-09-18T11:11:40Z</time>
      </trkpt>
      <trkpt lat="44.24465" lon="6.08825">
        <ele>1227.9</ele>
        <time>2020-09-18T11:11:45Z</time>
      </trkpt>
      <trkpt lat="44.24467" lon="6.08818">
        <ele>1229.6</ele>
        <time>2020-09-18T11:11:46Z</time>
      </trkpt>
      <trkpt lat="44.24469" lon="6.0881">
        <ele>1230.9</ele>
        <time>2020-09-18T11:11:47Z</time>
      </trkpt>
      <trkpt lat="44.2447" lon="6.08802">
        <ele>1231.7</ele>
        <time>2020-09-18T11:11:48Z</time>
      </trkpt>
      <trkpt lat="44.24475" lon="6.08768">
        <ele>1235</ele>
        <time>2020-09-18T11:11:53Z</time>
      </trkpt>
      <trkpt lat="44.24473" lon="6.08761">
        <ele>1233.5</ele>
        <time>2020-09-18T11:11:54Z</time>
      </trkpt>
      <trkpt lat="44.2447" lon="6.08754">
        <ele>1231.1</ele>
        <time>2020-09-18T11:11:55Z</time>
      </trkpt>
      <trkpt lat="44.24444" lon="6.08664">
        <ele>1217.1</ele>
        <time>2020-09-18T11:12:03Z</time>
      </trkpt>
      <trkpt lat="44.24437" lon="6.08642">
        <ele>1214.4</ele>
        <time>2020-09-18T11:12:05Z</time>
      </trkpt>
      <trkpt lat="44.24433" lon="6.08632">
        <ele>1212.3</ele>
        <time>2020-09-18T11:12:06Z</time>
      </trkpt>
      <trkpt lat="44.24428" lon="6.08623">
        <ele>1209.9</ele>
        <time>2020-09-18T11:12:07Z</time>
      </trkpt>
      <trkpt lat="44.24424" lon="6.08614">
        <ele>1207.9</ele>
        <time>2020-09-18T11:12:08Z</time>
      </trkpt>
      <trkpt lat="44.24418" lon="6.08604">
        <ele>1205.5</ele>
        <time>2020-09-18T11:12:09Z</time>
      </trkpt>
      <trkpt lat="44.24415" lon="6.08593">
        <ele>1204.2</ele>
        <time>2020-09-18T11:12:10Z</time>
      </trkpt>
      <trkpt lat="44.24412" lon="6.08583">
        <ele>1203.3</ele>
        <time>2020-09-18T11:12:11Z</time>
      </trkpt>
      <trkpt lat="44.2441" lon="6.08572">
        <ele>1202.8</ele>
        <time>2020-09-18T11:12:12Z</time>
      </trkpt>
      <trkpt lat="44.24409" lon="6.08562">
        <ele>1202.6</ele>
        <time>2020-09-18T11:12:13Z</time>
      </trkpt>
      <trkpt lat="44.2441" lon="6.08553">
        <ele>1202.8</ele>
        <time>2020-09-18T11:12:14Z</time>
      </trkpt>
      <trkpt lat="44.24411" lon="6.08544">
        <ele>1203.6</ele>
        <time>2020-09-18T11:12:15Z</time>
      </trkpt>
      <trkpt lat="44.24426" lon="6.08475">
        <ele>1215.4</ele>
        <time>2020-09-18T11:12:23Z</time>
      </trkpt>
      <trkpt lat="44.24426" lon="6.08467">
        <ele>1216</ele>
        <time>2020-09-18T11:12:24Z</time>
      </trkpt>
      <trkpt lat="44.24425" lon="6.0846">
        <ele>1216.3</ele>
        <time>2020-09-18T11:12:25Z</time>
      </trkpt>
      <trkpt lat="44.24424" lon="6.08453">
        <ele>1216.2</ele>
        <time>2020-09-18T11:12:26Z</time>
      </trkpt>
      <trkpt lat="44.24422" lon="6.08447">
        <ele>1215.7</ele>
        <time>2020-09-18T11:12:27Z</time>
      </trkpt>
      <trkpt lat="44.2442" lon="6.08441">
        <ele>1214.9</ele>
        <time>2020-09-18T11:12:28Z</time>
      </trkpt>
      <trkpt lat="44.24418" lon="6.08436">
        <ele>1214</ele>
        <time>2020-09-18T11:12:29Z</time>
      </trkpt>
      <trkpt lat="44.24391" lon="6.08372">
        <ele>1213.8</ele>
        <time>2020-09-18T11:12:44Z</time>
      </trkpt>
      <trkpt lat="44.24352" lon="6.08349">
        <ele>1207.1</ele>
        <time>2020-09-18T11:12:58Z</time>
      </trkpt>
      <trkpt lat="44.2432" lon="6.08298">
        <ele>1208.2</ele>
        <time>2020-09-18T11:13:12Z</time>
      </trkpt>
      <trkpt lat="44.24287" lon="6.08269">
        <ele>1203.6</ele>
        <time>2020-09-18T11:13:27Z</time>
      </trkpt>
      <trkpt lat="44.24262" lon="6.08228">
        <ele>1205.9</ele>
        <time>2020-09-18T11:13:42Z</time>
      </trkpt>
      <trkpt lat="44.24243" lon="6.08167">
        <ele>1215.5</ele>
        <time>2020-09-18T11:13:58Z</time>
      </trkpt>
      <trkpt lat="44.2422" lon="6.0816">
        <ele>1207.3</ele>
        <time>2020-09-18T11:14:07Z</time>
      </trkpt>
      <trkpt lat="44.24219" lon="6.08158">
        <ele>1206.9</ele>
        <time>2020-09-18T11:14:12Z</time>
      </trkpt>
      <trkpt lat="44.24211" lon="6.08158">
        <ele>1204.3</ele>
        <time>2020-09-18T11:14:22Z</time>
      </trkpt>
      <trkpt lat="44.24182" lon="6.08171">
        <ele>1193.2</ele>
        <time>2020-09-18T11:14:34Z</time>
      </trkpt>
      <trkpt lat="44.24177" lon="6.08167">
        <ele>1192.5</ele>
        <time>2020-09-18T11:14:41Z</time>
      </trkpt>
      <trkpt lat="44.24175" lon="6.08159">
        <ele>1191.4</ele>
        <time>2020-09-18T11:15:58Z</time>
      </trkpt>
      <trkpt lat="44.24175" lon="6.08155">
        <ele>1191.4</ele>
        <time>2020-09-18T11:15:59Z</time>
      </trkpt>
      <trkpt lat="44.24176" lon="6.0815">
        <ele>1191.5</ele>
        <time>2020-09-18T11:16:00Z</time>
      </trkpt>
      <trkpt lat="44.24177" lon="6.08146">
        <ele>1191.7</ele>
        <time>2020-09-18T11:16:01Z</time>
      </trkpt>
      <trkpt lat="44.24188" lon="6.08093">
        <ele>1193</ele>
        <time>2020-09-18T11:16:09Z</time>
      </trkpt>
      <trkpt lat="44.24191" lon="6.08086">
        <ele>1194</ele>
        <time>2020-09-18T11:16:10Z</time>
      </trkpt>
      <trkpt lat="44.24195" lon="6.0808">
        <ele>1195.2</ele>
        <time>2020-09-18T11:16:11Z</time>
      </trkpt>
      <trkpt lat="44.24238" lon="6.08027">
        <ele>1207.3</ele>
        <time>2020-09-18T11:16:21Z</time>
      </trkpt>
      <trkpt lat="44.2424" lon="6.08021">
        <ele>1207.8</ele>
        <time>2020-09-18T11:16:22Z</time>
      </trkpt>
      <trkpt lat="44.24242" lon="6.08014">
        <ele>1207.8</ele>
        <time>2020-09-18T11:16:23Z</time>
      </trkpt>
      <trkpt lat="44.24242" lon="6.08007">
        <ele>1207.2</ele>
        <time>2020-09-18T11:16:24Z</time>
      </trkpt>
      <trkpt lat="44.24241" lon="6.08">
        <ele>1206.1</ele>
        <time>2020-09-18T11:16:25Z</time>
      </trkpt>
      <trkpt lat="44.24239" lon="6.07992">
        <ele>1205.7</ele>
        <time>2020-09-18T11:16:26Z</time>
      </trkpt>
      <trkpt lat="44.24237" lon="6.07985">
        <ele>1205.2</ele>
        <time>2020-09-18T11:16:27Z</time>
      </trkpt>
      <trkpt lat="44.24234" lon="6.07978">
        <ele>1204.3</ele>
        <time>2020-09-18T11:16:28Z</time>
      </trkpt>
      <trkpt lat="44.24229" lon="6.07971">
        <ele>1203.2</ele>
        <time>2020-09-18T11:16:29Z</time>
      </trkpt>
      <trkpt lat="44.24225" lon="6.07965">
        <ele>1202</ele>
        <time>2020-09-18T11:16:30Z</time>
      </trkpt>
      <trkpt lat="44.24219" lon="6.07959">
        <ele>1200.6</ele>
        <time>2020-09-18T11:16:31Z</time>
      </trkpt>
      <trkpt lat="44.24214" lon="6.07954">
        <ele>1199.1</ele>
        <time>2020-09-18T11:16:32Z</time>
      </trkpt>
      <trkpt lat="44.24208" lon="6.07949">
        <ele>1197.7</ele>
        <time>2020-09-18T11:16:33Z</time>
      </trkpt>
      <trkpt lat="44.24167" lon="6.07921">
        <ele>1189.2</ele>
        <time>2020-09-18T11:16:41Z</time>
      </trkpt>
      <trkpt lat="44.2416" lon="6.0789">
        <ele>1185.8</ele>
        <time>2020-09-18T11:16:48Z</time>
      </trkpt>
      <trkpt lat="44.24162" lon="6.07884">
        <ele>1185.7</ele>
        <time>2020-09-18T11:16:49Z</time>
      </trkpt>
      <trkpt lat="44.24187" lon="6.07802">
        <ele>1186.7</ele>
        <time>2020-09-18T11:16:59Z</time>
      </trkpt>
      <trkpt lat="44.24194" lon="6.07673">
        <ele>1180.9</ele>
        <time>2020-09-18T11:17:09Z</time>
      </trkpt>
      <trkpt lat="44.24205" lon="6.07595">
        <ele>1176.3</ele>
        <time>2020-09-18T11:17:15Z</time>
      </trkpt>
      <trkpt lat="44.24208" lon="6.07543">
        <ele>1173.3</ele>
        <time>2020-09-18T11:17:19Z</time>
      </trkpt>
      <trkpt lat="44.24209" lon="6.0747">
        <ele>1170.4</ele>
        <time>2020-09-18T11:17:25Z</time>
      </trkpt>
      <trkpt lat="44.24212" lon="6.07419">
        <ele>1171</ele>
        <time>2020-09-18T11:17:29Z</time>
      </trkpt>
      <trkpt lat="44.24213" lon="6.07381">
        <ele>1169.3</ele>
        <time>2020-09-18T11:17:32Z</time>
      </trkpt>
      <trkpt lat="44.24214" lon="6.07353">
        <ele>1168</ele>
        <time>2020-09-18T11:17:34Z</time>
      </trkpt>
      <trkpt lat="44.24215" lon="6.07269">
        <ele>1162</ele>
        <time>2020-09-18T11:17:40Z</time>
      </trkpt>
      <trkpt lat="44.24213" lon="6.07255">
        <ele>1160.5</ele>
        <time>2020-09-18T11:17:41Z</time>
      </trkpt>
      <trkpt lat="44.24211" lon="6.07241">
        <ele>1159.3</ele>
        <time>2020-09-18T11:17:42Z</time>
      </trkpt>
      <trkpt lat="44.24207" lon="6.07228">
        <ele>1158.3</ele>
        <time>2020-09-18T11:17:43Z</time>
      </trkpt>
      <trkpt lat="44.24186" lon="6.07171">
        <ele>1152.6</ele>
        <time>2020-09-18T11:17:49Z</time>
      </trkpt>
      <trkpt lat="44.24178" lon="6.07145">
        <ele>1150.9</ele>
        <time>2020-09-18T11:17:52Z</time>
      </trkpt>
      <trkpt lat="44.24171" lon="6.07087">
        <ele>1150.1</ele>
        <time>2020-09-18T11:17:58Z</time>
      </trkpt>
      <trkpt lat="44.24172" lon="6.07078">
        <ele>1150.2</ele>
        <time>2020-09-18T11:17:59Z</time>
      </trkpt>
      <trkpt lat="44.24201" lon="6.06944">
        <ele>1150.4</ele>
        <time>2020-09-18T11:18:14Z</time>
      </trkpt>
      <trkpt lat="44.24218" lon="6.06881">
        <ele>1149.4</ele>
        <time>2020-09-18T11:18:23Z</time>
      </trkpt>
      <trkpt lat="44.24258" lon="6.06827">
        <ele>1153.1</ele>
        <time>2020-09-18T11:18:37Z</time>
      </trkpt>
      <trkpt lat="44.24279" lon="6.06764">
        <ele>1153.1</ele>
        <time>2020-09-18T11:18:52Z</time>
      </trkpt>
      <trkpt lat="44.24279" lon="6.06731">
        <ele>1151.8</ele>
        <time>2020-09-18T11:19:05Z</time>
      </trkpt>
      <trkpt lat="44.2428" lon="6.06723">
        <ele>1151.8</ele>
        <time>2020-09-18T11:19:30Z</time>
      </trkpt>
      <trkpt lat="44.24283" lon="6.06647">
        <ele>1151.3</ele>
        <time>2020-09-18T11:19:47Z</time>
      </trkpt>
      <trkpt lat="44.24286" lon="6.0661">
        <ele>1151.9</ele>
        <time>2020-09-18T11:20:01Z</time>
      </trkpt>
      <trkpt lat="44.24288" lon="6.06601">
        <ele>1152.3</ele>
        <time>2020-09-18T11:20:11Z</time>
      </trkpt>
      <trkpt lat="44.24292" lon="6.06555">
        <ele>1153.1</ele>
        <time>2020-09-18T11:20:23Z</time>
      </trkpt>
      <trkpt lat="44.24294" lon="6.06531">
        <ele>1153.4</ele>
        <time>2020-09-18T11:20:35Z</time>
      </trkpt>
      <trkpt lat="44.24297" lon="6.06521">
        <ele>1153.8</ele>
        <time>2020-09-18T11:22:29Z</time>
      </trkpt>
      <trkpt lat="44.24298" lon="6.06517">
        <ele>1154</ele>
        <time>2020-09-18T11:22:30Z</time>
      </trkpt>
      <trkpt lat="44.24299" lon="6.06512">
        <ele>1154.2</ele>
        <time>2020-09-18T11:22:31Z</time>
      </trkpt>
      <trkpt lat="44.24323" lon="6.06422">
        <ele>1149.2</ele>
        <time>2020-09-18T11:22:43Z</time>
      </trkpt>
      <trkpt lat="44.24327" lon="6.06342">
        <ele>1143.8</ele>
        <time>2020-09-18T11:22:51Z</time>
      </trkpt>
      <trkpt lat="44.24345" lon="6.06265">
        <ele>1140.7</ele>
        <time>2020-09-18T11:22:59Z</time>
      </trkpt>
      <trkpt lat="44.2436" lon="6.0623">
        <ele>1140.9</ele>
        <time>2020-09-18T11:23:03Z</time>
      </trkpt>
      <trkpt lat="44.24363" lon="6.06222">
        <ele>1141</ele>
        <time>2020-09-18T11:23:04Z</time>
      </trkpt>
      <trkpt lat="44.24365" lon="6.06215">
        <ele>1141.1</ele>
        <time>2020-09-18T11:23:05Z</time>
      </trkpt>
      <trkpt lat="44.24367" lon="6.06207">
        <ele>1141.1</ele>
        <time>2020-09-18T11:23:06Z</time>
      </trkpt>
      <trkpt lat="44.24368" lon="6.06198">
        <ele>1141</ele>
        <time>2020-09-18T11:23:07Z</time>
      </trkpt>
      <trkpt lat="44.24368" lon="6.06189">
        <ele>1140.7</ele>
        <time>2020-09-18T11:23:08Z</time>
      </trkpt>
      <trkpt lat="44.24368" lon="6.0618">
        <ele>1140.4</ele>
        <time>2020-09-18T11:23:09Z</time>
      </trkpt>
      <trkpt lat="44.24368" lon="6.0617">
        <ele>1140.1</ele>
        <time>2020-09-18T11:23:10Z</time>
      </trkpt>
      <trkpt lat="44.24367" lon="6.0616">
        <ele>1139.5</ele>
        <time>2020-09-18T11:23:11Z</time>
      </trkpt>
      <trkpt lat="44.24355" lon="6.0609">
        <ele>1134.5</ele>
        <time>2020-09-18T11:23:18Z</time>
      </trkpt>
      <trkpt lat="44.24355" lon="6.05988">
        <ele>1128.6</ele>
        <time>2020-09-18T11:23:28Z</time>
      </trkpt>
      <trkpt lat="44.24367" lon="6.05917">
        <ele>1125.6</ele>
        <time>2020-09-18T11:23:37Z</time>
      </trkpt>
      <trkpt lat="44.24387" lon="6.05858">
        <ele>1123.3</ele>
        <time>2020-09-18T11:23:45Z</time>
      </trkpt>
      <trkpt lat="44.24409" lon="6.05824">
        <ele>1122.5</ele>
        <time>2020-09-18T11:23:52Z</time>
      </trkpt>
      <trkpt lat="44.24428" lon="6.05791">
        <ele>1122.1</ele>
        <time>2020-09-18T11:24:01Z</time>
      </trkpt>
      <trkpt lat="44.24435" lon="6.05775">
        <ele>1122.1</ele>
        <time>2020-09-18T11:24:07Z</time>
      </trkpt>
      <trkpt lat="44.24446" lon="6.05732">
        <ele>1122.3</ele>
        <time>2020-09-18T11:24:18Z</time>
      </trkpt>
      <trkpt lat="44.24465" lon="6.05697">
        <ele>1125</ele>
        <time>2020-09-18T11:24:29Z</time>
      </trkpt>
      <trkpt lat="44.24474" lon="6.05679">
        <ele>1126.4</ele>
        <time>2020-09-18T11:24:35Z</time>
      </trkpt>
      <trkpt lat="44.24485" lon="6.05648">
        <ele>1127.2</ele>
        <time>2020-09-18T11:24:43Z</time>
      </trkpt>
      <trkpt lat="44.24505" lon="6.0559">
        <ele>1127.6</ele>
        <time>2020-09-18T11:24:54Z</time>
      </trkpt>
      <trkpt lat="44.24516" lon="6.05545">
        <ele>1130.3</ele>
        <time>2020-09-18T11:25:03Z</time>
      </trkpt>
      <trkpt lat="44.24521" lon="6.05479">
        <ele>1131.2</ele>
        <time>2020-09-18T11:25:16Z</time>
      </trkpt>
      <trkpt lat="44.24531" lon="6.05436">
        <ele>1131.4</ele>
        <time>2020-09-18T11:25:27Z</time>
      </trkpt>
      <trkpt lat="44.2454" lon="6.05398">
        <ele>1130.9</ele>
        <time>2020-09-18T11:25:40Z</time>
      </trkpt>
      <trkpt lat="44.24547" lon="6.05374">
        <ele>1130.6</ele>
        <time>2020-09-18T11:25:47Z</time>
      </trkpt>
      <trkpt lat="44.2455" lon="6.05373">
        <ele>1131</ele>
        <time>2020-09-18T11:25:48Z</time>
      </trkpt>
      <trkpt lat="44.24552" lon="6.05371">
        <ele>1131.4</ele>
        <time>2020-09-18T11:25:49Z</time>
      </trkpt>
      <trkpt lat="44.24555" lon="6.05371">
        <ele>1131.8</ele>
        <time>2020-09-18T11:25:50Z</time>
      </trkpt>
      <trkpt lat="44.24558" lon="6.05372">
        <ele>1132.3</ele>
        <time>2020-09-18T11:25:51Z</time>
      </trkpt>
      <trkpt lat="44.2456" lon="6.05372">
        <ele>1132.7</ele>
        <time>2020-09-18T11:25:52Z</time>
      </trkpt>
      <trkpt lat="44.24578" lon="6.05374">
        <ele>1136</ele>
        <time>2020-09-18T11:26:00Z</time>
      </trkpt>
      <trkpt lat="44.24581" lon="6.05372">
        <ele>1136.3</ele>
        <time>2020-09-18T11:26:01Z</time>
      </trkpt>
      <trkpt lat="44.24583" lon="6.05369">
        <ele>1136.5</ele>
        <time>2020-09-18T11:26:02Z</time>
      </trkpt>
      <trkpt lat="44.24584" lon="6.05367">
        <ele>1136.6</ele>
        <time>2020-09-18T11:26:03Z</time>
      </trkpt>
      <trkpt lat="44.24586" lon="6.05364">
        <ele>1136.8</ele>
        <time>2020-09-18T11:26:04Z</time>
      </trkpt>
      <trkpt lat="44.24589" lon="6.05362">
        <ele>1137.1</ele>
        <time>2020-09-18T11:26:05Z</time>
      </trkpt>
      <trkpt lat="44.24591" lon="6.05361">
        <ele>1137.4</ele>
        <time>2020-09-18T11:26:06Z</time>
      </trkpt>
      <trkpt lat="44.24606" lon="6.05354">
        <ele>1139.8</ele>
        <time>2020-09-18T11:26:12Z</time>
      </trkpt>
      <trkpt lat="44.24625" lon="6.05358">
        <ele>1143.5</ele>
        <time>2020-09-18T11:26:20Z</time>
      </trkpt>
      <trkpt lat="44.24638" lon="6.05363">
        <ele>1146.1</ele>
        <time>2020-09-18T11:26:26Z</time>
      </trkpt>
      <trkpt lat="44.24648" lon="6.05379">
        <ele>1148.4</ele>
        <time>2020-09-18T11:26:33Z</time>
      </trkpt>
      <trkpt lat="44.24674" lon="6.0539">
        <ele>1153</ele>
        <time>2020-09-18T11:26:45Z</time>
      </trkpt>
      <trkpt lat="44.247" lon="6.05399">
        <ele>1157.8</ele>
        <time>2020-09-18T11:26:58Z</time>
      </trkpt>
      <trkpt lat="44.24723" lon="6.05407">
        <ele>1162</ele>
        <time>2020-09-18T11:27:10Z</time>
      </trkpt>
      <trkpt lat="44.24741" lon="6.0541">
        <ele>1165.3</ele>
        <time>2020-09-18T11:27:19Z</time>
      </trkpt>
      <trkpt lat="44.24762" lon="6.05407">
        <ele>1170.6</ele>
        <time>2020-09-18T11:27:30Z</time>
      </trkpt>
      <trkpt lat="44.2478" lon="6.05384">
        <ele>1175.8</ele>
        <time>2020-09-18T11:27:42Z</time>
      </trkpt>
      <trkpt lat="44.24797" lon="6.05355">
        <ele>1180.6</ele>
        <time>2020-09-18T11:27:55Z</time>
      </trkpt>
      <trkpt lat="44.24815" lon="6.05322">
        <ele>1186.5</ele>
        <time>2020-09-18T11:28:09Z</time>
      </trkpt>
      <trkpt lat="44.24826" lon="6.05296">
        <ele>1190.7</ele>
        <time>2020-09-18T11:28:21Z</time>
      </trkpt>
      <trkpt lat="44.24835" lon="6.05266">
        <ele>1194.2</ele>
        <time>2020-09-18T11:28:33Z</time>
      </trkpt>
      <trkpt lat="44.24836" lon="6.05265">
        <ele>1194.5</ele>
        <time>2020-09-18T11:28:34Z</time>
      </trkpt>
      <trkpt lat="44.24837" lon="6.05264">
        <ele>1194.9</ele>
        <time>2020-09-18T11:28:35Z</time>
      </trkpt>
      <trkpt lat="44.24838" lon="6.05264">
        <ele>1195.3</ele>
        <time>2020-09-18T11:28:36Z</time>
      </trkpt>
      <trkpt lat="44.2484" lon="6.05265">
        <ele>1195.8</ele>
        <time>2020-09-18T11:28:37Z</time>
      </trkpt>
      <trkpt lat="44.24841" lon="6.05266">
        <ele>1196.2</ele>
        <time>2020-09-18T11:28:38Z</time>
      </trkpt>
      <trkpt lat="44.24842" lon="6.05269">
        <ele>1196.5</ele>
        <time>2020-09-18T11:28:39Z</time>
      </trkpt>
      <trkpt lat="44.24843" lon="6.05272">
        <ele>1196.7</ele>
        <time>2020-09-18T11:28:40Z</time>
      </trkpt>
      <trkpt lat="44.24843" lon="6.05274">
        <ele>1196.6</ele>
        <time>2020-09-18T11:28:41Z</time>
      </trkpt>
      <trkpt lat="44.24842" lon="6.05277">
        <ele>1196.5</ele>
        <time>2020-09-18T11:28:42Z</time>
      </trkpt>
      <trkpt lat="44.24842" lon="6.0528">
        <ele>1196.4</ele>
        <time>2020-09-18T11:28:43Z</time>
      </trkpt>
      <trkpt lat="44.24839" lon="6.0532">
        <ele>1194.3</ele>
        <time>2020-09-18T11:28:57Z</time>
      </trkpt>
      <trkpt lat="44.2484" lon="6.05359">
        <ele>1194.9</ele>
        <time>2020-09-18T11:29:13Z</time>
      </trkpt>
      <trkpt lat="44.2484" lon="6.05402">
        <ele>1195.8</ele>
        <time>2020-09-18T11:29:29Z</time>
      </trkpt>
      <trkpt lat="44.24846" lon="6.05459">
        <ele>1202.1</ele>
        <time>2020-09-18T11:29:49Z</time>
      </trkpt>
      <trkpt lat="44.24849" lon="6.055">
        <ele>1206.8</ele>
        <time>2020-09-18T11:30:05Z</time>
      </trkpt>
      <trkpt lat="44.24851" lon="6.05501">
        <ele>1208.1</ele>
        <time>2020-09-18T11:30:06Z</time>
      </trkpt>
      <trkpt lat="44.24853" lon="6.05501">
        <ele>1209.5</ele>
        <time>2020-09-18T11:30:07Z</time>
      </trkpt>
      <trkpt lat="44.24855" lon="6.055">
        <ele>1210.6</ele>
        <time>2020-09-18T11:30:08Z</time>
      </trkpt>
      <trkpt lat="44.24857" lon="6.05499">
        <ele>1211.7</ele>
        <time>2020-09-18T11:30:09Z</time>
      </trkpt>
      <trkpt lat="44.24858" lon="6.05497">
        <ele>1212.5</ele>
        <time>2020-09-18T11:30:10Z</time>
      </trkpt>
      <trkpt lat="44.24859" lon="6.05494">
        <ele>1213</ele>
        <time>2020-09-18T11:30:11Z</time>
      </trkpt>
      <trkpt lat="44.2486" lon="6.05491">
        <ele>1213.2</ele>
        <time>2020-09-18T11:30:12Z</time>
      </trkpt>
      <trkpt lat="44.24868" lon="6.05452">
        <ele>1215</ele>
        <time>2020-09-18T11:30:27Z</time>
      </trkpt>
      <trkpt lat="44.24876" lon="6.05411">
        <ele>1216.5</ele>
        <time>2020-09-18T11:30:42Z</time>
      </trkpt>
      <trkpt lat="44.24884" lon="6.05384">
        <ele>1219.5</ele>
        <time>2020-09-18T11:30:53Z</time>
      </trkpt>
      <trkpt lat="44.24893" lon="6.05353">
        <ele>1222.1</ele>
        <time>2020-09-18T11:31:05Z</time>
      </trkpt>
      <trkpt lat="44.24901" lon="6.05312">
        <ele>1222.6</ele>
        <time>2020-09-18T11:31:21Z</time>
      </trkpt>
      <trkpt lat="44.249" lon="6.05275">
        <ele>1218.8</ele>
        <time>2020-09-18T11:31:34Z</time>
      </trkpt>
      <trkpt lat="44.24899" lon="6.05266">
        <ele>1217.3</ele>
        <time>2020-09-18T11:31:42Z</time>
      </trkpt>
      <trkpt lat="44.24892" lon="6.0525">
        <ele>1213.9</ele>
        <time>2020-09-18T11:33:42Z</time>
      </trkpt>
      <trkpt lat="44.24892" lon="6.05248">
        <ele>1213.7</ele>
        <time>2020-09-18T11:33:43Z</time>
      </trkpt>
      <trkpt lat="44.24892" lon="6.05245">
        <ele>1213.7</ele>
        <time>2020-09-18T11:33:44Z</time>
      </trkpt>
      <trkpt lat="44.24899" lon="6.05213">
        <ele>1214.7</ele>
        <time>2020-09-18T11:33:58Z</time>
      </trkpt>
      <trkpt lat="44.24899" lon="6.05213">
        <ele>1214.6</ele>
        <time>2020-09-18T11:34:01Z</time>
      </trkpt>
      <trkpt lat="44.24897" lon="6.05205">
        <ele>1213.9</ele>
        <time>2020-09-18T11:34:23Z</time>
      </trkpt>
      <trkpt lat="44.24883" lon="6.05148">
        <ele>1212</ele>
        <time>2020-09-18T11:34:39Z</time>
      </trkpt>
      <trkpt lat="44.24892" lon="6.05099">
        <ele>1210.9</ele>
        <time>2020-09-18T11:34:56Z</time>
      </trkpt>
      <trkpt lat="44.24926" lon="6.05092">
        <ele>1205.5</ele>
        <time>2020-09-18T11:35:10Z</time>
      </trkpt>
      <trkpt lat="44.24959" lon="6.05095">
        <ele>1198.7</ele>
        <time>2020-09-18T11:35:25Z</time>
      </trkpt>
      <trkpt lat="44.24971" lon="6.05118">
        <ele>1200</ele>
        <time>2020-09-18T11:35:36Z</time>
      </trkpt>
      <trkpt lat="44.2498" lon="6.05149">
        <ele>1203.9</ele>
        <time>2020-09-18T11:35:47Z</time>
      </trkpt>
      <trkpt lat="44.2498" lon="6.05151">
        <ele>1204.2</ele>
        <time>2020-09-18T11:35:52Z</time>
      </trkpt>
      <trkpt lat="44.24984" lon="6.05153">
        <ele>1204.2</ele>
        <time>2020-09-18T11:36:23Z</time>
      </trkpt>
      <trkpt lat="44.24986" lon="6.05156">
        <ele>1204.3</ele>
        <time>2020-09-18T11:36:24Z</time>
      </trkpt>
      <trkpt lat="44.24989" lon="6.05157">
        <ele>1204.3</ele>
        <time>2020-09-18T11:36:25Z</time>
      </trkpt>
      <trkpt lat="44.24992" lon="6.05158">
        <ele>1204.2</ele>
        <time>2020-09-18T11:36:26Z</time>
      </trkpt>
      <trkpt lat="44.25023" lon="6.05168">
        <ele>1199.9</ele>
        <time>2020-09-18T11:36:37Z</time>
      </trkpt>
      <trkpt lat="44.25045" lon="6.05168">
        <ele>1195.3</ele>
        <time>2020-09-18T11:36:45Z</time>
      </trkpt>
      <trkpt lat="44.25048" lon="6.05168">
        <ele>1194.6</ele>
        <time>2020-09-18T11:36:46Z</time>
      </trkpt>
      <trkpt lat="44.25071" lon="6.05168">
        <ele>1189.3</ele>
        <time>2020-09-18T11:36:55Z</time>
      </trkpt>
      <trkpt lat="44.25088" lon="6.05173">
        <ele>1186.8</ele>
        <time>2020-09-18T11:37:01Z</time>
      </trkpt>
      <trkpt lat="44.25122" lon="6.05181">
        <ele>1180.7</ele>
        <time>2020-09-18T11:37:13Z</time>
      </trkpt>
      <trkpt lat="44.25142" lon="6.05187">
        <ele>1177.1</ele>
        <time>2020-09-18T11:37:23Z</time>
      </trkpt>
      <trkpt lat="44.25157" lon="6.05208">
        <ele>1176.8</ele>
        <time>2020-09-18T11:37:35Z</time>
      </trkpt>
      <trkpt lat="44.2517" lon="6.05238">
        <ele>1177.6</ele>
        <time>2020-09-18T11:37:45Z</time>
      </trkpt>
      <trkpt lat="44.25185" lon="6.05265">
        <ele>1175.9</ele>
        <time>2020-09-18T11:37:53Z</time>
      </trkpt>
      <trkpt lat="44.25199" lon="6.05286">
        <ele>1173.5</ele>
        <time>2020-09-18T11:38:01Z</time>
      </trkpt>
      <trkpt lat="44.252" lon="6.05289">
        <ele>1173.4</ele>
        <time>2020-09-18T11:38:02Z</time>
      </trkpt>
      <trkpt lat="44.25211" lon="6.05319">
        <ele>1173.5</ele>
        <time>2020-09-18T11:38:13Z</time>
      </trkpt>
      <trkpt lat="44.25215" lon="6.05323">
        <ele>1172.7</ele>
        <time>2020-09-18T11:38:16Z</time>
      </trkpt>
      <trkpt lat="44.25216" lon="6.05324">
        <ele>1172.2</ele>
        <time>2020-09-18T11:38:17Z</time>
      </trkpt>
      <trkpt lat="44.25217" lon="6.05323">
        <ele>1171.7</ele>
        <time>2020-09-18T11:38:18Z</time>
      </trkpt>
      <trkpt lat="44.25218" lon="6.05323">
        <ele>1171.1</ele>
        <time>2020-09-18T11:38:19Z</time>
      </trkpt>
      <trkpt lat="44.25222" lon="6.05317">
        <ele>1168.6</ele>
        <time>2020-09-18T11:38:23Z</time>
      </trkpt>
      <trkpt lat="44.25224" lon="6.05306">
        <ele>1166.1</ele>
        <time>2020-09-18T11:38:28Z</time>
      </trkpt>
      <trkpt lat="44.25223" lon="6.05271">
        <ele>1161.1</ele>
        <time>2020-09-18T11:38:40Z</time>
      </trkpt>
      <trkpt lat="44.25214" lon="6.05245">
        <ele>1160.7</ele>
        <time>2020-09-18T11:38:50Z</time>
      </trkpt>
      <trkpt lat="44.25211" lon="6.05237">
        <ele>1160.7</ele>
        <time>2020-09-18T11:38:58Z</time>
      </trkpt>
      <trkpt lat="44.25212" lon="6.0525">
        <ele>1162.6</ele>
        <time>2020-09-18T11:39:20Z</time>
      </trkpt>
      <trkpt lat="44.25213" lon="6.05253">
        <ele>1162.7</ele>
        <time>2020-09-18T11:39:21Z</time>
      </trkpt>
      <trkpt lat="44.25215" lon="6.05255">
        <ele>1162.1</ele>
        <time>2020-09-18T11:39:22Z</time>
      </trkpt>
      <trkpt lat="44.25217" lon="6.05258">
        <ele>1161.5</ele>
        <time>2020-09-18T11:39:23Z</time>
      </trkpt>
      <trkpt lat="44.25219" lon="6.05259">
        <ele>1161</ele>
        <time>2020-09-18T11:39:24Z</time>
      </trkpt>
      <trkpt lat="44.25241" lon="6.05287">
        <ele>1156</ele>
        <time>2020-09-18T11:39:37Z</time>
      </trkpt>
      <trkpt lat="44.25259" lon="6.05313">
        <ele>1152.6</ele>
        <time>2020-09-18T11:39:49Z</time>
      </trkpt>
      <trkpt lat="44.25259" lon="6.05314">
        <ele>1152.7</ele>
        <time>2020-09-18T11:39:52Z</time>
      </trkpt>
      <trkpt lat="44.25271" lon="6.05332">
        <ele>1150.4</ele>
        <time>2020-09-18T11:43:51Z</time>
      </trkpt>
      <trkpt lat="44.25272" lon="6.05337">
        <ele>1150.9</ele>
        <time>2020-09-18T11:43:52Z</time>
      </trkpt>
      <trkpt lat="44.25291" lon="6.05379">
        <ele>1149.6</ele>
        <time>2020-09-18T11:44:06Z</time>
      </trkpt>
      <trkpt lat="44.25309" lon="6.05409">
        <ele>1145.6</ele>
        <time>2020-09-18T11:44:19Z</time>
      </trkpt>
      <trkpt lat="44.25311" lon="6.05413">
        <ele>1145.2</ele>
        <time>2020-09-18T11:44:21Z</time>
      </trkpt>
      <trkpt lat="44.25312" lon="6.05415">
        <ele>1145</ele>
        <time>2020-09-18T11:44:22Z</time>
      </trkpt>
      <trkpt lat="44.25313" lon="6.05417">
        <ele>1144.8</ele>
        <time>2020-09-18T11:44:23Z</time>
      </trkpt>
      <trkpt lat="44.25314" lon="6.05421">
        <ele>1144.6</ele>
        <time>2020-09-18T11:44:24Z</time>
      </trkpt>
      <trkpt lat="44.25316" lon="6.05425">
        <ele>1144.3</ele>
        <time>2020-09-18T11:44:25Z</time>
      </trkpt>
      <trkpt lat="44.25317" lon="6.05427">
        <ele>1143.9</ele>
        <time>2020-09-18T11:44:26Z</time>
      </trkpt>
      <trkpt lat="44.25326" lon="6.05468">
        <ele>1143.5</ele>
        <time>2020-09-18T11:44:37Z</time>
      </trkpt>
      <trkpt lat="44.25324" lon="6.05526">
        <ele>1153.7</ele>
        <time>2020-09-18T11:44:50Z</time>
      </trkpt>
      <trkpt lat="44.25326" lon="6.0553">
        <ele>1153.7</ele>
        <time>2020-09-18T11:44:51Z</time>
      </trkpt>
      <trkpt lat="44.25328" lon="6.05532">
        <ele>1153.3</ele>
        <time>2020-09-18T11:44:52Z</time>
      </trkpt>
      <trkpt lat="44.25332" lon="6.05538">
        <ele>1152.9</ele>
        <time>2020-09-18T11:44:53Z</time>
      </trkpt>
      <trkpt lat="44.25335" lon="6.05542">
        <ele>1153.5</ele>
        <time>2020-09-18T11:44:54Z</time>
      </trkpt>
      <trkpt lat="44.25338" lon="6.05544">
        <ele>1153.6</ele>
        <time>2020-09-18T11:44:55Z</time>
      </trkpt>
      <trkpt lat="44.25341" lon="6.05544">
        <ele>1153.5</ele>
        <time>2020-09-18T11:44:56Z</time>
      </trkpt>
      <trkpt lat="44.25344" lon="6.05544">
        <ele>1153.2</ele>
        <time>2020-09-18T11:44:57Z</time>
      </trkpt>
      <trkpt lat="44.25364" lon="6.05534">
        <ele>1149.1</ele>
        <time>2020-09-18T11:45:10Z</time>
      </trkpt>
      <trkpt lat="44.25383" lon="6.05505">
        <ele>1140.8</ele>
        <time>2020-09-18T11:45:21Z</time>
      </trkpt>
      <trkpt lat="44.25395" lon="6.05477">
        <ele>1134.7</ele>
        <time>2020-09-18T11:45:25Z</time>
      </trkpt>
      <trkpt lat="44.25402" lon="6.05436">
        <ele>1126.9</ele>
        <time>2020-09-18T11:45:36Z</time>
      </trkpt>
      <trkpt lat="44.25404" lon="6.05406">
        <ele>1120.7</ele>
        <time>2020-09-18T11:45:46Z</time>
      </trkpt>
      <trkpt lat="44.25417" lon="6.05385">
        <ele>1113.5</ele>
        <time>2020-09-18T11:45:57Z</time>
      </trkpt>
      <trkpt lat="44.25429" lon="6.05382">
        <ele>1112.1</ele>
        <time>2020-09-18T11:46:07Z</time>
      </trkpt>
      <trkpt lat="44.25429" lon="6.05381">
        <ele>1112</ele>
        <time>2020-09-18T11:46:12Z</time>
      </trkpt>
      <trkpt lat="44.25437" lon="6.05379">
        <ele>1111.3</ele>
        <time>2020-09-18T11:47:29Z</time>
      </trkpt>
      <trkpt lat="44.25438" lon="6.0538">
        <ele>1111.3</ele>
        <time>2020-09-18T11:47:30Z</time>
      </trkpt>
      <trkpt lat="44.2544" lon="6.05379">
        <ele>1111.1</ele>
        <time>2020-09-18T11:47:31Z</time>
      </trkpt>
      <trkpt lat="44.25442" lon="6.05379">
        <ele>1111.1</ele>
        <time>2020-09-18T11:47:32Z</time>
      </trkpt>
      <trkpt lat="44.25467" lon="6.05381">
        <ele>1110.7</ele>
        <time>2020-09-18T11:47:45Z</time>
      </trkpt>
      <trkpt lat="44.25484" lon="6.05375">
        <ele>1108.3</ele>
        <time>2020-09-18T11:47:53Z</time>
      </trkpt>
      <trkpt lat="44.25503" lon="6.05367">
        <ele>1105</ele>
        <time>2020-09-18T11:48:02Z</time>
      </trkpt>
      <trkpt lat="44.25524" lon="6.05363">
        <ele>1104.1</ele>
        <time>2020-09-18T11:48:12Z</time>
      </trkpt>
      <trkpt lat="44.25532" lon="6.05357">
        <ele>1102.3</ele>
        <time>2020-09-18T11:48:16Z</time>
      </trkpt>
      <trkpt lat="44.25534" lon="6.05355">
        <ele>1101.9</ele>
        <time>2020-09-18T11:48:17Z</time>
      </trkpt>
      <trkpt lat="44.25535" lon="6.05353">
        <ele>1101.4</ele>
        <time>2020-09-18T11:48:18Z</time>
      </trkpt>
      <trkpt lat="44.25537" lon="6.05352">
        <ele>1101</ele>
        <time>2020-09-18T11:48:19Z</time>
      </trkpt>
      <trkpt lat="44.25539" lon="6.05351">
        <ele>1100.8</ele>
        <time>2020-09-18T11:48:20Z</time>
      </trkpt>
      <trkpt lat="44.25541" lon="6.0535">
        <ele>1100.5</ele>
        <time>2020-09-18T11:48:21Z</time>
      </trkpt>
      <trkpt lat="44.25543" lon="6.05349">
        <ele>1100.3</ele>
        <time>2020-09-18T11:48:22Z</time>
      </trkpt>
      <trkpt lat="44.25566" lon="6.0534">
        <ele>1098.2</ele>
        <time>2020-09-18T11:48:32Z</time>
      </trkpt>
      <trkpt lat="44.25587" lon="6.05327">
        <ele>1094.3</ele>
        <time>2020-09-18T11:48:41Z</time>
      </trkpt>
      <trkpt lat="44.25615" lon="6.05311">
        <ele>1086</ele>
        <time>2020-09-18T11:48:51Z</time>
      </trkpt>
      <trkpt lat="44.2562" lon="6.05305">
        <ele>1083.3</ele>
        <time>2020-09-18T11:48:54Z</time>
      </trkpt>
      <trkpt lat="44.25621" lon="6.05302">
        <ele>1082.3</ele>
        <time>2020-09-18T11:48:55Z</time>
      </trkpt>
      <trkpt lat="44.25622" lon="6.05299">
        <ele>1080.8</ele>
        <time>2020-09-18T11:48:56Z</time>
      </trkpt>
      <trkpt lat="44.25623" lon="6.05296">
        <ele>1079.7</ele>
        <time>2020-09-18T11:48:57Z</time>
      </trkpt>
      <trkpt lat="44.25622" lon="6.05292">
        <ele>1078.6</ele>
        <time>2020-09-18T11:48:58Z</time>
      </trkpt>
      <trkpt lat="44.25622" lon="6.05284">
        <ele>1075.4</ele>
        <time>2020-09-18T11:48:59Z</time>
      </trkpt>
      <trkpt lat="44.25622" lon="6.05283">
        <ele>1074.9</ele>
        <time>2020-09-18T11:49:00Z</time>
      </trkpt>
      <trkpt lat="44.25622" lon="6.05283">
        <ele>1074.9</ele>
        <time>2020-09-18T11:49:01Z</time>
      </trkpt>
      <trkpt lat="44.25622" lon="6.05284">
        <ele>1075.3</ele>
        <time>2020-09-18T11:49:02Z</time>
      </trkpt>
      <trkpt lat="44.2562" lon="6.05285">
        <ele>1075.8</ele>
        <time>2020-09-18T11:49:03Z</time>
      </trkpt>
      <trkpt lat="44.25619" lon="6.05286">
        <ele>1076.4</ele>
        <time>2020-09-18T11:49:04Z</time>
      </trkpt>
      <trkpt lat="44.25593" lon="6.05291">
        <ele>1080.6</ele>
        <time>2020-09-18T11:49:16Z</time>
      </trkpt>
      <trkpt lat="44.2557" lon="6.05284">
        <ele>1079</ele>
        <time>2020-09-18T11:49:26Z</time>
      </trkpt>
      <trkpt lat="44.25545" lon="6.05276">
        <ele>1077</ele>
        <time>2020-09-18T11:49:37Z</time>
      </trkpt>
      <trkpt lat="44.25521" lon="6.05253">
        <ele>1070.6</ele>
        <time>2020-09-18T11:49:50Z</time>
      </trkpt>
      <trkpt lat="44.25504" lon="6.05231">
        <ele>1066.8</ele>
        <time>2020-09-18T11:49:59Z</time>
      </trkpt>
      <trkpt lat="44.25481" lon="6.05195">
        <ele>1062.3</ele>
        <time>2020-09-18T11:50:09Z</time>
      </trkpt>
      <trkpt lat="44.2546" lon="6.05185">
        <ele>1062.8</ele>
        <time>2020-09-18T11:50:24Z</time>
      </trkpt>
      <trkpt lat="44.25459" lon="6.05185">
        <ele>1062.9</ele>
        <time>2020-09-18T11:50:29Z</time>
      </trkpt>
      <trkpt lat="44.25468" lon="6.05177">
        <ele>1060</ele>
        <time>2020-09-18T11:51:33Z</time>
      </trkpt>
      <trkpt lat="44.2547" lon="6.05176">
        <ele>1059.6</ele>
        <time>2020-09-18T11:51:34Z</time>
      </trkpt>
      <trkpt lat="44.25472" lon="6.05175">
        <ele>1059.2</ele>
        <time>2020-09-18T11:51:35Z</time>
      </trkpt>
      <trkpt lat="44.25473" lon="6.05174">
        <ele>1058.7</ele>
        <time>2020-09-18T11:51:36Z</time>
      </trkpt>
      <trkpt lat="44.25475" lon="6.05173">
        <ele>1058.3</ele>
        <time>2020-09-18T11:51:37Z</time>
      </trkpt>
      <trkpt lat="44.25477" lon="6.05172">
        <ele>1058</ele>
        <time>2020-09-18T11:51:38Z</time>
      </trkpt>
      <trkpt lat="44.25478" lon="6.05171">
        <ele>1057.6</ele>
        <time>2020-09-18T11:51:39Z</time>
      </trkpt>
      <trkpt lat="44.25479" lon="6.0517">
        <ele>1057.2</ele>
        <time>2020-09-18T11:51:40Z</time>
      </trkpt>
      <trkpt lat="44.2549" lon="6.0517">
        <ele>1055.9</ele>
        <time>2020-09-18T11:51:46Z</time>
      </trkpt>
      <trkpt lat="44.25491" lon="6.05169">
        <ele>1055.5</ele>
        <time>2020-09-18T11:51:47Z</time>
      </trkpt>
      <trkpt lat="44.25494" lon="6.05167">
        <ele>1054.7</ele>
        <time>2020-09-18T11:51:49Z</time>
      </trkpt>
      <trkpt lat="44.25496" lon="6.05165">
        <ele>1054.1</ele>
        <time>2020-09-18T11:51:50Z</time>
      </trkpt>
      <trkpt lat="44.25496" lon="6.05159">
        <ele>1052.7</ele>
        <time>2020-09-18T11:51:52Z</time>
      </trkpt>
      <trkpt lat="44.25496" lon="6.05157">
        <ele>1052.2</ele>
        <time>2020-09-18T11:51:53Z</time>
      </trkpt>
      <trkpt lat="44.25496" lon="6.05154">
        <ele>1051.7</ele>
        <time>2020-09-18T11:51:54Z</time>
      </trkpt>
      <trkpt lat="44.25495" lon="6.05153">
        <ele>1051.5</ele>
        <time>2020-09-18T11:51:55Z</time>
      </trkpt>
      <trkpt lat="44.25493" lon="6.05151">
        <ele>1051.3</ele>
        <time>2020-09-18T11:51:56Z</time>
      </trkpt>
      <trkpt lat="44.25492" lon="6.0515">
        <ele>1051.2</ele>
        <time>2020-09-18T11:51:57Z</time>
      </trkpt>
      <trkpt lat="44.25491" lon="6.05149">
        <ele>1051.1</ele>
        <time>2020-09-18T11:51:58Z</time>
      </trkpt>
      <trkpt lat="44.25489" lon="6.05148">
        <ele>1051.1</ele>
        <time>2020-09-18T11:51:59Z</time>
      </trkpt>
      <trkpt lat="44.25471" lon="6.05134">
        <ele>1050.4</ele>
        <time>2020-09-18T11:52:13Z</time>
      </trkpt>
      <trkpt lat="44.2547" lon="6.0513">
        <ele>1049.7</ele>
        <time>2020-09-18T11:52:19Z</time>
      </trkpt>
      <trkpt lat="44.25472" lon="6.05131">
        <ele>1049.6</ele>
        <time>2020-09-18T11:52:39Z</time>
      </trkpt>
      <trkpt lat="44.25474" lon="6.05132">
        <ele>1049.5</ele>
        <time>2020-09-18T11:52:40Z</time>
      </trkpt>
      <trkpt lat="44.25509" lon="6.05136">
        <ele>1045.7</ele>
        <time>2020-09-18T11:52:56Z</time>
      </trkpt>
      <trkpt lat="44.25531" lon="6.05142">
        <ele>1043.4</ele>
        <time>2020-09-18T11:53:07Z</time>
      </trkpt>
      <trkpt lat="44.25556" lon="6.05139">
        <ele>1038.8</ele>
        <time>2020-09-18T11:53:18Z</time>
      </trkpt>
      <trkpt lat="44.25581" lon="6.05149">
        <ele>1036.8</ele>
        <time>2020-09-18T11:53:28Z</time>
      </trkpt>
      <trkpt lat="44.25594" lon="6.05151">
        <ele>1035.1</ele>
        <time>2020-09-18T11:53:34Z</time>
      </trkpt>
      <trkpt lat="44.25613" lon="6.05156">
        <ele>1033.1</ele>
        <time>2020-09-18T11:53:42Z</time>
      </trkpt>
      <trkpt lat="44.25633" lon="6.0516">
        <ele>1030.8</ele>
        <time>2020-09-18T11:53:51Z</time>
      </trkpt>
      <trkpt lat="44.25653" lon="6.05165">
        <ele>1028.7</ele>
        <time>2020-09-18T11:54:00Z</time>
      </trkpt>
      <trkpt lat="44.25681" lon="6.05171">
        <ele>1026.8</ele>
        <time>2020-09-18T11:54:12Z</time>
      </trkpt>
      <trkpt lat="44.25708" lon="6.05169">
        <ele>1023.5</ele>
        <time>2020-09-18T11:54:23Z</time>
      </trkpt>
      <trkpt lat="44.25731" lon="6.05169">
        <ele>1020.5</ele>
        <time>2020-09-18T11:54:35Z</time>
      </trkpt>
      <trkpt lat="44.2575" lon="6.05163">
        <ele>1017</ele>
        <time>2020-09-18T11:54:46Z</time>
      </trkpt>
      <trkpt lat="44.2575" lon="6.05164">
        <ele>1017.4</ele>
        <time>2020-09-18T11:54:50Z</time>
      </trkpt>
      <trkpt lat="44.2576" lon="6.05159">
        <ele>1014.7</ele>
        <time>2020-09-18T11:54:59Z</time>
      </trkpt>
      <trkpt lat="44.25762" lon="6.05158">
        <ele>1014.4</ele>
        <time>2020-09-18T11:55:00Z</time>
      </trkpt>
      <trkpt lat="44.25763" lon="6.05157">
        <ele>1014</ele>
        <time>2020-09-18T11:55:01Z</time>
      </trkpt>
      <trkpt lat="44.25793" lon="6.05152">
        <ele>1009.4</ele>
        <time>2020-09-18T11:55:15Z</time>
      </trkpt>
      <trkpt lat="44.25817" lon="6.05146">
        <ele>1005.4</ele>
        <time>2020-09-18T11:55:27Z</time>
      </trkpt>
      <trkpt lat="44.25819" lon="6.05144">
        <ele>1004.7</ele>
        <time>2020-09-18T11:55:28Z</time>
      </trkpt>
      <trkpt lat="44.25821" lon="6.05143">
        <ele>1004.1</ele>
        <time>2020-09-18T11:55:29Z</time>
      </trkpt>
      <trkpt lat="44.25824" lon="6.05141">
        <ele>1003.5</ele>
        <time>2020-09-18T11:55:30Z</time>
      </trkpt>
      <trkpt lat="44.25826" lon="6.0514">
        <ele>1003</ele>
        <time>2020-09-18T11:55:31Z</time>
      </trkpt>
      <trkpt lat="44.25861" lon="6.05121">
        <ele>997.6</ele>
        <time>2020-09-18T11:55:45Z</time>
      </trkpt>
      <trkpt lat="44.25879" lon="6.05102">
        <ele>993.7</ele>
        <time>2020-09-18T11:55:53Z</time>
      </trkpt>
      <trkpt lat="44.25898" lon="6.05076">
        <ele>989</ele>
        <time>2020-09-18T11:56:02Z</time>
      </trkpt>
      <trkpt lat="44.25922" lon="6.0504">
        <ele>983.6</ele>
        <time>2020-09-18T11:56:17Z</time>
      </trkpt>
      <trkpt lat="44.25951" lon="6.05032">
        <ele>979.1</ele>
        <time>2020-09-18T11:56:29Z</time>
      </trkpt>
      <trkpt lat="44.25983" lon="6.0502">
        <ele>973.9</ele>
        <time>2020-09-18T11:56:42Z</time>
      </trkpt>
      <trkpt lat="44.26002" lon="6.05025">
        <ele>971.7</ele>
        <time>2020-09-18T11:56:51Z</time>
      </trkpt>
      <trkpt lat="44.26021" lon="6.05055">
        <ele>969.4</ele>
        <time>2020-09-18T11:57:02Z</time>
      </trkpt>
      <trkpt lat="44.26038" lon="6.0507">
        <ele>966.5</ele>
        <time>2020-09-18T11:57:12Z</time>
      </trkpt>
      <trkpt lat="44.2604" lon="6.05064">
        <ele>965.3</ele>
        <time>2020-09-18T11:57:15Z</time>
      </trkpt>
      <trkpt lat="44.26039" lon="6.05061">
        <ele>965.1</ele>
        <time>2020-09-18T11:57:16Z</time>
      </trkpt>
      <trkpt lat="44.26038" lon="6.05059">
        <ele>965.1</ele>
        <time>2020-09-18T11:57:17Z</time>
      </trkpt>
      <trkpt lat="44.26037" lon="6.05057">
        <ele>965.1</ele>
        <time>2020-09-18T11:57:18Z</time>
      </trkpt>
      <trkpt lat="44.26036" lon="6.05055">
        <ele>965.2</ele>
        <time>2020-09-18T11:57:19Z</time>
      </trkpt>
      <trkpt lat="44.26035" lon="6.05053">
        <ele>965.3</ele>
        <time>2020-09-18T11:57:20Z</time>
      </trkpt>
      <trkpt lat="44.2602" lon="6.05008">
        <ele>964.7</ele>
        <time>2020-09-18T11:57:33Z</time>
      </trkpt>
      <trkpt lat="44.26005" lon="6.04963">
        <ele>965.5</ele>
        <time>2020-09-18T11:57:44Z</time>
      </trkpt>
      <trkpt lat="44.26005" lon="6.04949">
        <ele>964.4</ele>
        <time>2020-09-18T11:57:55Z</time>
      </trkpt>
      <trkpt lat="44.26007" lon="6.04949">
        <ele>963.7</ele>
        <time>2020-09-18T11:58:38Z</time>
      </trkpt>
      <trkpt lat="44.26008" lon="6.0495">
        <ele>963.4</ele>
        <time>2020-09-18T11:58:39Z</time>
      </trkpt>
      <trkpt lat="44.26009" lon="6.04951">
        <ele>963.2</ele>
        <time>2020-09-18T11:58:40Z</time>
      </trkpt>
      <trkpt lat="44.2601" lon="6.04952">
        <ele>963</ele>
        <time>2020-09-18T11:58:41Z</time>
      </trkpt>
      <trkpt lat="44.26012" lon="6.04955">
        <ele>962.7</ele>
        <time>2020-09-18T11:58:43Z</time>
      </trkpt>
      <trkpt lat="44.26029" lon="6.04997">
        <ele>960.6</ele>
        <time>2020-09-18T11:58:58Z</time>
      </trkpt>
      <trkpt lat="44.2606" lon="6.05025">
        <ele>954.6</ele>
        <time>2020-09-18T11:59:13Z</time>
      </trkpt>
      <trkpt lat="44.26083" lon="6.0504">
        <ele>949.8</ele>
        <time>2020-09-18T11:59:26Z</time>
      </trkpt>
      <trkpt lat="44.26086" lon="6.05035">
        <ele>948.6</ele>
        <time>2020-09-18T11:59:33Z</time>
      </trkpt>
      <trkpt lat="44.26079" lon="6.05021">
        <ele>948.2</ele>
        <time>2020-09-18T11:59:41Z</time>
      </trkpt>
      <trkpt lat="44.26054" lon="6.04986">
        <ele>952.2</ele>
        <time>2020-09-18T11:59:54Z</time>
      </trkpt>
      <trkpt lat="44.26048" lon="6.04922">
        <ele>950.1</ele>
        <time>2020-09-18T12:00:07Z</time>
      </trkpt>
      <trkpt lat="44.26057" lon="6.04875">
        <ele>943.4</ele>
        <time>2020-09-18T12:00:19Z</time>
      </trkpt>
      <trkpt lat="44.26063" lon="6.04863">
        <ele>940.7</ele>
        <time>2020-09-18T12:00:30Z</time>
      </trkpt>
      <trkpt lat="44.26065" lon="6.04874">
        <ele>941.2</ele>
        <time>2020-09-18T12:00:50Z</time>
      </trkpt>
      <trkpt lat="44.26065" lon="6.04878">
        <ele>941.4</ele>
        <time>2020-09-18T12:00:51Z</time>
      </trkpt>
      <trkpt lat="44.26066" lon="6.04882">
        <ele>941.6</ele>
        <time>2020-09-18T12:00:52Z</time>
      </trkpt>
      <trkpt lat="44.26066" lon="6.04934">
        <ele>945.6</ele>
        <time>2020-09-18T12:01:05Z</time>
      </trkpt>
      <trkpt lat="44.26082" lon="6.04968">
        <ele>942.9</ele>
        <time>2020-09-18T12:01:16Z</time>
      </trkpt>
      <trkpt lat="44.26111" lon="6.04986">
        <ele>938.5</ele>
        <time>2020-09-18T12:01:29Z</time>
      </trkpt>
      <trkpt lat="44.26132" lon="6.0498">
        <ele>934.5</ele>
        <time>2020-09-18T12:01:40Z</time>
      </trkpt>
      <trkpt lat="44.2615" lon="6.04969">
        <ele>930.8</ele>
        <time>2020-09-18T12:01:48Z</time>
      </trkpt>
      <trkpt lat="44.26169" lon="6.04957">
        <ele>927.1</ele>
        <time>2020-09-18T12:01:58Z</time>
      </trkpt>
      <trkpt lat="44.26184" lon="6.04945">
        <ele>924.3</ele>
        <time>2020-09-18T12:02:05Z</time>
      </trkpt>
      <trkpt lat="44.26207" lon="6.04932">
        <ele>919.4</ele>
        <time>2020-09-18T12:02:15Z</time>
      </trkpt>
      <trkpt lat="44.26215" lon="6.0492">
        <ele>917</ele>
        <time>2020-09-18T12:02:21Z</time>
      </trkpt>
      <trkpt lat="44.26215" lon="6.04917">
        <ele>916.7</ele>
        <time>2020-09-18T12:02:22Z</time>
      </trkpt>
      <trkpt lat="44.26216" lon="6.04915">
        <ele>916.3</ele>
        <time>2020-09-18T12:02:23Z</time>
      </trkpt>
      <trkpt lat="44.26216" lon="6.04912">
        <ele>915.9</ele>
        <time>2020-09-18T12:02:24Z</time>
      </trkpt>
      <trkpt lat="44.26217" lon="6.0491">
        <ele>915.4</ele>
        <time>2020-09-18T12:02:25Z</time>
      </trkpt>
      <trkpt lat="44.2621" lon="6.04875">
        <ele>911.2</ele>
        <time>2020-09-18T12:02:35Z</time>
      </trkpt>
      <trkpt lat="44.2621" lon="6.04873">
        <ele>910.9</ele>
        <time>2020-09-18T12:02:36Z</time>
      </trkpt>
      <trkpt lat="44.2621" lon="6.0487">
        <ele>910.4</ele>
        <time>2020-09-18T12:02:37Z</time>
      </trkpt>
      <trkpt lat="44.26212" lon="6.04857">
        <ele>908.2</ele>
        <time>2020-09-18T12:02:43Z</time>
      </trkpt>
      <trkpt lat="44.26212" lon="6.04857">
        <ele>908.1</ele>
        <time>2020-09-18T12:02:44Z</time>
      </trkpt>
      <trkpt lat="44.26236" lon="6.04851">
        <ele>903.5</ele>
        <time>2020-09-18T12:02:57Z</time>
      </trkpt>
      <trkpt lat="44.26261" lon="6.04853">
        <ele>899.8</ele>
        <time>2020-09-18T12:03:08Z</time>
      </trkpt>
      <trkpt lat="44.26279" lon="6.04841">
        <ele>895.2</ele>
        <time>2020-09-18T12:03:17Z</time>
      </trkpt>
      <trkpt lat="44.26302" lon="6.0482">
        <ele>890.3</ele>
        <time>2020-09-18T12:03:28Z</time>
      </trkpt>
      <trkpt lat="44.26319" lon="6.0482">
        <ele>887.4</ele>
        <time>2020-09-18T12:03:36Z</time>
      </trkpt>
      <trkpt lat="44.26325" lon="6.04836">
        <ele>886.9</ele>
        <time>2020-09-18T12:03:42Z</time>
      </trkpt>
      <trkpt lat="44.26314" lon="6.04875">
        <ele>894.4</ele>
        <time>2020-09-18T12:03:57Z</time>
      </trkpt>
      <trkpt lat="44.26309" lon="6.04898">
        <ele>898.6</ele>
        <time>2020-09-18T12:04:03Z</time>
      </trkpt>
      <trkpt lat="44.26311" lon="6.04902">
        <ele>898.9</ele>
        <time>2020-09-18T12:04:04Z</time>
      </trkpt>
      <trkpt lat="44.26314" lon="6.04904">
        <ele>899</ele>
        <time>2020-09-18T12:04:05Z</time>
      </trkpt>
      <trkpt lat="44.26338" lon="6.04905">
        <ele>896.5</ele>
        <time>2020-09-18T12:04:16Z</time>
      </trkpt>
      <trkpt lat="44.2636" lon="6.04881">
        <ele>892.6</ele>
        <time>2020-09-18T12:04:28Z</time>
      </trkpt>
      <trkpt lat="44.26387" lon="6.04856">
        <ele>885.9</ele>
        <time>2020-09-18T12:04:44Z</time>
      </trkpt>
      <trkpt lat="44.2642" lon="6.04847">
        <ele>881.8</ele>
        <time>2020-09-18T12:04:57Z</time>
      </trkpt>
      <trkpt lat="44.26423" lon="6.04848">
        <ele>881.9</ele>
        <time>2020-09-18T12:04:58Z</time>
      </trkpt>
      <trkpt lat="44.26448" lon="6.04852">
        <ele>883.9</ele>
        <time>2020-09-18T12:05:08Z</time>
      </trkpt>
      <trkpt lat="44.2645" lon="6.04851">
        <ele>883.4</ele>
        <time>2020-09-18T12:05:09Z</time>
      </trkpt>
      <trkpt lat="44.26451" lon="6.04849">
        <ele>882.7</ele>
        <time>2020-09-18T12:05:10Z</time>
      </trkpt>
      <trkpt lat="44.26453" lon="6.04847">
        <ele>881.8</ele>
        <time>2020-09-18T12:05:11Z</time>
      </trkpt>
      <trkpt lat="44.26454" lon="6.04844">
        <ele>880.7</ele>
        <time>2020-09-18T12:05:12Z</time>
      </trkpt>
      <trkpt lat="44.26456" lon="6.04841">
        <ele>879.6</ele>
        <time>2020-09-18T12:05:13Z</time>
      </trkpt>
      <trkpt lat="44.26456" lon="6.04838">
        <ele>878.4</ele>
        <time>2020-09-18T12:05:14Z</time>
      </trkpt>
      <trkpt lat="44.26455" lon="6.04836">
        <ele>877.4</ele>
        <time>2020-09-18T12:05:15Z</time>
      </trkpt>
      <trkpt lat="44.26455" lon="6.04832">
        <ele>876.3</ele>
        <time>2020-09-18T12:05:16Z</time>
      </trkpt>
      <trkpt lat="44.26455" lon="6.0483">
        <ele>876</ele>
        <time>2020-09-18T12:05:17Z</time>
      </trkpt>
      <trkpt lat="44.26454" lon="6.04828">
        <ele>875.7</ele>
        <time>2020-09-18T12:05:18Z</time>
      </trkpt>
      <trkpt lat="44.26452" lon="6.04826">
        <ele>875.6</ele>
        <time>2020-09-18T12:05:19Z</time>
      </trkpt>
      <trkpt lat="44.26451" lon="6.04825">
        <ele>875.5</ele>
        <time>2020-09-18T12:05:20Z</time>
      </trkpt>
      <trkpt lat="44.26448" lon="6.04823">
        <ele>875.3</ele>
        <time>2020-09-18T12:05:21Z</time>
      </trkpt>
      <trkpt lat="44.26446" lon="6.04821">
        <ele>875.1</ele>
        <time>2020-09-18T12:05:22Z</time>
      </trkpt>
      <trkpt lat="44.2641" lon="6.04809">
        <ele>876.2</ele>
        <time>2020-09-18T12:05:32Z</time>
      </trkpt>
      <trkpt lat="44.26395" lon="6.0479">
        <ele>877</ele>
        <time>2020-09-18T12:05:41Z</time>
      </trkpt>
      <trkpt lat="44.26397" lon="6.04777">
        <ele>876.1</ele>
        <time>2020-09-18T12:05:46Z</time>
      </trkpt>
      <trkpt lat="44.26395" lon="6.04779">
        <ele>876.5</ele>
        <time>2020-09-18T12:05:47Z</time>
      </trkpt>
      <trkpt lat="44.26396" lon="6.0478">
        <ele>876.4</ele>
        <time>2020-09-18T12:05:48Z</time>
      </trkpt>
      <trkpt lat="44.26398" lon="6.04782">
        <ele>876.3</ele>
        <time>2020-09-18T12:05:49Z</time>
      </trkpt>
      <trkpt lat="44.264" lon="6.04784">
        <ele>876.1</ele>
        <time>2020-09-18T12:05:50Z</time>
      </trkpt>
      <trkpt lat="44.26421" lon="6.04789">
        <ele>873.8</ele>
        <time>2020-09-18T12:06:00Z</time>
      </trkpt>
      <trkpt lat="44.26437" lon="6.0479">
        <ele>872.2</ele>
        <time>2020-09-18T12:06:08Z</time>
      </trkpt>
      <trkpt lat="44.26438" lon="6.04789">
        <ele>871.9</ele>
        <time>2020-09-18T12:06:09Z</time>
      </trkpt>
      <trkpt lat="44.26439" lon="6.04786">
        <ele>871.5</ele>
        <time>2020-09-18T12:06:10Z</time>
      </trkpt>
      <trkpt lat="44.2644" lon="6.04783">
        <ele>871</ele>
        <time>2020-09-18T12:06:11Z</time>
      </trkpt>
      <trkpt lat="44.26441" lon="6.0478">
        <ele>870.6</ele>
        <time>2020-09-18T12:06:12Z</time>
      </trkpt>
      <trkpt lat="44.26454" lon="6.0474">
        <ele>867.1</ele>
        <time>2020-09-18T12:06:24Z</time>
      </trkpt>
      <trkpt lat="44.26456" lon="6.04739">
        <ele>866.9</ele>
        <time>2020-09-18T12:06:25Z</time>
      </trkpt>
      <trkpt lat="44.26483" lon="6.04728">
        <ele>863.4</ele>
        <time>2020-09-18T12:06:39Z</time>
      </trkpt>
      <trkpt lat="44.26514" lon="6.04717">
        <ele>860.1</ele>
        <time>2020-09-18T12:06:52Z</time>
      </trkpt>
      <trkpt lat="44.26533" lon="6.04707">
        <ele>858.6</ele>
        <time>2020-09-18T12:07:00Z</time>
      </trkpt>
      <trkpt lat="44.26554" lon="6.04695">
        <ele>855.5</ele>
        <time>2020-09-18T12:07:08Z</time>
      </trkpt>
      <trkpt lat="44.26568" lon="6.04682">
        <ele>852.1</ele>
        <time>2020-09-18T12:07:15Z</time>
      </trkpt>
      <trkpt lat="44.26585" lon="6.04658">
        <ele>848.9</ele>
        <time>2020-09-18T12:07:23Z</time>
      </trkpt>
      <trkpt lat="44.26591" lon="6.04651">
        <ele>849.8</ele>
        <time>2020-09-18T12:07:26Z</time>
      </trkpt>
      <trkpt lat="44.2661" lon="6.04634">
        <ele>849.6</ele>
        <time>2020-09-18T12:07:34Z</time>
      </trkpt>
      <trkpt lat="44.26627" lon="6.04617">
        <ele>846.8</ele>
        <time>2020-09-18T12:07:41Z</time>
      </trkpt>
      <trkpt lat="44.26644" lon="6.04596">
        <ele>840.9</ele>
        <time>2020-09-18T12:07:49Z</time>
      </trkpt>
      <trkpt lat="44.26661" lon="6.04587">
        <ele>833</ele>
        <time>2020-09-18T12:07:56Z</time>
      </trkpt>
      <trkpt lat="44.26686" lon="6.0456">
        <ele>832</ele>
        <time>2020-09-18T12:08:07Z</time>
      </trkpt>
      <trkpt lat="44.26711" lon="6.04522">
        <ele>830.3</ele>
        <time>2020-09-18T12:08:21Z</time>
      </trkpt>
      <trkpt lat="44.26729" lon="6.04514">
        <ele>824.6</ele>
        <time>2020-09-18T12:08:29Z</time>
      </trkpt>
      <trkpt lat="44.26734" lon="6.04512">
        <ele>822.9</ele>
        <time>2020-09-18T12:08:31Z</time>
      </trkpt>
      <trkpt lat="44.26736" lon="6.04511">
        <ele>821.9</ele>
        <time>2020-09-18T12:08:32Z</time>
      </trkpt>
      <trkpt lat="44.26739" lon="6.04509">
        <ele>820.8</ele>
        <time>2020-09-18T12:08:33Z</time>
      </trkpt>
      <trkpt lat="44.26741" lon="6.04507">
        <ele>819.8</ele>
        <time>2020-09-18T12:08:34Z</time>
      </trkpt>
      <trkpt lat="44.26744" lon="6.04506">
        <ele>818.9</ele>
        <time>2020-09-18T12:08:35Z</time>
      </trkpt>
      <trkpt lat="44.26745" lon="6.04504">
        <ele>818.2</ele>
        <time>2020-09-18T12:08:36Z</time>
      </trkpt>
      <trkpt lat="44.26758" lon="6.0449">
        <ele>817</ele>
        <time>2020-09-18T12:08:43Z</time>
      </trkpt>
      <trkpt lat="44.26775" lon="6.04465">
        <ele>817.5</ele>
        <time>2020-09-18T12:08:52Z</time>
      </trkpt>
      <trkpt lat="44.26791" lon="6.04437">
        <ele>814.8</ele>
        <time>2020-09-18T12:09:02Z</time>
      </trkpt>
      <trkpt lat="44.26816" lon="6.04409">
        <ele>805.7</ele>
        <time>2020-09-18T12:09:12Z</time>
      </trkpt>
      <trkpt lat="44.26819" lon="6.04405">
        <ele>804.5</ele>
        <time>2020-09-18T12:09:14Z</time>
      </trkpt>
      <trkpt lat="44.2682" lon="6.04404">
        <ele>804</ele>
        <time>2020-09-18T12:09:15Z</time>
      </trkpt>
      <trkpt lat="44.26821" lon="6.04402">
        <ele>803.3</ele>
        <time>2020-09-18T12:09:16Z</time>
      </trkpt>
      <trkpt lat="44.26823" lon="6.04398">
        <ele>802.7</ele>
        <time>2020-09-18T12:09:17Z</time>
      </trkpt>
      <trkpt lat="44.26824" lon="6.04395">
        <ele>801.9</ele>
        <time>2020-09-18T12:09:18Z</time>
      </trkpt>
      <trkpt lat="44.26825" lon="6.04389">
        <ele>801.6</ele>
        <time>2020-09-18T12:09:19Z</time>
      </trkpt>
      <trkpt lat="44.26825" lon="6.04384">
        <ele>801.3</ele>
        <time>2020-09-18T12:09:20Z</time>
      </trkpt>
      <trkpt lat="44.26825" lon="6.0438">
        <ele>801.1</ele>
        <time>2020-09-18T12:09:21Z</time>
      </trkpt>
      <trkpt lat="44.26829" lon="6.04363">
        <ele>798.5</ele>
        <time>2020-09-18T12:09:25Z</time>
      </trkpt>
      <trkpt lat="44.26831" lon="6.04359">
        <ele>797.3</ele>
        <time>2020-09-18T12:09:26Z</time>
      </trkpt>
      <trkpt lat="44.2684" lon="6.04349">
        <ele>795.1</ele>
        <time>2020-09-18T12:09:30Z</time>
      </trkpt>
      <trkpt lat="44.26861" lon="6.04318">
        <ele>791</ele>
        <time>2020-09-18T12:09:39Z</time>
      </trkpt>
      <trkpt lat="44.26853" lon="6.04275">
        <ele>790.8</ele>
        <time>2020-09-18T12:09:49Z</time>
      </trkpt>
      <trkpt lat="44.26845" lon="6.0423">
        <ele>789.6</ele>
        <time>2020-09-18T12:10:00Z</time>
      </trkpt>
      <trkpt lat="44.26845" lon="6.04195">
        <ele>787.3</ele>
        <time>2020-09-18T12:10:09Z</time>
      </trkpt>
      <trkpt lat="44.26849" lon="6.04176">
        <ele>786</ele>
        <time>2020-09-18T12:10:14Z</time>
      </trkpt>
      <trkpt lat="44.2685" lon="6.04172">
        <ele>785.7</ele>
        <time>2020-09-18T12:10:15Z</time>
      </trkpt>
      <trkpt lat="44.26851" lon="6.04168">
        <ele>785.5</ele>
        <time>2020-09-18T12:10:16Z</time>
      </trkpt>
      <trkpt lat="44.26864" lon="6.04138">
        <ele>782.4</ele>
        <time>2020-09-18T12:10:25Z</time>
      </trkpt>
      <trkpt lat="44.26862" lon="6.04128">
        <ele>781.7</ele>
        <time>2020-09-18T12:10:33Z</time>
      </trkpt>
      <trkpt lat="44.26862" lon="6.04124">
        <ele>781.4</ele>
        <time>2020-09-18T12:10:37Z</time>
      </trkpt>
      <trkpt lat="44.26861" lon="6.04123">
        <ele>781.3</ele>
        <time>2020-09-18T12:10:42Z</time>
      </trkpt>
      <trkpt lat="44.26862" lon="6.04116">
        <ele>780.7</ele>
        <time>2020-09-18T12:10:52Z</time>
      </trkpt>
      <trkpt lat="44.26866" lon="6.04075">
        <ele>776.4</ele>
        <time>2020-09-18T12:11:00Z</time>
      </trkpt>
      <trkpt lat="44.26852" lon="6.04017">
        <ele>767.7</ele>
        <time>2020-09-18T12:11:12Z</time>
      </trkpt>
      <trkpt lat="44.26824" lon="6.03969">
        <ele>765.3</ele>
        <time>2020-09-18T12:11:24Z</time>
      </trkpt>
      <trkpt lat="44.26812" lon="6.03945">
        <ele>766.5</ele>
        <time>2020-09-18T12:11:29Z</time>
      </trkpt>
      <trkpt lat="44.26811" lon="6.03939">
        <ele>766</ele>
        <time>2020-09-18T12:11:30Z</time>
      </trkpt>
      <trkpt lat="44.26806" lon="6.03915">
        <ele>763.9</ele>
        <time>2020-09-18T12:11:34Z</time>
      </trkpt>
      <trkpt lat="44.26806" lon="6.0391">
        <ele>763.4</ele>
        <time>2020-09-18T12:11:35Z</time>
      </trkpt>
      <trkpt lat="44.26805" lon="6.03905">
        <ele>763.2</ele>
        <time>2020-09-18T12:11:36Z</time>
      </trkpt>
      <trkpt lat="44.26805" lon="6.039">
        <ele>762.9</ele>
        <time>2020-09-18T12:11:37Z</time>
      </trkpt>
      <trkpt lat="44.26804" lon="6.03895">
        <ele>762.5</ele>
        <time>2020-09-18T12:11:38Z</time>
      </trkpt>
      <trkpt lat="44.26795" lon="6.03841">
        <ele>758.3</ele>
        <time>2020-09-18T12:11:47Z</time>
      </trkpt>
      <trkpt lat="44.26793" lon="6.03829">
        <ele>757.2</ele>
        <time>2020-09-18T12:11:49Z</time>
      </trkpt>
      <trkpt lat="44.26791" lon="6.03823">
        <ele>757</ele>
        <time>2020-09-18T12:11:50Z</time>
      </trkpt>
      <trkpt lat="44.2679" lon="6.03818">
        <ele>756.7</ele>
        <time>2020-09-18T12:11:51Z</time>
      </trkpt>
      <trkpt lat="44.26784" lon="6.03783">
        <ele>754.1</ele>
        <time>2020-09-18T12:11:58Z</time>
      </trkpt>
      <trkpt lat="44.268" lon="6.03736">
        <ele>747.9</ele>
        <time>2020-09-18T12:12:08Z</time>
      </trkpt>
      <trkpt lat="44.26827" lon="6.0368">
        <ele>742.4</ele>
        <time>2020-09-18T12:12:20Z</time>
      </trkpt>
      <trkpt lat="44.26845" lon="6.03649">
        <ele>741.2</ele>
        <time>2020-09-18T12:12:30Z</time>
      </trkpt>
      <trkpt lat="44.26853" lon="6.0359">
        <ele>739.7</ele>
        <time>2020-09-18T12:12:45Z</time>
      </trkpt>
      <trkpt lat="44.26848" lon="6.0354">
        <ele>740.2</ele>
        <time>2020-09-18T12:12:59Z</time>
      </trkpt>
      <trkpt lat="44.26848" lon="6.03486">
        <ele>740.8</ele>
        <time>2020-09-18T12:13:10Z</time>
      </trkpt>
      <trkpt lat="44.26859" lon="6.03411">
        <ele>739.9</ele>
        <time>2020-09-18T12:13:25Z</time>
      </trkpt>
      <trkpt lat="44.26855" lon="6.03353">
        <ele>737</ele>
        <time>2020-09-18T12:13:36Z</time>
      </trkpt>
      <trkpt lat="44.26853" lon="6.03348">
        <ele>736.8</ele>
        <time>2020-09-18T12:13:37Z</time>
      </trkpt>
      <trkpt lat="44.26851" lon="6.03343">
        <ele>736.7</ele>
        <time>2020-09-18T12:13:38Z</time>
      </trkpt>
      <trkpt lat="44.26825" lon="6.0331">
        <ele>734.9</ele>
        <time>2020-09-18T12:13:50Z</time>
      </trkpt>
      <trkpt lat="44.26799" lon="6.03299">
        <ele>736.4</ele>
        <time>2020-09-18T12:14:01Z</time>
      </trkpt>
      <trkpt lat="44.26775" lon="6.03288">
        <ele>737.7</ele>
        <time>2020-09-18T12:14:10Z</time>
      </trkpt>
      <trkpt lat="44.26773" lon="6.03284">
        <ele>737.5</ele>
        <time>2020-09-18T12:14:11Z</time>
      </trkpt>
      <trkpt lat="44.26771" lon="6.03281">
        <ele>737.3</ele>
        <time>2020-09-18T12:14:12Z</time>
      </trkpt>
      <trkpt lat="44.26769" lon="6.03276">
        <ele>737</ele>
        <time>2020-09-18T12:14:13Z</time>
      </trkpt>
      <trkpt lat="44.26768" lon="6.03273">
        <ele>736.7</ele>
        <time>2020-09-18T12:14:14Z</time>
      </trkpt>
      <trkpt lat="44.26766" lon="6.03269">
        <ele>736.3</ele>
        <time>2020-09-18T12:14:15Z</time>
      </trkpt>
      <trkpt lat="44.26764" lon="6.03265">
        <ele>736.1</ele>
        <time>2020-09-18T12:14:16Z</time>
      </trkpt>
      <trkpt lat="44.26762" lon="6.03261">
        <ele>735.9</ele>
        <time>2020-09-18T12:14:17Z</time>
      </trkpt>
      <trkpt lat="44.26733" lon="6.03209">
        <ele>737.3</ele>
        <time>2020-09-18T12:14:31Z</time>
      </trkpt>
      <trkpt lat="44.26718" lon="6.03153">
        <ele>737.7</ele>
        <time>2020-09-18T12:14:46Z</time>
      </trkpt>
      <trkpt lat="44.26694" lon="6.03115">
        <ele>740.5</ele>
        <time>2020-09-18T12:15:00Z</time>
      </trkpt>
      <trkpt lat="44.26693" lon="6.03062">
        <ele>739.3</ele>
        <time>2020-09-18T12:15:14Z</time>
      </trkpt>
      <trkpt lat="44.26701" lon="6.03014">
        <ele>736.5</ele>
        <time>2020-09-18T12:15:29Z</time>
      </trkpt>
      <trkpt lat="44.26696" lon="6.0298">
        <ele>736.1</ele>
        <time>2020-09-18T12:15:43Z</time>
      </trkpt>
      <trkpt lat="44.26696" lon="6.0298">
        <ele>736.1</ele>
        <time>2020-09-18T12:15:44Z</time>
      </trkpt>
      <trkpt lat="44.26692" lon="6.0297">
        <ele>736.4</ele>
        <time>2020-09-18T12:18:26Z</time>
      </trkpt>
      <trkpt lat="44.2669" lon="6.02968">
        <ele>736.9</ele>
        <time>2020-09-18T12:18:27Z</time>
      </trkpt>
      <trkpt lat="44.2666" lon="6.02939">
        <ele>742</ele>
        <time>2020-09-18T12:18:35Z</time>
      </trkpt>
      <trkpt lat="44.26649" lon="6.02923">
        <ele>741.9</ele>
        <time>2020-09-18T12:18:38Z</time>
      </trkpt>
      <trkpt lat="44.26646" lon="6.02918">
        <ele>741.8</ele>
        <time>2020-09-18T12:18:39Z</time>
      </trkpt>
      <trkpt lat="44.26639" lon="6.02903">
        <ele>741</ele>
        <time>2020-09-18T12:18:42Z</time>
      </trkpt>
      <trkpt lat="44.26607" lon="6.02857">
        <ele>740</ele>
        <time>2020-09-18T12:18:53Z</time>
      </trkpt>
      <trkpt lat="44.26598" lon="6.0284">
        <ele>739.5</ele>
        <time>2020-09-18T12:19:03Z</time>
      </trkpt>
      <trkpt lat="44.26598" lon="6.0284">
        <ele>739.4</ele>
        <time>2020-09-18T12:19:04Z</time>
      </trkpt>
      <trkpt lat="44.26595" lon="6.02831">
        <ele>739</ele>
        <time>2020-09-18T12:19:19Z</time>
      </trkpt>
      <trkpt lat="44.26594" lon="6.02827">
        <ele>738.8</ele>
        <time>2020-09-18T12:19:20Z</time>
      </trkpt>
      <trkpt lat="44.26593" lon="6.02821">
        <ele>738.6</ele>
        <time>2020-09-18T12:19:21Z</time>
      </trkpt>
      <trkpt lat="44.26593" lon="6.02815">
        <ele>738.3</ele>
        <time>2020-09-18T12:19:22Z</time>
      </trkpt>
      <trkpt lat="44.26592" lon="6.02809">
        <ele>737.8</ele>
        <time>2020-09-18T12:19:23Z</time>
      </trkpt>
      <trkpt lat="44.26593" lon="6.02803">
        <ele>737.3</ele>
        <time>2020-09-18T12:19:24Z</time>
      </trkpt>
      <trkpt lat="44.26594" lon="6.02797">
        <ele>736.8</ele>
        <time>2020-09-18T12:19:25Z</time>
      </trkpt>
      <trkpt lat="44.26594" lon="6.0279">
        <ele>736.2</ele>
        <time>2020-09-18T12:19:26Z</time>
      </trkpt>
      <trkpt lat="44.26594" lon="6.02774">
        <ele>735.1</ele>
        <time>2020-09-18T12:19:29Z</time>
      </trkpt>
      <trkpt lat="44.26592" lon="6.02768">
        <ele>734.9</ele>
        <time>2020-09-18T12:19:30Z</time>
      </trkpt>
      <trkpt lat="44.2659" lon="6.02763">
        <ele>734.9</ele>
        <time>2020-09-18T12:19:31Z</time>
      </trkpt>
      <trkpt lat="44.26588" lon="6.02759">
        <ele>735</ele>
        <time>2020-09-18T12:19:32Z</time>
      </trkpt>
      <trkpt lat="44.26585" lon="6.02756">
        <ele>735.1</ele>
        <time>2020-09-18T12:19:33Z</time>
      </trkpt>
      <trkpt lat="44.26583" lon="6.02754">
        <ele>735.3</ele>
        <time>2020-09-18T12:19:34Z</time>
      </trkpt>
      <trkpt lat="44.26581" lon="6.02753">
        <ele>735.5</ele>
        <time>2020-09-18T12:19:35Z</time>
      </trkpt>
      <trkpt lat="44.26579" lon="6.02752">
        <ele>735.9</ele>
        <time>2020-09-18T12:19:36Z</time>
      </trkpt>
      <trkpt lat="44.26576" lon="6.02751">
        <ele>736.2</ele>
        <time>2020-09-18T12:19:37Z</time>
      </trkpt>
      <trkpt lat="44.26571" lon="6.02726">
        <ele>736.7</ele>
        <time>2020-09-18T12:19:46Z</time>
      </trkpt>
      <trkpt lat="44.26577" lon="6.02721">
        <ele>735.4</ele>
        <time>2020-09-18T12:19:49Z</time>
      </trkpt>
      <trkpt lat="44.26579" lon="6.02719">
        <ele>735.1</ele>
        <time>2020-09-18T12:19:50Z</time>
      </trkpt>
      <trkpt lat="44.26593" lon="6.02709">
        <ele>732.6</ele>
        <time>2020-09-18T12:19:55Z</time>
      </trkpt>
      <trkpt lat="44.26605" lon="6.02701">
        <ele>730.7</ele>
        <time>2020-09-18T12:19:58Z</time>
      </trkpt>
      <trkpt lat="44.26608" lon="6.02699">
        <ele>730.2</ele>
        <time>2020-09-18T12:19:59Z</time>
      </trkpt>
      <trkpt lat="44.26612" lon="6.02697">
        <ele>729.5</ele>
        <time>2020-09-18T12:20:00Z</time>
      </trkpt>
      <trkpt lat="44.26623" lon="6.02694">
        <ele>727.8</ele>
        <time>2020-09-18T12:20:02Z</time>
      </trkpt>
      <trkpt lat="44.26629" lon="6.02693">
        <ele>726.9</ele>
        <time>2020-09-18T12:20:03Z</time>
      </trkpt>
      <trkpt lat="44.26669" lon="6.02701">
        <ele>721.1</ele>
        <time>2020-09-18T12:20:11Z</time>
      </trkpt>
      <trkpt lat="44.26674" lon="6.02702">
        <ele>720.7</ele>
        <time>2020-09-18T12:20:12Z</time>
      </trkpt>
      <trkpt lat="44.26678" lon="6.02703">
        <ele>720.2</ele>
        <time>2020-09-18T12:20:13Z</time>
      </trkpt>
      <trkpt lat="44.26683" lon="6.02702">
        <ele>719.8</ele>
        <time>2020-09-18T12:20:14Z</time>
      </trkpt>
      <trkpt lat="44.26686" lon="6.02702">
        <ele>719.4</ele>
        <time>2020-09-18T12:20:15Z</time>
      </trkpt>
      <trkpt lat="44.26689" lon="6.02701">
        <ele>719.1</ele>
        <time>2020-09-18T12:20:16Z</time>
      </trkpt>
      <trkpt lat="44.26692" lon="6.02699">
        <ele>718.9</ele>
        <time>2020-09-18T12:20:17Z</time>
      </trkpt>
      <trkpt lat="44.26695" lon="6.02696">
        <ele>718.6</ele>
        <time>2020-09-18T12:20:18Z</time>
      </trkpt>
      <trkpt lat="44.26698" lon="6.02695">
        <ele>718.3</ele>
        <time>2020-09-18T12:20:19Z</time>
      </trkpt>
      <trkpt lat="44.26702" lon="6.02694">
        <ele>718</ele>
        <time>2020-09-18T12:20:20Z</time>
      </trkpt>
      <trkpt lat="44.26724" lon="6.02689">
        <ele>716</ele>
        <time>2020-09-18T12:20:27Z</time>
      </trkpt>
      <trkpt lat="44.26735" lon="6.02685">
        <ele>715.2</ele>
        <time>2020-09-18T12:20:31Z</time>
      </trkpt>
      <trkpt lat="44.2674" lon="6.02685">
        <ele>714.8</ele>
        <time>2020-09-18T12:20:38Z</time>
      </trkpt>
      <trkpt lat="44.26746" lon="6.02677">
        <ele>714.7</ele>
        <time>2020-09-18T12:21:23Z</time>
      </trkpt>
      <trkpt lat="44.26746" lon="6.02677">
        <ele>714.7</ele>
        <time>2020-09-18T12:21:25Z</time>
      </trkpt>
      <trkpt lat="44.26749" lon="6.02675">
        <ele>714.6</ele>
        <time>2020-09-18T12:22:04Z</time>
      </trkpt>
      <trkpt lat="44.2675" lon="6.02674">
        <ele>714.6</ele>
        <time>2020-09-18T12:22:05Z</time>
      </trkpt>
      <trkpt lat="44.26751" lon="6.02672">
        <ele>714.6</ele>
        <time>2020-09-18T12:22:10Z</time>
      </trkpt>
      <trkpt lat="44.26756" lon="6.02667">
        <ele>714.8</ele>
        <time>2020-09-18T12:22:34Z</time>
      </trkpt>
      <trkpt lat="44.26791" lon="6.02648">
        <ele>712.2</ele>
        <time>2020-09-18T12:22:49Z</time>
      </trkpt>
      <trkpt lat="44.26833" lon="6.02627">
        <ele>709.2</ele>
        <time>2020-09-18T12:22:58Z</time>
      </trkpt>
      <trkpt lat="44.26853" lon="6.0262">
        <ele>706.2</ele>
        <time>2020-09-18T12:23:02Z</time>
      </trkpt>
      <trkpt lat="44.26877" lon="6.02604">
        <ele>701.8</ele>
        <time>2020-09-18T12:23:07Z</time>
      </trkpt>
      <trkpt lat="44.26909" lon="6.02586">
        <ele>696.3</ele>
        <time>2020-09-18T12:23:13Z</time>
      </trkpt>
      <trkpt lat="44.2694" lon="6.02577">
        <ele>690.2</ele>
        <time>2020-09-18T12:23:18Z</time>
      </trkpt>
      <trkpt lat="44.26945" lon="6.02574">
        <ele>689.1</ele>
        <time>2020-09-18T12:23:19Z</time>
      </trkpt>
      <trkpt lat="44.26961" lon="6.02564">
        <ele>685.7</ele>
        <time>2020-09-18T12:23:22Z</time>
      </trkpt>
      <trkpt lat="44.26984" lon="6.0255">
        <ele>681.1</ele>
        <time>2020-09-18T12:23:27Z</time>
      </trkpt>
      <trkpt lat="44.2699" lon="6.02543">
        <ele>679.7</ele>
        <time>2020-09-18T12:23:30Z</time>
      </trkpt>
      <trkpt lat="44.26991" lon="6.02539">
        <ele>679.6</ele>
        <time>2020-09-18T12:23:31Z</time>
      </trkpt>
      <trkpt lat="44.2699" lon="6.02535">
        <ele>679.6</ele>
        <time>2020-09-18T12:23:32Z</time>
      </trkpt>
      <trkpt lat="44.26988" lon="6.02532">
        <ele>679.8</ele>
        <time>2020-09-18T12:23:33Z</time>
      </trkpt>
      <trkpt lat="44.26986" lon="6.0253">
        <ele>680.1</ele>
        <time>2020-09-18T12:23:34Z</time>
      </trkpt>
      <trkpt lat="44.26983" lon="6.02528">
        <ele>680.5</ele>
        <time>2020-09-18T12:23:35Z</time>
      </trkpt>
      <trkpt lat="44.2698" lon="6.02526">
        <ele>681</ele>
        <time>2020-09-18T12:23:36Z</time>
      </trkpt>
      <trkpt lat="44.26976" lon="6.02524">
        <ele>681.6</ele>
        <time>2020-09-18T12:23:37Z</time>
      </trkpt>
      <trkpt lat="44.26973" lon="6.02522">
        <ele>682</ele>
        <time>2020-09-18T12:23:38Z</time>
      </trkpt>
      <trkpt lat="44.2697" lon="6.02518">
        <ele>682.3</ele>
        <time>2020-09-18T12:23:39Z</time>
      </trkpt>
      <trkpt lat="44.26968" lon="6.02514">
        <ele>682.4</ele>
        <time>2020-09-18T12:23:40Z</time>
      </trkpt>
      <trkpt lat="44.26967" lon="6.02508">
        <ele>682.4</ele>
        <time>2020-09-18T12:23:41Z</time>
      </trkpt>
      <trkpt lat="44.26967" lon="6.02503">
        <ele>682.2</ele>
        <time>2020-09-18T12:23:42Z</time>
      </trkpt>
      <trkpt lat="44.26968" lon="6.02498">
        <ele>681.7</ele>
        <time>2020-09-18T12:23:43Z</time>
      </trkpt>
      <trkpt lat="44.2697" lon="6.02492">
        <ele>680.9</ele>
        <time>2020-09-18T12:23:44Z</time>
      </trkpt>
      <trkpt lat="44.26979" lon="6.02459">
        <ele>675.9</ele>
        <time>2020-09-18T12:23:51Z</time>
      </trkpt>
      <trkpt lat="44.26981" lon="6.02456">
        <ele>675.3</ele>
        <time>2020-09-18T12:23:52Z</time>
      </trkpt>
      <trkpt lat="44.26983" lon="6.02455">
        <ele>674.7</ele>
        <time>2020-09-18T12:23:53Z</time>
      </trkpt>
      <trkpt lat="44.26986" lon="6.02454">
        <ele>674.2</ele>
        <time>2020-09-18T12:23:54Z</time>
      </trkpt>
      <trkpt lat="44.26989" lon="6.02455">
        <ele>673.8</ele>
        <time>2020-09-18T12:23:55Z</time>
      </trkpt>
      <trkpt lat="44.26991" lon="6.02455">
        <ele>673.5</ele>
        <time>2020-09-18T12:23:56Z</time>
      </trkpt>
      <trkpt lat="44.26993" lon="6.02457">
        <ele>673.4</ele>
        <time>2020-09-18T12:23:57Z</time>
      </trkpt>
      <trkpt lat="44.26995" lon="6.02461">
        <ele>673.6</ele>
        <time>2020-09-18T12:23:58Z</time>
      </trkpt>
      <trkpt lat="44.26995" lon="6.02465">
        <ele>674</ele>
        <time>2020-09-18T12:23:59Z</time>
      </trkpt>
      <trkpt lat="44.26994" lon="6.02469">
        <ele>674.6</ele>
        <time>2020-09-18T12:24:00Z</time>
      </trkpt>
      <trkpt lat="44.26993" lon="6.02473">
        <ele>675.2</ele>
        <time>2020-09-18T12:24:01Z</time>
      </trkpt>
      <trkpt lat="44.26993" lon="6.02482">
        <ele>676.3</ele>
        <time>2020-09-18T12:24:03Z</time>
      </trkpt>
      <trkpt lat="44.26994" lon="6.02487">
        <ele>676.5</ele>
        <time>2020-09-18T12:24:04Z</time>
      </trkpt>
      <trkpt lat="44.26997" lon="6.02491">
        <ele>676.5</ele>
        <time>2020-09-18T12:24:05Z</time>
      </trkpt>
      <trkpt lat="44.27" lon="6.02494">
        <ele>676.4</ele>
        <time>2020-09-18T12:24:06Z</time>
      </trkpt>
      <trkpt lat="44.27003" lon="6.02498">
        <ele>675.6</ele>
        <time>2020-09-18T12:24:07Z</time>
      </trkpt>
      <trkpt lat="44.27019" lon="6.02514">
        <ele>671.2</ele>
        <time>2020-09-18T12:24:13Z</time>
      </trkpt>
      <trkpt lat="44.27021" lon="6.02515">
        <ele>670.4</ele>
        <time>2020-09-18T12:24:14Z</time>
      </trkpt>
      <trkpt lat="44.27024" lon="6.02513">
        <ele>669.6</ele>
        <time>2020-09-18T12:24:15Z</time>
      </trkpt>
      <trkpt lat="44.27026" lon="6.02511">
        <ele>668.9</ele>
        <time>2020-09-18T12:24:16Z</time>
      </trkpt>
      <trkpt lat="44.27027" lon="6.02506">
        <ele>668.4</ele>
        <time>2020-09-18T12:24:17Z</time>
      </trkpt>
      <trkpt lat="44.27028" lon="6.025">
        <ele>667.9</ele>
        <time>2020-09-18T12:24:18Z</time>
      </trkpt>
      <trkpt lat="44.27029" lon="6.02493">
        <ele>667.1</ele>
        <time>2020-09-18T12:24:19Z</time>
      </trkpt>
      <trkpt lat="44.2703" lon="6.02486">
        <ele>666.2</ele>
        <time>2020-09-18T12:24:20Z</time>
      </trkpt>
      <trkpt lat="44.2703" lon="6.02479">
        <ele>665.3</ele>
        <time>2020-09-18T12:24:21Z</time>
      </trkpt>
      <trkpt lat="44.27035" lon="6.02457">
        <ele>662.2</ele>
        <time>2020-09-18T12:24:24Z</time>
      </trkpt>
      <trkpt lat="44.27037" lon="6.02451">
        <ele>661</ele>
        <time>2020-09-18T12:24:25Z</time>
      </trkpt>
      <trkpt lat="44.2704" lon="6.02445">
        <ele>659.8</ele>
        <time>2020-09-18T12:24:26Z</time>
      </trkpt>
      <trkpt lat="44.27042" lon="6.0244">
        <ele>658.8</ele>
        <time>2020-09-18T12:24:27Z</time>
      </trkpt>
      <trkpt lat="44.27043" lon="6.02434">
        <ele>657.9</ele>
        <time>2020-09-18T12:24:28Z</time>
      </trkpt>
      <trkpt lat="44.27044" lon="6.02427">
        <ele>657.1</ele>
        <time>2020-09-18T12:24:29Z</time>
      </trkpt>
      <trkpt lat="44.27045" lon="6.0242">
        <ele>656.3</ele>
        <time>2020-09-18T12:24:30Z</time>
      </trkpt>
      <trkpt lat="44.27046" lon="6.02412">
        <ele>655.6</ele>
        <time>2020-09-18T12:24:31Z</time>
      </trkpt>
      <trkpt lat="44.27047" lon="6.02405">
        <ele>654.8</ele>
        <time>2020-09-18T12:24:32Z</time>
      </trkpt>
      <trkpt lat="44.27049" lon="6.02398">
        <ele>654</ele>
        <time>2020-09-18T12:24:33Z</time>
      </trkpt>
      <trkpt lat="44.2705" lon="6.02392">
        <ele>653.1</ele>
        <time>2020-09-18T12:24:34Z</time>
      </trkpt>
      <trkpt lat="44.27053" lon="6.02387">
        <ele>652.3</ele>
        <time>2020-09-18T12:24:35Z</time>
      </trkpt>
      <trkpt lat="44.27055" lon="6.02382">
        <ele>651.5</ele>
        <time>2020-09-18T12:24:36Z</time>
      </trkpt>
      <trkpt lat="44.27061" lon="6.02366">
        <ele>649.2</ele>
        <time>2020-09-18T12:24:40Z</time>
      </trkpt>
      <trkpt lat="44.27059" lon="6.02342">
        <ele>648.2</ele>
        <time>2020-09-18T12:24:45Z</time>
      </trkpt>
      <trkpt lat="44.2706" lon="6.02339">
        <ele>647.8</ele>
        <time>2020-09-18T12:24:46Z</time>
      </trkpt>
      <trkpt lat="44.27062" lon="6.02337">
        <ele>647.3</ele>
        <time>2020-09-18T12:24:47Z</time>
      </trkpt>
      <trkpt lat="44.27064" lon="6.02337">
        <ele>646.9</ele>
        <time>2020-09-18T12:24:48Z</time>
      </trkpt>
      <trkpt lat="44.27067" lon="6.02339">
        <ele>646.4</ele>
        <time>2020-09-18T12:24:49Z</time>
      </trkpt>
      <trkpt lat="44.27069" lon="6.02341">
        <ele>646.2</ele>
        <time>2020-09-18T12:24:50Z</time>
      </trkpt>
      <trkpt lat="44.2707" lon="6.02345">
        <ele>646.1</ele>
        <time>2020-09-18T12:24:51Z</time>
      </trkpt>
      <trkpt lat="44.2707" lon="6.02348">
        <ele>646.2</ele>
        <time>2020-09-18T12:24:52Z</time>
      </trkpt>
      <trkpt lat="44.27071" lon="6.02353">
        <ele>646.3</ele>
        <time>2020-09-18T12:24:53Z</time>
      </trkpt>
      <trkpt lat="44.27076" lon="6.0241">
        <ele>647.8</ele>
        <time>2020-09-18T12:25:02Z</time>
      </trkpt>
      <trkpt lat="44.27077" lon="6.02429">
        <ele>648.2</ele>
        <time>2020-09-18T12:25:05Z</time>
      </trkpt>
      <trkpt lat="44.27077" lon="6.02448">
        <ele>649.4</ele>
        <time>2020-09-18T12:25:09Z</time>
      </trkpt>
      <trkpt lat="44.27078" lon="6.02451">
        <ele>649.3</ele>
        <time>2020-09-18T12:25:10Z</time>
      </trkpt>
      <trkpt lat="44.27079" lon="6.02452">
        <ele>648.9</ele>
        <time>2020-09-18T12:25:11Z</time>
      </trkpt>
      <trkpt lat="44.27082" lon="6.02451">
        <ele>648.1</ele>
        <time>2020-09-18T12:25:12Z</time>
      </trkpt>
      <trkpt lat="44.27085" lon="6.02448">
        <ele>647.8</ele>
        <time>2020-09-18T12:25:13Z</time>
      </trkpt>
      <trkpt lat="44.27088" lon="6.02445">
        <ele>648.1</ele>
        <time>2020-09-18T12:25:14Z</time>
      </trkpt>
      <trkpt lat="44.27091" lon="6.02439">
        <ele>648.3</ele>
        <time>2020-09-18T12:25:15Z</time>
      </trkpt>
      <trkpt lat="44.27094" lon="6.02433">
        <ele>648.3</ele>
        <time>2020-09-18T12:25:16Z</time>
      </trkpt>
      <trkpt lat="44.27096" lon="6.02426">
        <ele>648.3</ele>
        <time>2020-09-18T12:25:17Z</time>
      </trkpt>
      <trkpt lat="44.27106" lon="6.0241">
        <ele>648.1</ele>
        <time>2020-09-18T12:25:20Z</time>
      </trkpt>
      <trkpt lat="44.2711" lon="6.02406">
        <ele>648.1</ele>
        <time>2020-09-18T12:25:21Z</time>
      </trkpt>
      <trkpt lat="44.27115" lon="6.02403">
        <ele>648.3</ele>
        <time>2020-09-18T12:25:22Z</time>
      </trkpt>
      <trkpt lat="44.2712" lon="6.02401">
        <ele>648.5</ele>
        <time>2020-09-18T12:25:23Z</time>
      </trkpt>
      <trkpt lat="44.27125" lon="6.024">
        <ele>648.8</ele>
        <time>2020-09-18T12:25:24Z</time>
      </trkpt>
      <trkpt lat="44.2713" lon="6.02401">
        <ele>649.2</ele>
        <time>2020-09-18T12:25:25Z</time>
      </trkpt>
      <trkpt lat="44.27135" lon="6.02401">
        <ele>649.7</ele>
        <time>2020-09-18T12:25:26Z</time>
      </trkpt>
      <trkpt lat="44.2714" lon="6.02402">
        <ele>650.2</ele>
        <time>2020-09-18T12:25:27Z</time>
      </trkpt>
      <trkpt lat="44.27144" lon="6.024">
        <ele>650.3</ele>
        <time>2020-09-18T12:25:28Z</time>
      </trkpt>
      <trkpt lat="44.27148" lon="6.02397">
        <ele>650</ele>
        <time>2020-09-18T12:25:29Z</time>
      </trkpt>
      <trkpt lat="44.27151" lon="6.02392">
        <ele>649.2</ele>
        <time>2020-09-18T12:25:30Z</time>
      </trkpt>
      <trkpt lat="44.27152" lon="6.02388">
        <ele>648.4</ele>
        <time>2020-09-18T12:25:31Z</time>
      </trkpt>
      <trkpt lat="44.27153" lon="6.02384">
        <ele>647.7</ele>
        <time>2020-09-18T12:25:32Z</time>
      </trkpt>
      <trkpt lat="44.27154" lon="6.02381">
        <ele>647</ele>
        <time>2020-09-18T12:25:33Z</time>
      </trkpt>
      <trkpt lat="44.27154" lon="6.02378">
        <ele>646.3</ele>
        <time>2020-09-18T12:25:34Z</time>
      </trkpt>
      <trkpt lat="44.27155" lon="6.02374">
        <ele>645.7</ele>
        <time>2020-09-18T12:25:35Z</time>
      </trkpt>
      <trkpt lat="44.27156" lon="6.02371">
        <ele>645</ele>
        <time>2020-09-18T12:25:36Z</time>
      </trkpt>
      <trkpt lat="44.27157" lon="6.02368">
        <ele>644.3</ele>
        <time>2020-09-18T12:25:37Z</time>
      </trkpt>
      <trkpt lat="44.27177" lon="6.02324">
        <ele>636.5</ele>
        <time>2020-09-18T12:25:51Z</time>
      </trkpt>
      <trkpt lat="44.27214" lon="6.0232">
        <ele>642.4</ele>
        <time>2020-09-18T12:26:06Z</time>
      </trkpt>
      <trkpt lat="44.27248" lon="6.02296">
        <ele>640.1</ele>
        <time>2020-09-18T12:26:17Z</time>
      </trkpt>
      <trkpt lat="44.27261" lon="6.02261">
        <ele>631.8</ele>
        <time>2020-09-18T12:26:24Z</time>
      </trkpt>
      <trkpt lat="44.27265" lon="6.02256">
        <ele>630.9</ele>
        <time>2020-09-18T12:26:25Z</time>
      </trkpt>
      <trkpt lat="44.27269" lon="6.0225">
        <ele>630.4</ele>
        <time>2020-09-18T12:26:26Z</time>
      </trkpt>
      <trkpt lat="44.27274" lon="6.02245">
        <ele>630.8</ele>
        <time>2020-09-18T12:26:27Z</time>
      </trkpt>
      <trkpt lat="44.2728" lon="6.0224">
        <ele>631.3</ele>
        <time>2020-09-18T12:26:28Z</time>
      </trkpt>
      <trkpt lat="44.27301" lon="6.02221">
        <ele>632.6</ele>
        <time>2020-09-18T12:26:32Z</time>
      </trkpt>
      <trkpt lat="44.27305" lon="6.02215">
        <ele>632.1</ele>
        <time>2020-09-18T12:26:33Z</time>
      </trkpt>
      <trkpt lat="44.27335" lon="6.02188">
        <ele>631.2</ele>
        <time>2020-09-18T12:26:43Z</time>
      </trkpt>
      <trkpt lat="44.27377" lon="6.02168">
        <ele>634</ele>
        <time>2020-09-18T12:26:56Z</time>
      </trkpt>
      <trkpt lat="44.27404" lon="6.02133">
        <ele>638</ele>
        <time>2020-09-18T12:27:07Z</time>
      </trkpt>
      <trkpt lat="44.27408" lon="6.02087">
        <ele>637.3</ele>
        <time>2020-09-18T12:27:21Z</time>
      </trkpt>
      <trkpt lat="44.27421" lon="6.02048">
        <ele>636.3</ele>
        <time>2020-09-18T12:27:33Z</time>
      </trkpt>
      <trkpt lat="44.2745" lon="6.0201">
        <ele>637.6</ele>
        <time>2020-09-18T12:27:47Z</time>
      </trkpt>
      <trkpt lat="44.27479" lon="6.01966">
        <ele>640.4</ele>
        <time>2020-09-18T12:28:05Z</time>
      </trkpt>
      <trkpt lat="44.27492" lon="6.01917">
        <ele>640.5</ele>
        <time>2020-09-18T12:28:17Z</time>
      </trkpt>
      <trkpt lat="44.27476" lon="6.01865">
        <ele>634.3</ele>
        <time>2020-09-18T12:28:28Z</time>
      </trkpt>
      <trkpt lat="44.27458" lon="6.01803">
        <ele>629</ele>
        <time>2020-09-18T12:28:41Z</time>
      </trkpt>
      <trkpt lat="44.27466" lon="6.01747">
        <ele>629.4</ele>
        <time>2020-09-18T12:28:53Z</time>
      </trkpt>
      <trkpt lat="44.27468" lon="6.01746">
        <ele>629.4</ele>
        <time>2020-09-18T12:28:54Z</time>
      </trkpt>
      <trkpt lat="44.27471" lon="6.01746">
        <ele>629.5</ele>
        <time>2020-09-18T12:28:55Z</time>
      </trkpt>
      <trkpt lat="44.27483" lon="6.01744">
        <ele>629.9</ele>
        <time>2020-09-18T12:28:59Z</time>
      </trkpt>
      <trkpt lat="44.27486" lon="6.0174">
        <ele>629.8</ele>
        <time>2020-09-18T12:29:00Z</time>
      </trkpt>
      <trkpt lat="44.27488" lon="6.01735">
        <ele>629.5</ele>
        <time>2020-09-18T12:29:01Z</time>
      </trkpt>
      <trkpt lat="44.2749" lon="6.0173">
        <ele>629.1</ele>
        <time>2020-09-18T12:29:02Z</time>
      </trkpt>
      <trkpt lat="44.27492" lon="6.01724">
        <ele>628.6</ele>
        <time>2020-09-18T12:29:03Z</time>
      </trkpt>
      <trkpt lat="44.27492" lon="6.01717">
        <ele>628.1</ele>
        <time>2020-09-18T12:29:04Z</time>
      </trkpt>
      <trkpt lat="44.27492" lon="6.0171">
        <ele>627.6</ele>
        <time>2020-09-18T12:29:05Z</time>
      </trkpt>
      <trkpt lat="44.27492" lon="6.01703">
        <ele>627.1</ele>
        <time>2020-09-18T12:29:06Z</time>
      </trkpt>
      <trkpt lat="44.27491" lon="6.01682">
        <ele>625.6</ele>
        <time>2020-09-18T12:29:09Z</time>
      </trkpt>
      <trkpt lat="44.2749" lon="6.01674">
        <ele>625.3</ele>
        <time>2020-09-18T12:29:10Z</time>
      </trkpt>
      <trkpt lat="44.27481" lon="6.01647">
        <ele>623.4</ele>
        <time>2020-09-18T12:29:14Z</time>
      </trkpt>
      <trkpt lat="44.27463" lon="6.01605">
        <ele>623.1</ele>
        <time>2020-09-18T12:29:20Z</time>
      </trkpt>
      <trkpt lat="44.27458" lon="6.0159">
        <ele>623.3</ele>
        <time>2020-09-18T12:29:22Z</time>
      </trkpt>
      <trkpt lat="44.27456" lon="6.01582">
        <ele>623.1</ele>
        <time>2020-09-18T12:29:23Z</time>
      </trkpt>
      <trkpt lat="44.27455" lon="6.01575">
        <ele>622.5</ele>
        <time>2020-09-18T12:29:24Z</time>
      </trkpt>
      <trkpt lat="44.27453" lon="6.01541">
        <ele>618.8</ele>
        <time>2020-09-18T12:29:28Z</time>
      </trkpt>
      <trkpt lat="44.27451" lon="6.01509">
        <ele>615.2</ele>
        <time>2020-09-18T12:29:32Z</time>
      </trkpt>
      <trkpt lat="44.27447" lon="6.01472">
        <ele>608.6</ele>
        <time>2020-09-18T12:29:37Z</time>
      </trkpt>
      <trkpt lat="44.27443" lon="6.01445">
        <ele>603.1</ele>
        <time>2020-09-18T12:29:41Z</time>
      </trkpt>
      <trkpt lat="44.27438" lon="6.01423">
        <ele>598.6</ele>
        <time>2020-09-18T12:29:46Z</time>
      </trkpt>
      <trkpt lat="44.27439" lon="6.0142">
        <ele>597.6</ele>
        <time>2020-09-18T12:29:47Z</time>
      </trkpt>
      <trkpt lat="44.27441" lon="6.01419">
        <ele>596.9</ele>
        <time>2020-09-18T12:29:48Z</time>
      </trkpt>
      <trkpt lat="44.27444" lon="6.01419">
        <ele>596.6</ele>
        <time>2020-09-18T12:29:49Z</time>
      </trkpt>
      <trkpt lat="44.27447" lon="6.01421">
        <ele>596.7</ele>
        <time>2020-09-18T12:29:50Z</time>
      </trkpt>
      <trkpt lat="44.27449" lon="6.01425">
        <ele>597.1</ele>
        <time>2020-09-18T12:29:51Z</time>
      </trkpt>
      <trkpt lat="44.27451" lon="6.0143">
        <ele>597.9</ele>
        <time>2020-09-18T12:29:52Z</time>
      </trkpt>
      <trkpt lat="44.27453" lon="6.01435">
        <ele>598.8</ele>
        <time>2020-09-18T12:29:53Z</time>
      </trkpt>
      <trkpt lat="44.27455" lon="6.0144">
        <ele>599.6</ele>
        <time>2020-09-18T12:29:54Z</time>
      </trkpt>
      <trkpt lat="44.27457" lon="6.01445">
        <ele>600.1</ele>
        <time>2020-09-18T12:29:55Z</time>
      </trkpt>
      <trkpt lat="44.27459" lon="6.01448">
        <ele>600.5</ele>
        <time>2020-09-18T12:29:56Z</time>
      </trkpt>
      <trkpt lat="44.27462" lon="6.01452">
        <ele>600.7</ele>
        <time>2020-09-18T12:29:57Z</time>
      </trkpt>
      <trkpt lat="44.27465" lon="6.01453">
        <ele>600.3</ele>
        <time>2020-09-18T12:29:58Z</time>
      </trkpt>
      <trkpt lat="44.27468" lon="6.01453">
        <ele>599.5</ele>
        <time>2020-09-18T12:29:59Z</time>
      </trkpt>
      <trkpt lat="44.27471" lon="6.01451">
        <ele>598.4</ele>
        <time>2020-09-18T12:30:00Z</time>
      </trkpt>
      <trkpt lat="44.27474" lon="6.01448">
        <ele>597.2</ele>
        <time>2020-09-18T12:30:01Z</time>
      </trkpt>
      <trkpt lat="44.27476" lon="6.01442">
        <ele>595.9</ele>
        <time>2020-09-18T12:30:02Z</time>
      </trkpt>
      <trkpt lat="44.27476" lon="6.01436">
        <ele>594.8</ele>
        <time>2020-09-18T12:30:03Z</time>
      </trkpt>
      <trkpt lat="44.27475" lon="6.0143">
        <ele>593.9</ele>
        <time>2020-09-18T12:30:04Z</time>
      </trkpt>
      <trkpt lat="44.27473" lon="6.01425">
        <ele>593.3</ele>
        <time>2020-09-18T12:30:05Z</time>
      </trkpt>
      <trkpt lat="44.2747" lon="6.01419">
        <ele>592.8</ele>
        <time>2020-09-18T12:30:06Z</time>
      </trkpt>
      <trkpt lat="44.27467" lon="6.01414">
        <ele>592.3</ele>
        <time>2020-09-18T12:30:07Z</time>
      </trkpt>
      <trkpt lat="44.27454" lon="6.01393">
        <ele>589.6</ele>
        <time>2020-09-18T12:30:11Z</time>
      </trkpt>
      <trkpt lat="44.27452" lon="6.01387">
        <ele>588.5</ele>
        <time>2020-09-18T12:30:12Z</time>
      </trkpt>
      <trkpt lat="44.27452" lon="6.01381">
        <ele>587.3</ele>
        <time>2020-09-18T12:30:13Z</time>
      </trkpt>
      <trkpt lat="44.27454" lon="6.01376">
        <ele>586</ele>
        <time>2020-09-18T12:30:14Z</time>
      </trkpt>
      <trkpt lat="44.27457" lon="6.01371">
        <ele>584.8</ele>
        <time>2020-09-18T12:30:15Z</time>
      </trkpt>
      <trkpt lat="44.2746" lon="6.01369">
        <ele>584</ele>
        <time>2020-09-18T12:30:16Z</time>
      </trkpt>
      <trkpt lat="44.27465" lon="6.01368">
        <ele>583.7</ele>
        <time>2020-09-18T12:30:17Z</time>
      </trkpt>
      <trkpt lat="44.2747" lon="6.0137">
        <ele>583.7</ele>
        <time>2020-09-18T12:30:18Z</time>
      </trkpt>
      <trkpt lat="44.27475" lon="6.01372">
        <ele>583.8</ele>
        <time>2020-09-18T12:30:19Z</time>
      </trkpt>
      <trkpt lat="44.27481" lon="6.01375">
        <ele>583.9</ele>
        <time>2020-09-18T12:30:20Z</time>
      </trkpt>
      <trkpt lat="44.27509" lon="6.01393">
        <ele>584.4</ele>
        <time>2020-09-18T12:30:25Z</time>
      </trkpt>
      <trkpt lat="44.27518" lon="6.01398">
        <ele>584.5</ele>
        <time>2020-09-18T12:30:27Z</time>
      </trkpt>
      <trkpt lat="44.27523" lon="6.01399">
        <ele>584.3</ele>
        <time>2020-09-18T12:30:28Z</time>
      </trkpt>
      <trkpt lat="44.27528" lon="6.01399">
        <ele>584</ele>
        <time>2020-09-18T12:30:29Z</time>
      </trkpt>
      <trkpt lat="44.27534" lon="6.01397">
        <ele>583.4</ele>
        <time>2020-09-18T12:30:30Z</time>
      </trkpt>
      <trkpt lat="44.27541" lon="6.01393">
        <ele>582.7</ele>
        <time>2020-09-18T12:30:31Z</time>
      </trkpt>
      <trkpt lat="44.27547" lon="6.01389">
        <ele>581.9</ele>
        <time>2020-09-18T12:30:32Z</time>
      </trkpt>
      <trkpt lat="44.27574" lon="6.0137">
        <ele>579</ele>
        <time>2020-09-18T12:30:36Z</time>
      </trkpt>
      <trkpt lat="44.27616" lon="6.01341">
        <ele>575.7</ele>
        <time>2020-09-18T12:30:42Z</time>
      </trkpt>
      <trkpt lat="44.2764" lon="6.01326">
        <ele>574.6</ele>
        <time>2020-09-18T12:30:46Z</time>
      </trkpt>
      <trkpt lat="44.27655" lon="6.01325">
        <ele>574.3</ele>
        <time>2020-09-18T12:30:50Z</time>
      </trkpt>
      <trkpt lat="44.27659" lon="6.01328">
        <ele>574.2</ele>
        <time>2020-09-18T12:30:51Z</time>
      </trkpt>
      <trkpt lat="44.27663" lon="6.01332">
        <ele>574.1</ele>
        <time>2020-09-18T12:30:52Z</time>
      </trkpt>
      <trkpt lat="44.27667" lon="6.01336">
        <ele>574.1</ele>
        <time>2020-09-18T12:30:53Z</time>
      </trkpt>
      <trkpt lat="44.2767" lon="6.01341">
        <ele>574.4</ele>
        <time>2020-09-18T12:30:54Z</time>
      </trkpt>
      <trkpt lat="44.27673" lon="6.01346">
        <ele>574.7</ele>
        <time>2020-09-18T12:30:55Z</time>
      </trkpt>
      <trkpt lat="44.27676" lon="6.01351">
        <ele>574.9</ele>
        <time>2020-09-18T12:30:56Z</time>
      </trkpt>
      <trkpt lat="44.27678" lon="6.01356">
        <ele>575.2</ele>
        <time>2020-09-18T12:30:57Z</time>
      </trkpt>
      <trkpt lat="44.27711" lon="6.0141">
        <ele>577.9</ele>
        <time>2020-09-18T12:31:11Z</time>
      </trkpt>
      <trkpt lat="44.27753" lon="6.01447">
        <ele>579.4</ele>
        <time>2020-09-18T12:31:26Z</time>
      </trkpt>
      <trkpt lat="44.27797" lon="6.01471">
        <ele>580.2</ele>
        <time>2020-09-18T12:31:40Z</time>
      </trkpt>
      <trkpt lat="44.27855" lon="6.01489">
        <ele>581</ele>
        <time>2020-09-18T12:31:59Z</time>
      </trkpt>
      <trkpt lat="44.27887" lon="6.01517">
        <ele>581.1</ele>
        <time>2020-09-18T12:32:12Z</time>
      </trkpt>
      <trkpt lat="44.27918" lon="6.01546">
        <ele>581.6</ele>
        <time>2020-09-18T12:32:25Z</time>
      </trkpt>
      <trkpt lat="44.27958" lon="6.01572">
        <ele>583.3</ele>
        <time>2020-09-18T12:32:40Z</time>
      </trkpt>
      <trkpt lat="44.28015" lon="6.01575">
        <ele>585.1</ele>
        <time>2020-09-18T12:32:58Z</time>
      </trkpt>
      <trkpt lat="44.28046" lon="6.01588">
        <ele>585.5</ele>
        <time>2020-09-18T12:33:12Z</time>
      </trkpt>
      <trkpt lat="44.28051" lon="6.01626">
        <ele>585.3</ele>
        <time>2020-09-18T12:33:23Z</time>
      </trkpt>
      <trkpt lat="44.28061" lon="6.01675">
        <ele>584.9</ele>
        <time>2020-09-18T12:33:37Z</time>
      </trkpt>
      <trkpt lat="44.28071" lon="6.01716">
        <ele>584.6</ele>
        <time>2020-09-18T12:33:50Z</time>
      </trkpt>
      <trkpt lat="44.28093" lon="6.01757">
        <ele>586.4</ele>
        <time>2020-09-18T12:34:05Z</time>
      </trkpt>
      <trkpt lat="44.28107" lon="6.01798">
        <ele>590</ele>
        <time>2020-09-18T12:34:20Z</time>
      </trkpt>
      <trkpt lat="44.28134" lon="6.01823">
        <ele>595.2</ele>
        <time>2020-09-18T12:34:34Z</time>
      </trkpt>
      <trkpt lat="44.28158" lon="6.01839">
        <ele>599.7</ele>
        <time>2020-09-18T12:34:46Z</time>
      </trkpt>
      <trkpt lat="44.28177" lon="6.01849">
        <ele>601.7</ele>
        <time>2020-09-18T12:34:56Z</time>
      </trkpt>
      <trkpt lat="44.28191" lon="6.01859">
        <ele>602.6</ele>
        <time>2020-09-18T12:35:04Z</time>
      </trkpt>
      <trkpt lat="44.2821" lon="6.01866">
        <ele>603.9</ele>
        <time>2020-09-18T12:35:15Z</time>
      </trkpt>
      <trkpt lat="44.2821" lon="6.01866">
        <ele>603.9</ele>
        <time>2020-09-18T12:35:19Z</time>
      </trkpt>
      <trkpt lat="44.2822" lon="6.01867">
        <ele>604.4</ele>
        <time>2020-09-18T12:38:35Z</time>
      </trkpt>
      <trkpt lat="44.28222" lon="6.01867">
        <ele>604.6</ele>
        <time>2020-09-18T12:38:36Z</time>
      </trkpt>
      <trkpt lat="44.28224" lon="6.01868">
        <ele>604.7</ele>
        <time>2020-09-18T12:38:37Z</time>
      </trkpt>
      <trkpt lat="44.28227" lon="6.01868">
        <ele>604.9</ele>
        <time>2020-09-18T12:38:38Z</time>
      </trkpt>
      <trkpt lat="44.28229" lon="6.01869">
        <ele>605</ele>
        <time>2020-09-18T12:38:39Z</time>
      </trkpt>
      <trkpt lat="44.28231" lon="6.01869">
        <ele>605.2</ele>
        <time>2020-09-18T12:38:40Z</time>
      </trkpt>
      <trkpt lat="44.28271" lon="6.01888">
        <ele>607.1</ele>
        <time>2020-09-18T12:38:56Z</time>
      </trkpt>
      <trkpt lat="44.28311" lon="6.01923">
        <ele>608.1</ele>
        <time>2020-09-18T12:39:13Z</time>
      </trkpt>
      <trkpt lat="44.28359" lon="6.01957">
        <ele>609.2</ele>
        <time>2020-09-18T12:39:34Z</time>
      </trkpt>
      <trkpt lat="44.28412" lon="6.01989">
        <ele>611.6</ele>
        <time>2020-09-18T12:39:56Z</time>
      </trkpt>
      <trkpt lat="44.28462" lon="6.02037">
        <ele>611.8</ele>
        <time>2020-09-18T12:40:14Z</time>
      </trkpt>
      <trkpt lat="44.28536" lon="6.02122">
        <ele>613.8</ele>
        <time>2020-09-18T12:40:34Z</time>
      </trkpt>
      <trkpt lat="44.28623" lon="6.02223">
        <ele>616.3</ele>
        <time>2020-09-18T12:40:57Z</time>
      </trkpt>
      <trkpt lat="44.28673" lon="6.02279">
        <ele>615.3</ele>
        <time>2020-09-18T12:41:10Z</time>
      </trkpt>
      <trkpt lat="44.28744" lon="6.02359">
        <ele>616.8</ele>
        <time>2020-09-18T12:41:29Z</time>
      </trkpt>
      <trkpt lat="44.28803" lon="6.02444">
        <ele>614.9</ele>
        <time>2020-09-18T12:41:46Z</time>
      </trkpt>
      <trkpt lat="44.28859" lon="6.02485">
        <ele>613.1</ele>
        <time>2020-09-18T12:41:59Z</time>
      </trkpt>
      <trkpt lat="44.28965" lon="6.02523">
        <ele>613.8</ele>
        <time>2020-09-18T12:42:18Z</time>
      </trkpt>
      <trkpt lat="44.28977" lon="6.02531">
        <ele>613.4</ele>
        <time>2020-09-18T12:42:20Z</time>
      </trkpt>
      <trkpt lat="44.28982" lon="6.02536">
        <ele>613.1</ele>
        <time>2020-09-18T12:42:21Z</time>
      </trkpt>
      <trkpt lat="44.2908" lon="6.02619">
        <ele>610.2</ele>
        <time>2020-09-18T12:42:36Z</time>
      </trkpt>
      <trkpt lat="44.2916" lon="6.02681">
        <ele>614.1</ele>
        <time>2020-09-18T12:42:46Z</time>
      </trkpt>
      <trkpt lat="44.29168" lon="6.02686">
        <ele>614.1</ele>
        <time>2020-09-18T12:42:47Z</time>
      </trkpt>
      <trkpt lat="44.29209" lon="6.02704">
        <ele>612.4</ele>
        <time>2020-09-18T12:42:52Z</time>
      </trkpt>
      <trkpt lat="44.29288" lon="6.02714">
        <ele>612.2</ele>
        <time>2020-09-18T12:43:04Z</time>
      </trkpt>
      <trkpt lat="44.29417" lon="6.02772">
        <ele>612.3</ele>
        <time>2020-09-18T12:43:27Z</time>
      </trkpt>
      <trkpt lat="44.29516" lon="6.0282">
        <ele>616.8</ele>
        <time>2020-09-18T12:43:46Z</time>
      </trkpt>
      <trkpt lat="44.29594" lon="6.02889">
        <ele>627.2</ele>
        <time>2020-09-18T12:44:03Z</time>
      </trkpt>
      <trkpt lat="44.29633" lon="6.02989">
        <ele>633.4</ele>
        <time>2020-09-18T12:44:18Z</time>
      </trkpt>
      <trkpt lat="44.29646" lon="6.03023">
        <ele>633</ele>
        <time>2020-09-18T12:44:23Z</time>
      </trkpt>
      <trkpt lat="44.29702" lon="6.03134">
        <ele>634.1</ele>
        <time>2020-09-18T12:44:40Z</time>
      </trkpt>
      <trkpt lat="44.29714" lon="6.03152">
        <ele>634</ele>
        <time>2020-09-18T12:44:43Z</time>
      </trkpt>
      <trkpt lat="44.29727" lon="6.03169">
        <ele>633.6</ele>
        <time>2020-09-18T12:44:46Z</time>
      </trkpt>
      <trkpt lat="44.29813" lon="6.0324">
        <ele>632.2</ele>
        <time>2020-09-18T12:45:03Z</time>
      </trkpt>
      <trkpt lat="44.29897" lon="6.03273">
        <ele>633.2</ele>
        <time>2020-09-18T12:45:17Z</time>
      </trkpt>
      <trkpt lat="44.30008" lon="6.03293">
        <ele>632.8</ele>
        <time>2020-09-18T12:45:34Z</time>
      </trkpt>
      <trkpt lat="44.30027" lon="6.03297">
        <ele>632.8</ele>
        <time>2020-09-18T12:45:37Z</time>
      </trkpt>
      <trkpt lat="44.30126" lon="6.0332">
        <ele>629.7</ele>
        <time>2020-09-18T12:45:53Z</time>
      </trkpt>
      <trkpt lat="44.30248" lon="6.03348">
        <ele>638.3</ele>
        <time>2020-09-18T12:46:13Z</time>
      </trkpt>
      <trkpt lat="44.30329" lon="6.03366">
        <ele>636.9</ele>
        <time>2020-09-18T12:46:27Z</time>
      </trkpt>
      <trkpt lat="44.30371" lon="6.03366">
        <ele>636.2</ele>
        <time>2020-09-18T12:46:38Z</time>
      </trkpt>
      <trkpt lat="44.30371" lon="6.03368">
        <ele>635.8</ele>
        <time>2020-09-18T12:46:42Z</time>
      </trkpt>
    </trkseg>
  </trk>
</gpx>